
Distance (Route):
Temperature : 0°C
Humidity : 0%
Pressure : 0hPa| Receiver | Frames | First received | Last received |
|---|---|---|---|
| 9A1FER-10 | 254 | 2026-09-04 11:54:51 | 2026-09-04 13:12:06 |
| 9A1FER-15 | 241 | 2026-09-04 11:55:32 | 2026-09-04 13:06:08 |
| 9A1FER-3 | 234 | 2026-09-04 11:54:28 | 2026-09-04 13:14:40 |
| OM5KV | 71 | 2026-09-04 12:00:16 | 2026-09-04 12:08:09 |
| OE3JTB-15 | 19 | 2026-09-04 11:53:41 | 2026-09-04 12:43:56 |
| PETON7-10 | 15 | 2026-09-04 12:46:45 | 2026-09-04 12:58:18 |
| Receiver | Date | Latitude | Longitude | Direction | Speed | Altitude | Climb | Temperature | Humidity | Pressure | Voltage | Killtimer | Uptime | BKT | XDATA |
|---|---|---|---|---|---|---|---|---|---|---|---|---|---|---|---|
| 9A1FER-3 | 2026-09-04 13:14:40 | 45.70302 | 15.05443 | 160° | 40km/h | 4401m | -12.2m/s | 0°C | 0% | 0hPa | 0V | 00:00:00 | 00:00:00 | 00:00:00 | |
| 9A1FER-3 | 2026-09-04 13:13:24 | 45.71111 | 15.05029 | 161° | 55km/h | 5453m | -12.6m/s | 0°C | 0% | 0hPa | 0V | 00:00:00 | 00:00:00 | 00:00:00 | |
| 9A1FER-3 | 2026-09-04 13:13:07 | 45.71322 | 15.04894 | 157° | 58km/h | 5670m | -12.8m/s | 0°C | 0% | 0hPa | 0V | 00:00:00 | 00:00:00 | 00:00:00 | |
| 9A1FER-3 | 2026-09-04 13:12:40 | 45.71681 | 15.04620 | 149° | 64km/h | 6020m | -13.0m/s | 0°C | 0% | 0hPa | 0V | 00:00:00 | 00:00:00 | 00:00:00 | |
| 9A1FER-3 | 2026-09-04 13:12:24 | 45.71905 | 15.04437 | 148° | 64km/h | 6229m | -16.2m/s | 0°C | 0% | 0hPa | 0V | 00:00:00 | 00:00:00 | 00:00:00 | |
| 9A1FER-10 | 2026-09-04 13:12:06 | 45.72185 | 15.04237 | 154° | 58km/h | 6477m | -14.9m/s | 0°C | 0% | 0hPa | 0V | 00:00:00 | 00:00:00 | 00:00:00 | |
| 9A1FER-3 | 2026-09-04 13:11:24 | 45.72699 | 15.03677 | 133° | 57km/h | 7044m | -12.9m/s | 0°C | 0% | 0hPa | 0V | 00:00:00 | 00:00:00 | 00:00:00 | |
| 9A1FER-3 | 2026-09-04 13:11:08 | 45.72853 | 15.03447 | 132° | 51km/h | 7271m | -15.0m/s | 0°C | 0% | 0hPa | 0V | 00:00:00 | 00:00:00 | 00:00:00 | |
| 9A1FER-10 | 2026-09-04 13:11:02 | 45.72906 | 15.03368 | 132° | 51km/h | 7361m | -15.2m/s | 0°C | 0% | 0hPa | 0V | 00:00:00 | 00:00:00 | 00:00:00 | |
| 9A1FER-3 | 2026-09-04 13:10:52 | 45.72992 | 15.03230 | 134° | 53km/h | 7509m | -14.4m/s | 0°C | 0% | 0hPa | 0V | 00:00:00 | 00:00:00 | 00:00:00 | |
| 9A1FER-10 | 2026-09-04 13:10:46 | 45.73051 | 15.03131 | 132° | 51km/h | 7611m | -14.8m/s | 0°C | 0% | 0hPa | 0V | 00:00:00 | 00:00:00 | 00:00:00 | |
| 9A1FER-10 | 2026-09-04 13:10:29 | 45.73194 | 15.02892 | 132° | 60km/h | 7855m | -17.8m/s | 0°C | 0% | 0hPa | 0V | 00:00:00 | 00:00:00 | 00:00:00 | |
| 9A1FER-3 | 2026-09-04 13:10:09 | 45.73380 | 15.02585 | 129° | 47km/h | 8154m | -15.2m/s | 0°C | 0% | 0hPa | 0V | 00:00:00 | 00:00:00 | 00:00:00 | |
| 9A1FER-10 | 2026-09-04 13:09:58 | 45.73448 | 15.02419 | 112° | 44km/h | 8315m | -15.0m/s | 0°C | 0% | 0hPa | 0V | 00:00:00 | 00:00:00 | 00:00:00 | |
| 9A1FER-3 | 2026-09-04 13:09:53 | 45.73473 | 15.02342 | 108° | 44km/h | 8392m | -15.0m/s | 0°C | 0% | 0hPa | 0V | 00:00:00 | 00:00:00 | 00:00:00 | |
| 9A1FER-10 | 2026-09-04 13:09:41 | 45.73522 | 15.02157 | 120° | 44km/h | 8565m | -14.1m/s | 0°C | 0% | 0hPa | 0V | 00:00:00 | 00:00:00 | 00:00:00 | |
| 9A1FER-3 | 2026-09-04 13:09:37 | 45.73545 | 15.02101 | 121° | 51km/h | 8622m | -14.6m/s | 0°C | 0% | 0hPa | 0V | 00:00:00 | 00:00:00 | 00:00:00 | |
| 9A1FER-10 | 2026-09-04 13:08:14 | 45.74116 | 15.00867 | 131° | 47km/h | 10139m | -19.2m/s | 0°C | 0% | 0hPa | 0V | 00:00:00 | 00:00:00 | 00:00:00 | |
| 9A1FER-10 | 2026-09-04 13:07:49 | 45.74298 | 15.00491 | 128° | 47km/h | 10623m | -19.5m/s | 0°C | 0% | 0hPa | 0V | 00:00:00 | 00:00:00 | 00:00:00 | |
| 9A1FER-10 | 2026-09-04 13:07:34 | 45.74419 | 15.00295 | 135° | 57km/h | 10917m | -20.1m/s | 0°C | 0% | 0hPa | 0V | 00:00:00 | 00:00:00 | 00:00:00 | |
| 9A1FER-10 | 2026-09-04 13:07:18 | 45.74580 | 15.00062 | 137° | 55km/h | 11229m | -19.4m/s | 0°C | 0% | 0hPa | 0V | 00:00:00 | 00:00:00 | 00:00:00 | |
| 9A1FER-10 | 2026-09-04 13:07:03 | 45.74739 | 14.99867 | 142° | 47km/h | 11521m | -19.9m/s | 0°C | 0% | 0hPa | 0V | 00:00:00 | 00:00:00 | 00:00:00 | |
| 9A1FER-10 | 2026-09-04 13:06:48 | 45.74878 | 14.99701 | 136° | 47km/h | 11815m | -19.7m/s | 0°C | 0% | 0hPa | 0V | 00:00:00 | 00:00:00 | 00:00:00 | |
| 9A1FER-10 | 2026-09-04 13:06:18 | 45.75132 | 14.99317 | 131° | 51km/h | 12411m | -19.8m/s | 0°C | 0% | 0hPa | 0V | 00:00:00 | 00:00:00 | 00:00:00 | |
| 9A1FER-3 | 2026-09-04 13:06:11 | 45.75197 | 14.99223 | 140° | 53km/h | 12551m | -19.9m/s | 0°C | 0% | 0hPa | 0V | 00:00:00 | 00:00:00 | 00:00:00 | |
| 9A1FER-15 | 2026-09-04 13:06:08 | 45.75227 | 14.99187 | 143° | 53km/h | 12611m | -20.2m/s | 0°C | 0% | 0hPa | 0V | 00:00:00 | 00:00:00 | 00:00:00 | |
| 9A1FER-10 | 2026-09-04 13:06:03 | 45.75282 | 14.99132 | 147° | 51km/h | 12713m | -20.1m/s | 0°C | 0% | 0hPa | 0V | 00:00:00 | 00:00:00 | 00:00:00 | |
| 9A1FER-3 | 2026-09-04 13:05:55 | 45.75375 | 14.99060 | 157° | 47km/h | 12878m | -21.0m/s | 0°C | 0% | 0hPa | 0V | 00:00:00 | 00:00:00 | 00:00:00 | |
| 9A1FER-10 | 2026-09-04 13:05:48 | 45.75456 | 14.99022 | 164° | 46km/h | 13027m | -21.3m/s | 0°C | 0% | 0hPa | 0V | 00:00:00 | 00:00:00 | 00:00:00 | |
| 9A1FER-3 | 2026-09-04 13:05:33 | 45.75617 | 14.98934 | 146° | 62km/h | 13347m | -20.9m/s | 0°C | 0% | 0hPa | 0V | 00:00:00 | 00:00:00 | 00:00:00 | |
| 9A1FER-3 | 2026-09-04 13:05:18 | 45.75810 | 14.98728 | 146° | 71km/h | 13665m | -21.4m/s | 0°C | 0% | 0hPa | 0V | 00:00:00 | 00:00:00 | 00:00:00 | |
| 9A1FER-10 | 2026-09-04 13:05:17 | 45.75826 | 14.98713 | 148° | 77km/h | 13687m | -21.4m/s | 0°C | 0% | 0hPa | 0V | 00:00:00 | 00:00:00 | 00:00:00 | |
| 9A1FER-15 | 2026-09-04 13:05:15 | 45.75858 | 14.98684 | 150° | 73km/h | 13730m | -21.7m/s | 0°C | 0% | 0hPa | 0V | 00:00:00 | 00:00:00 | 00:00:00 | |
| 9A1FER-10 | 2026-09-04 13:05:02 | 45.76083 | 14.98531 | 160° | 62km/h | 14015m | -22.6m/s | 0°C | 0% | 0hPa | 0V | 00:00:00 | 00:00:00 | 00:00:00 | |
| 9A1FER-10 | 2026-09-04 13:04:47 | 45.76290 | 14.98364 | 142° | 64km/h | 14352m | -22.6m/s | 0°C | 0% | 0hPa | 0V | 00:00:00 | 00:00:00 | 00:00:00 | |
| 9A1FER-3 | 2026-09-04 13:04:44 | 45.76330 | 14.98320 | 141° | 62km/h | 14420m | -22.7m/s | 0°C | 0% | 0hPa | 0V | 00:00:00 | 00:00:00 | 00:00:00 | |
| 9A1FER-15 | 2026-09-04 13:04:35 | 45.76445 | 14.98196 | 144° | 64km/h | 14626m | -23.1m/s | 0°C | 0% | 0hPa | 0V | 00:00:00 | 00:00:00 | 00:00:00 | |
| 9A1FER-10 | 2026-09-04 13:04:32 | 45.76484 | 14.98157 | 144° | 60km/h | 14696m | -23.0m/s | 0°C | 0% | 0hPa | 0V | 00:00:00 | 00:00:00 | 00:00:00 | |
| 9A1FER-3 | 2026-09-04 13:04:29 | 45.76520 | 14.98117 | 144° | 58km/h | 14764m | -22.8m/s | 0°C | 0% | 0hPa | 0V | 00:00:00 | 00:00:00 | 00:00:00 | |
| 9A1FER-15 | 2026-09-04 13:04:19 | 45.76654 | 14.97993 | 149° | 44km/h | 15001m | -23.9m/s | 0°C | 0% | 0hPa | 0V | 00:00:00 | 00:00:00 | 00:00:00 | |
| 9A1FER-10 | 2026-09-04 13:04:16 | 45.76686 | 14.97965 | 148° | 42km/h | 15072m | -23.8m/s | 0°C | 0% | 0hPa | 0V | 00:00:00 | 00:00:00 | 00:00:00 | |
| 9A1FER-3 | 2026-09-04 13:04:14 | 45.76706 | 14.97947 | 146° | 42km/h | 15120m | -23.9m/s | 0°C | 0% | 0hPa | 0V | 00:00:00 | 00:00:00 | 00:00:00 | |
| 9A1FER-15 | 2026-09-04 13:04:04 | 45.76794 | 14.97847 | 137° | 55km/h | 15384m | -23.8m/s | 0°C | 0% | 0hPa | 0V | 00:00:00 | 00:00:00 | 00:00:00 | |
| 9A1FER-10 | 2026-09-04 13:04:01 | 45.76809 | 14.97824 | 133° | 55km/h | 15431m | -23.5m/s | 0°C | 0% | 0hPa | 0V | 00:00:00 | 00:00:00 | 00:00:00 | |
| 9A1FER-3 | 2026-09-04 13:03:58 | 45.76834 | 14.97786 | 133° | 53km/h | 15502m | -23.7m/s | 0°C | 0% | 0hPa | 0V | 00:00:00 | 00:00:00 | 00:00:00 | |
| 9A1FER-10 | 2026-09-04 13:03:46 | 45.76960 | 14.97617 | 137° | 47km/h | 15797m | -25.7m/s | 0°C | 0% | 0hPa | 0V | 00:00:00 | 00:00:00 | 00:00:00 | |
| 9A1FER-15 | 2026-09-04 13:03:45 | 45.76970 | 14.97603 | 135° | 46km/h | 15823m | -26.0m/s | 0°C | 0% | 0hPa | 0V | 00:00:00 | 00:00:00 | 00:00:00 | |
| 9A1FER-3 | 2026-09-04 13:03:38 | 45.77027 | 14.97509 | 127° | 44km/h | 16006m | -25.3m/s | 0°C | 0% | 0hPa | 0V | 00:00:00 | 00:00:00 | 00:00:00 | |
| 9A1FER-10 | 2026-09-04 13:03:31 | 45.77075 | 14.97420 | 131° | 35km/h | 16182m | -25.7m/s | 0°C | 0% | 0hPa | 0V | 00:00:00 | 00:00:00 | 00:00:00 | |
| 9A1FER-15 | 2026-09-04 13:03:28 | 45.77097 | 14.97384 | 133° | 31km/h | 16260m | -26.0m/s | 0°C | 0% | 0hPa | 0V | 00:00:00 | 00:00:00 | 00:00:00 | |
| 9A1FER-3 | 2026-09-04 13:03:23 | 45.77125 | 14.97338 | 123° | 22km/h | 16390m | -26.2m/s | 0°C | 0% | 0hPa | 0V | 00:00:00 | 00:00:00 | 00:00:00 | |
| 9A1FER-10 | 2026-09-04 13:03:16 | 45.77148 | 14.97275 | 116° | 18km/h | 16575m | -26.7m/s | 0°C | 0% | 0hPa | 0V | 00:00:00 | 00:00:00 | 00:00:00 | |
| 9A1FER-3 | 2026-09-04 13:03:07 | 45.77162 | 14.97218 | 98° | 26km/h | 16816m | -26.7m/s | 0°C | 0% | 0hPa | 0V | 00:00:00 | 00:00:00 | 00:00:00 | |
| 9A1FER-10 | 2026-09-04 13:03:01 | 45.77171 | 14.97178 | 120° | 26km/h | 16976m | -26.8m/s | 0°C | 0% | 0hPa | 0V | 00:00:00 | 00:00:00 | 00:00:00 | |
| 9A1FER-10 | 2026-09-04 13:02:46 | 45.77214 | 14.97058 | 104° | 22km/h | 17386m | -27.5m/s | 0°C | 0% | 0hPa | 0V | 00:00:00 | 00:00:00 | 00:00:00 | |
| 9A1FER-10 | 2026-09-04 13:02:31 | 45.77249 | 14.96949 | 101° | 33km/h | 17816m | -29.1m/s | 0°C | 0% | 0hPa | 0V | 00:00:00 | 00:00:00 | 00:00:00 | |
| 9A1FER-15 | 2026-09-04 13:02:16 | 45.77289 | 14.96781 | 104° | 31km/h | 18254m | -29.3m/s | 0°C | 0% | 0hPa | 0V | 00:00:00 | 00:00:00 | 00:00:00 | |
| 9A1FER-15 | 2026-09-04 13:02:01 | 45.77325 | 14.96623 | 121° | 38km/h | 18713m | -30.6m/s | 0°C | 0% | 0hPa | 0V | 00:00:00 | 00:00:00 | 00:00:00 | |
| 9A1FER-3 | 2026-09-04 13:01:49 | 45.77394 | 14.96486 | 136° | 24km/h | 19086m | -32.0m/s | 0°C | 0% | 0hPa | 0V | 00:00:00 | 00:00:00 | 00:00:00 | |
| 9A1FER-15 | 2026-09-04 13:01:46 | 45.77411 | 14.96465 | 143° | 18km/h | 19183m | -32.3m/s | 0°C | 0% | 0hPa | 0V | 00:00:00 | 00:00:00 | 00:00:00 | |
| 9A1FER-10 | 2026-09-04 13:01:45 | 45.77416 | 14.96459 | 142° | 18km/h | 19215m | -32.3m/s | 0°C | 0% | 0hPa | 0V | 00:00:00 | 00:00:00 | 00:00:00 | |
| 9A1FER-10 | 2026-09-04 13:01:29 | 45.77480 | 14.96412 | 176° | 5km/h | 19752m | -34.9m/s | 0°C | 0% | 0hPa | 0V | 00:00:00 | 00:00:00 | 00:00:00 | |
| 9A1FER-10 | 2026-09-04 13:01:14 | 45.77490 | 14.96394 | 90° | 15km/h | 20290m | -35.7m/s | 0°C | 0% | 0hPa | 0V | 00:00:00 | 00:00:00 | 00:00:00 | |
| 9A1FER-15 | 2026-09-04 13:01:03 | 45.77506 | 14.96351 | 147° | 7km/h | 20675m | -35.9m/s | 0°C | 0% | 0hPa | 0V | 00:00:00 | 00:00:00 | 00:00:00 | |
| 9A1FER-10 | 2026-09-04 13:00:59 | 45.77524 | 14.96336 | 158° | 11km/h | 20828m | -40.3m/s | 0°C | 0% | 0hPa | 0V | 00:00:00 | 00:00:00 | 00:00:00 | |
| 9A1FER-3 | 2026-09-04 13:00:58 | 45.77529 | 14.96334 | 155° | 9km/h | 20869m | -41.4m/s | 0°C | 0% | 0hPa | 0V | 00:00:00 | 00:00:00 | 00:00:00 | |
| 9A1FER-10 | 2026-09-04 13:00:44 | 45.77557 | 14.96314 | 23° | 7km/h | 21494m | -46.0m/s | 0°C | 0% | 0hPa | 0V | 00:00:00 | 00:00:00 | 00:00:00 | |
| 9A1FER-3 | 2026-09-04 13:00:43 | 45.77557 | 14.96314 | 349° | 5km/h | 21540m | -46.3m/s | 0°C | 0% | 0hPa | 0V | 00:00:00 | 00:00:00 | 00:00:00 | |
| 9A1FER-10 | 2026-09-04 13:00:29 | 45.77535 | 14.96328 | 3° | 16km/h | 22179m | -44.3m/s | 0°C | 0% | 0hPa | 0V | 00:00:00 | 00:00:00 | 00:00:00 | |
| 9A1FER-15 | 2026-09-04 12:59:46 | 45.77486 | 14.96266 | 355° | 7km/h | 24290m | -54.7m/s | 0°C | 0% | 0hPa | 0V | 00:00:00 | 00:00:00 | 00:00:00 | |
| 9A1FER-3 | 2026-09-04 12:59:36 | 45.77479 | 14.96213 | 229° | 9km/h | 24815m | -58.8m/s | 0°C | 0% | 0hPa | 0V | 00:00:00 | 00:00:00 | 00:00:00 | |
| 9A1FER-10 | 2026-09-04 12:59:35 | 45.77479 | 14.96215 | 267° | 5km/h | 24875m | -60.2m/s | 0°C | 0% | 0hPa | 0V | 00:00:00 | 00:00:00 | 00:00:00 | |
| 9A1FER-15 | 2026-09-04 12:59:30 | 45.77484 | 14.96208 | 137° | 5km/h | 25151m | -49.8m/s | 0°C | 0% | 0hPa | 0V | 00:00:00 | 00:00:00 | 00:00:00 | |
| 9A1FER-10 | 2026-09-04 12:59:20 | 45.77488 | 14.96203 | 360° | 9km/h | 25683m | -56.8m/s | 0°C | 0% | 0hPa | 0V | 00:00:00 | 00:00:00 | 00:00:00 | |
| 9A1FER-15 | 2026-09-04 12:59:11 | 45.77455 | 14.96192 | 5° | 9km/h | 26149m | -32.9m/s | 0°C | 0% | 0hPa | 0V | 00:00:00 | 00:00:00 | 00:00:00 | |
| 9A1FER-10 | 2026-09-04 12:59:02 | 45.77468 | 14.96210 | 195° | 7km/h | 26223m | 6.5m/s | 0°C | 0% | 0hPa | 0V | 00:00:00 | 00:00:00 | 00:00:00 | |
| 9A1FER-15 | 2026-09-04 12:58:50 | 45.77482 | 14.96197 | 103° | 15km/h | 26160m | 6.2m/s | 0°C | 0% | 0hPa | 0V | 00:00:00 | 00:00:00 | 00:00:00 | |
| 9A1FER-10 | 2026-09-04 12:58:42 | 45.77480 | 14.96170 | 310° | 16km/h | 26114m | 6.5m/s | 0°C | 0% | 0hPa | 0V | 00:00:00 | 00:00:00 | 00:00:00 | |
| PETON7-10 | 2026-09-04 12:58:18 | 45.77426 | 14.96061 | 42° | 15km/h | 25980m | 6.0m/s | 0°C | 0% | 0hPa | 0V | 00:00:00 | 00:00:00 | 00:00:00 | |
| 9A1FER-15 | 2026-09-04 12:58:03 | 45.77394 | 14.96020 | 92° | 9km/h | 25903m | 5.8m/s | 0°C | 0% | 0hPa | 0V | 00:00:00 | 00:00:00 | 00:00:00 | |
| PETON7-10 | 2026-09-04 12:58:02 | 45.77395 | 14.96016 | 114° | 13km/h | 25898m | 5.0m/s | 0°C | 0% | 0hPa | 0V | 00:00:00 | 00:00:00 | 00:00:00 | |
| 9A1FER-3 | 2026-09-04 12:57:54 | 45.77382 | 14.96020 | 27° | 11km/h | 25856m | 4.4m/s | 0°C | 0% | 0hPa | 0V | 00:00:00 | 00:00:00 | 00:00:00 | |
| 9A1FER-15 | 2026-09-04 12:57:46 | 45.77373 | 14.96021 | 341° | 9km/h | 25814m | 5.8m/s | 0°C | 0% | 0hPa | 0V | 00:00:00 | 00:00:00 | 00:00:00 | |
| PETON7-10 | 2026-09-04 12:57:45 | 45.77371 | 14.96022 | 325° | 7km/h | 25809m | 4.9m/s | 0°C | 0% | 0hPa | 0V | 00:00:00 | 00:00:00 | 00:00:00 | |
| 9A1FER-15 | 2026-09-04 12:57:31 | 45.77376 | 14.96054 | 233° | 9km/h | 25736m | 5.8m/s | 0°C | 0% | 0hPa | 0V | 00:00:00 | 00:00:00 | 00:00:00 | |
| 9A1FER-10 | 2026-09-04 12:57:28 | 45.77381 | 14.96061 | 198° | 9km/h | 25720m | 4.5m/s | 0°C | 0% | 0hPa | 0V | 00:00:00 | 00:00:00 | 00:00:00 | |
| 9A1FER-10 | 2026-09-04 12:57:13 | 45.77399 | 14.96098 | 263° | 15km/h | 25643m | 4.3m/s | 0°C | 0% | 0hPa | 0V | 00:00:00 | 00:00:00 | 00:00:00 | |
| PETON7-10 | 2026-09-04 12:57:09 | 45.77409 | 14.96093 | 156° | 18km/h | 25624m | 4.8m/s | 0°C | 0% | 0hPa | 0V | 00:00:00 | 00:00:00 | 00:00:00 | |
| 9A1FER-15 | 2026-09-04 12:57:07 | 45.77415 | 14.96092 | 198° | 11km/h | 25614m | 5.5m/s | 0°C | 0% | 0hPa | 0V | 00:00:00 | 00:00:00 | 00:00:00 | |
| 9A1FER-10 | 2026-09-04 12:56:55 | 45.77449 | 14.96080 | 234° | 13km/h | 25550m | 3.7m/s | 0°C | 0% | 0hPa | 0V | 00:00:00 | 00:00:00 | 00:00:00 | |
| 9A1FER-3 | 2026-09-04 12:56:54 | 45.77449 | 14.96082 | 319° | 11km/h | 25545m | 6.0m/s | 0°C | 0% | 0hPa | 0V | 00:00:00 | 00:00:00 | 00:00:00 | |
| PETON7-10 | 2026-09-04 12:56:49 | 45.77447 | 14.96066 | 137° | 16km/h | 25520m | 5.0m/s | 0°C | 0% | 0hPa | 0V | 00:00:00 | 00:00:00 | 00:00:00 | |
| 9A1FER-10 | 2026-09-04 12:56:40 | 45.77471 | 14.96038 | 95° | 15km/h | 25474m | 4.5m/s | 0°C | 0% | 0hPa | 0V | 00:00:00 | 00:00:00 | 00:00:00 | |
| 9A1FER-3 | 2026-09-04 12:56:39 | 45.77473 | 14.96027 | 119° | 18km/h | 25464m | 5.3m/s | 0°C | 0% | 0hPa | 0V | 00:00:00 | 00:00:00 | 00:00:00 | |
| 9A1FER-15 | 2026-09-04 12:56:34 | 45.77484 | 14.96008 | 119° | 16km/h | 25437m | 6.7m/s | 0°C | 0% | 0hPa | 0V | 00:00:00 | 00:00:00 | 00:00:00 | |
| PETON7-10 | 2026-09-04 12:56:17 | 45.77511 | 14.95934 | 118° | 15km/h | 25355m | 4.4m/s | 0°C | 0% | 0hPa | 0V | 00:00:00 | 00:00:00 | 00:00:00 | |
| 9A1FER-3 | 2026-09-04 12:56:15 | 45.77515 | 14.95924 | 130° | 16km/h | 25345m | 5.0m/s | 0°C | 0% | 0hPa | 0V | 00:00:00 | 00:00:00 | 00:00:00 | |
| 9A1FER-10 | 2026-09-04 12:56:09 | 45.77526 | 14.95892 | 117° | 15km/h | 25313m | 5.3m/s | 0°C | 0% | 0hPa | 0V | 00:00:00 | 00:00:00 | 00:00:00 | |
| 9A1FER-15 | 2026-09-04 12:55:59 | 45.77542 | 14.95844 | 114° | 13km/h | 25261m | 6.6m/s | 0°C | 0% | 0hPa | 0V | 00:00:00 | 00:00:00 | 00:00:00 | |
| 9A1FER-10 | 2026-09-04 12:55:53 | 45.77550 | 14.95824 | 162° | 13km/h | 25228m | 5.4m/s | 0°C | 0% | 0hPa | 0V | 00:00:00 | 00:00:00 | 00:00:00 | |
| 9A1FER-15 | 2026-09-04 12:55:43 | 45.77563 | 14.95789 | 132° | 11km/h | 25178m | 6.0m/s | 0°C | 0% | 0hPa | 0V | 00:00:00 | 00:00:00 | 00:00:00 | |
| 9A1FER-3 | 2026-09-04 12:55:42 | 45.77565 | 14.95784 | 100° | 11km/h | 25173m | 4.8m/s | 0°C | 0% | 0hPa | 0V | 00:00:00 | 00:00:00 | 00:00:00 | |
| 9A1FER-10 | 2026-09-04 12:55:38 | 45.77561 | 14.95768 | 88° | 11km/h | 25152m | 4.9m/s | 0°C | 0% | 0hPa | 0V | 00:00:00 | 00:00:00 | 00:00:00 | |
| 9A1FER-15 | 2026-09-04 12:55:27 | 45.77564 | 14.95733 | 21° | 9km/h | 25100m | 4.0m/s | 0°C | 0% | 0hPa | 0V | 00:00:00 | 00:00:00 | 00:00:00 | |
| 9A1FER-3 | 2026-09-04 12:55:26 | 45.77561 | 14.95732 | 11° | 7km/h | 25096m | 4.6m/s | 0°C | 0% | 0hPa | 0V | 00:00:00 | 00:00:00 | 00:00:00 | |
| 9A1FER-10 | 2026-09-04 12:55:23 | 45.77563 | 14.95726 | 126° | 9km/h | 25081m | 5.2m/s | 0°C | 0% | 0hPa | 0V | 00:00:00 | 00:00:00 | 00:00:00 | |
| 9A1FER-15 | 2026-09-04 12:55:12 | 45.77553 | 14.95698 | 71° | 11km/h | 25023m | 6.1m/s | 0°C | 0% | 0hPa | 0V | 00:00:00 | 00:00:00 | 00:00:00 | |
| 9A1FER-3 | 2026-09-04 12:55:11 | 45.77552 | 14.95695 | 66° | 11km/h | 25018m | 5.0m/s | 0°C | 0% | 0hPa | 0V | 00:00:00 | 00:00:00 | 00:00:00 | |
| 9A1FER-10 | 2026-09-04 12:55:07 | 45.77547 | 14.95684 | 20° | 11km/h | 24996m | 4.4m/s | 0°C | 0% | 0hPa | 0V | 00:00:00 | 00:00:00 | 00:00:00 | |
| PETON7-10 | 2026-09-04 12:55:04 | 45.77544 | 14.95674 | 82° | 11km/h | 24980m | 5.1m/s | 0°C | 0% | 0hPa | 0V | 00:00:00 | 00:00:00 | 00:00:00 | |
| 9A1FER-15 | 2026-09-04 12:54:57 | 45.77539 | 14.95653 | 101° | 13km/h | 24942m | 5.6m/s | 0°C | 0% | 0hPa | 0V | 00:00:00 | 00:00:00 | 00:00:00 | |
| 9A1FER-3 | 2026-09-04 12:54:54 | 45.77541 | 14.95639 | 97° | 13km/h | 24925m | 4.9m/s | 0°C | 0% | 0hPa | 0V | 00:00:00 | 00:00:00 | 00:00:00 | |
| 9A1FER-10 | 2026-09-04 12:54:52 | 45.77543 | 14.95628 | 110° | 13km/h | 24914m | 6.4m/s | 0°C | 0% | 0hPa | 0V | 00:00:00 | 00:00:00 | 00:00:00 | |
| PETON7-10 | 2026-09-04 12:54:45 | 45.77540 | 14.95604 | 136° | 16km/h | 24878m | 5.1m/s | 0°C | 0% | 0hPa | 0V | 00:00:00 | 00:00:00 | 00:00:00 | |
| 9A1FER-15 | 2026-09-04 12:54:42 | 45.77545 | 14.95589 | 100° | 18km/h | 24860m | 5.6m/s | 0°C | 0% | 0hPa | 0V | 00:00:00 | 00:00:00 | 00:00:00 | |
| 9A1FER-3 | 2026-09-04 12:54:39 | 45.77549 | 14.95571 | 101° | 15km/h | 24845m | 4.8m/s | 0°C | 0% | 0hPa | 0V | 00:00:00 | 00:00:00 | 00:00:00 | |
| 9A1FER-10 | 2026-09-04 12:54:37 | 45.77547 | 14.95563 | 53° | 18km/h | 24834m | 5.2m/s | 0°C | 0% | 0hPa | 0V | 00:00:00 | 00:00:00 | 00:00:00 | |
| PETON7-10 | 2026-09-04 12:54:29 | 45.77567 | 14.95523 | 85° | 15km/h | 24794m | 5.0m/s | 0°C | 0% | 0hPa | 0V | 00:00:00 | 00:00:00 | 00:00:00 | |
| 9A1FER-15 | 2026-09-04 12:54:27 | 45.77564 | 14.95510 | 66° | 16km/h | 24783m | 4.7m/s | 0°C | 0% | 0hPa | 0V | 00:00:00 | 00:00:00 | 00:00:00 | |
| 9A1FER-3 | 2026-09-04 12:54:24 | 45.77568 | 14.95500 | 132° | 16km/h | 24768m | 5.5m/s | 0°C | 0% | 0hPa | 0V | 00:00:00 | 00:00:00 | 00:00:00 | |
| 9A1FER-10 | 2026-09-04 12:54:20 | 45.77581 | 14.95480 | 132° | 16km/h | 24749m | 4.3m/s | 0°C | 0% | 0hPa | 0V | 00:00:00 | 00:00:00 | 00:00:00 | |
| 9A1FER-15 | 2026-09-04 12:54:12 | 45.77591 | 14.95439 | 81° | 18km/h | 24707m | 5.7m/s | 0°C | 0% | 0hPa | 0V | 00:00:00 | 00:00:00 | 00:00:00 | |
| 9A1FER-3 | 2026-09-04 12:54:08 | 45.77588 | 14.95411 | 91° | 18km/h | 24686m | 3.8m/s | 0°C | 0% | 0hPa | 0V | 00:00:00 | 00:00:00 | 00:00:00 | |
| 9A1FER-10 | 2026-09-04 12:54:05 | 45.77590 | 14.95392 | 95° | 18km/h | 24671m | 4.7m/s | 0°C | 0% | 0hPa | 0V | 00:00:00 | 00:00:00 | 00:00:00 | |
| 9A1FER-15 | 2026-09-04 12:53:56 | 45.77577 | 14.95334 | 52° | 18km/h | 24624m | 4.8m/s | 0°C | 0% | 0hPa | 0V | 00:00:00 | 00:00:00 | 00:00:00 | |
| 9A1FER-3 | 2026-09-04 12:53:53 | 45.77572 | 14.95318 | 64° | 20km/h | 24609m | 4.1m/s | 0°C | 0% | 0hPa | 0V | 00:00:00 | 00:00:00 | 00:00:00 | |
| 9A1FER-10 | 2026-09-04 12:53:50 | 45.77562 | 14.95302 | 47° | 16km/h | 24595m | 4.1m/s | 0°C | 0% | 0hPa | 0V | 00:00:00 | 00:00:00 | 00:00:00 | |
| 9A1FER-15 | 2026-09-04 12:53:41 | 45.77544 | 14.95250 | 41° | 18km/h | 24548m | 6.7m/s | 0°C | 0% | 0hPa | 0V | 00:00:00 | 00:00:00 | 00:00:00 | |
| 9A1FER-3 | 2026-09-04 12:53:38 | 45.77536 | 14.95240 | 66° | 18km/h | 24531m | 6.0m/s | 0°C | 0% | 0hPa | 0V | 00:00:00 | 00:00:00 | 00:00:00 | |
| 9A1FER-10 | 2026-09-04 12:53:34 | 45.77527 | 14.95225 | 37° | 18km/h | 24510m | 4.2m/s | 0°C | 0% | 0hPa | 0V | 00:00:00 | 00:00:00 | 00:00:00 | |
| 9A1FER-15 | 2026-09-04 12:53:26 | 45.77505 | 14.95182 | 41° | 16km/h | 24470m | 4.6m/s | 0°C | 0% | 0hPa | 0V | 00:00:00 | 00:00:00 | 00:00:00 | |
| 9A1FER-10 | 2026-09-04 12:53:19 | 45.77479 | 14.95160 | 32° | 16km/h | 24433m | 5.5m/s | 0°C | 0% | 0hPa | 0V | 00:00:00 | 00:00:00 | 00:00:00 | |
| 9A1FER-3 | 2026-09-04 12:53:17 | 45.77471 | 14.95153 | 29° | 18km/h | 24424m | 5.3m/s | 0°C | 0% | 0hPa | 0V | 00:00:00 | 00:00:00 | 00:00:00 | |
| 9A1FER-15 | 2026-09-04 12:53:11 | 45.77452 | 14.95142 | 31° | 18km/h | 24392m | 4.6m/s | 0°C | 0% | 0hPa | 0V | 00:00:00 | 00:00:00 | 00:00:00 | |
| 9A1FER-10 | 2026-09-04 12:53:04 | 45.77422 | 14.95127 | 30° | 16km/h | 24356m | 5.3m/s | 0°C | 0% | 0hPa | 0V | 00:00:00 | 00:00:00 | 00:00:00 | |
| 9A1FER-3 | 2026-09-04 12:53:00 | 45.77405 | 14.95114 | 25° | 15km/h | 24335m | 4.2m/s | 0°C | 0% | 0hPa | 0V | 00:00:00 | 00:00:00 | 00:00:00 | |
| 9A1FER-15 | 2026-09-04 12:52:56 | 45.77387 | 14.95116 | 356° | 15km/h | 24314m | 6.2m/s | 0°C | 0% | 0hPa | 0V | 00:00:00 | 00:00:00 | 00:00:00 | |
| 9A1FER-10 | 2026-09-04 12:52:49 | 45.77364 | 14.95101 | 7° | 13km/h | 24280m | 3.8m/s | 0°C | 0% | 0hPa | 0V | 00:00:00 | 00:00:00 | 00:00:00 | |
| 9A1FER-3 | 2026-09-04 12:52:45 | 45.77350 | 14.95101 | 21° | 13km/h | 24261m | 5.0m/s | 0°C | 0% | 0hPa | 0V | 00:00:00 | 00:00:00 | 00:00:00 | |
| 9A1FER-15 | 2026-09-04 12:52:41 | 45.77339 | 14.95088 | 15° | 9km/h | 24240m | 5.9m/s | 0°C | 0% | 0hPa | 0V | 00:00:00 | 00:00:00 | 00:00:00 | |
| 9A1FER-10 | 2026-09-04 12:52:35 | 45.77323 | 14.95083 | 2° | 7km/h | 24205m | 4.6m/s | 0°C | 0% | 0hPa | 0V | 00:00:00 | 00:00:00 | 00:00:00 | |
| 9A1FER-3 | 2026-09-04 12:52:30 | 45.77317 | 14.95081 | 311° | 4km/h | 24186m | 6.2m/s | 0°C | 0% | 0hPa | 0V | 00:00:00 | 00:00:00 | 00:00:00 | |
| 9A1FER-10 | 2026-09-04 12:52:19 | 45.77305 | 14.95089 | 289° | 9km/h | 24127m | 6.4m/s | 0°C | 0% | 0hPa | 0V | 00:00:00 | 00:00:00 | 00:00:00 | |
| 9A1FER-3 | 2026-09-04 12:52:14 | 45.77306 | 14.95095 | 49° | 9km/h | 24102m | 5.8m/s | 0°C | 0% | 0hPa | 0V | 00:00:00 | 00:00:00 | 00:00:00 | |
| 9A1FER-15 | 2026-09-04 12:52:11 | 45.77300 | 14.95093 | 5° | 9km/h | 24087m | 6.1m/s | 0°C | 0% | 0hPa | 0V | 00:00:00 | 00:00:00 | 00:00:00 | |
| 9A1FER-10 | 2026-09-04 12:52:04 | 45.77313 | 14.95113 | 223° | 9km/h | 24052m | 4.3m/s | 0°C | 0% | 0hPa | 0V | 00:00:00 | 00:00:00 | 00:00:00 | |
| 9A1FER-3 | 2026-09-04 12:51:58 | 45.77306 | 14.95120 | 303° | 9km/h | 24021m | 6.1m/s | 0°C | 0% | 0hPa | 0V | 00:00:00 | 00:00:00 | 00:00:00 | |
| 9A1FER-15 | 2026-09-04 12:51:57 | 45.77307 | 14.95125 | 226° | 9km/h | 24011m | 6.1m/s | 0°C | 0% | 0hPa | 0V | 00:00:00 | 00:00:00 | 00:00:00 | |
| 9A1FER-10 | 2026-09-04 12:51:49 | 45.77301 | 14.95125 | 15° | 7km/h | 23974m | 3.8m/s | 0°C | 0% | 0hPa | 0V | 00:00:00 | 00:00:00 | 00:00:00 | |
| 9A1FER-3 | 2026-09-04 12:51:43 | 45.77298 | 14.95129 | 116° | 9km/h | 23945m | 3.7m/s | 0°C | 0% | 0hPa | 0V | 00:00:00 | 00:00:00 | 00:00:00 | |
| 9A1FER-15 | 2026-09-04 12:51:41 | 45.77296 | 14.95126 | 3° | 9km/h | 23934m | 5.8m/s | 0°C | 0% | 0hPa | 0V | 00:00:00 | 00:00:00 | 00:00:00 | |
| 9A1FER-10 | 2026-09-04 12:51:34 | 45.77291 | 14.95132 | 174° | 11km/h | 23896m | 6.9m/s | 0°C | 0% | 0hPa | 0V | 00:00:00 | 00:00:00 | 00:00:00 | |
| 9A1FER-3 | 2026-09-04 12:51:28 | 45.77290 | 14.95129 | 303° | 13km/h | 23864m | 5.5m/s | 0°C | 0% | 0hPa | 0V | 00:00:00 | 00:00:00 | 00:00:00 | |
| 9A1FER-15 | 2026-09-04 12:51:26 | 45.77291 | 14.95135 | 233° | 15km/h | 23854m | 5.3m/s | 0°C | 0% | 0hPa | 0V | 00:00:00 | 00:00:00 | 00:00:00 | |
| 9A1FER-10 | 2026-09-04 12:51:19 | 45.77311 | 14.95151 | 220° | 16km/h | 23815m | 4.9m/s | 0°C | 0% | 0hPa | 0V | 00:00:00 | 00:00:00 | 00:00:00 | |
| 9A1FER-3 | 2026-09-04 12:51:13 | 45.77332 | 14.95172 | 211° | 15km/h | 23782m | 5.5m/s | 0°C | 0% | 0hPa | 0V | 00:00:00 | 00:00:00 | 00:00:00 | |
| 9A1FER-15 | 2026-09-04 12:51:11 | 45.77340 | 14.95173 | 159° | 15km/h | 23772m | 4.2m/s | 0°C | 0% | 0hPa | 0V | 00:00:00 | 00:00:00 | 00:00:00 | |
| 9A1FER-10 | 2026-09-04 12:51:04 | 45.77371 | 14.95191 | 216° | 11km/h | 23727m | 4.5m/s | 0°C | 0% | 0hPa | 0V | 00:00:00 | 00:00:00 | 00:00:00 | |
| 9A1FER-3 | 2026-09-04 12:50:58 | 45.77379 | 14.95186 | 309° | 7km/h | 23702m | 4.9m/s | 0°C | 0% | 0hPa | 0V | 00:00:00 | 00:00:00 | 00:00:00 | |
| 9A1FER-15 | 2026-09-04 12:50:56 | 45.77382 | 14.95192 | 230° | 9km/h | 23692m | 5.3m/s | 0°C | 0% | 0hPa | 0V | 00:00:00 | 00:00:00 | 00:00:00 | |
| 9A1FER-10 | 2026-09-04 12:50:48 | 45.77388 | 14.95201 | 107° | 9km/h | 23650m | 5.3m/s | 0°C | 0% | 0hPa | 0V | 00:00:00 | 00:00:00 | 00:00:00 | |
| 9A1FER-3 | 2026-09-04 12:50:42 | 45.77391 | 14.95209 | 319° | 7km/h | 23619m | 4.3m/s | 0°C | 0% | 0hPa | 0V | 00:00:00 | 00:00:00 | 00:00:00 | |
| 9A1FER-15 | 2026-09-04 12:50:40 | 45.77386 | 14.95214 | 331° | 7km/h | 23607m | 5.5m/s | 0°C | 0% | 0hPa | 0V | 00:00:00 | 00:00:00 | 00:00:00 | |
| 9A1FER-10 | 2026-09-04 12:50:33 | 45.77383 | 14.95230 | 273° | 9km/h | 23571m | 4.7m/s | 0°C | 0% | 0hPa | 0V | 00:00:00 | 00:00:00 | 00:00:00 | |
| 9A1FER-15 | 2026-09-04 12:50:25 | 45.77371 | 14.95238 | 318° | 9km/h | 23529m | 5.8m/s | 0°C | 0% | 0hPa | 0V | 00:00:00 | 00:00:00 | 00:00:00 | |
| 9A1FER-10 | 2026-09-04 12:50:18 | 45.77359 | 14.95252 | 343° | 9km/h | 23492m | 5.5m/s | 0°C | 0% | 0hPa | 0V | 00:00:00 | 00:00:00 | 00:00:00 | |
| 9A1FER-3 | 2026-09-04 12:50:10 | 45.77349 | 14.95264 | 358° | 11km/h | 23448m | 6.6m/s | 0°C | 0% | 0hPa | 0V | 00:00:00 | 00:00:00 | 00:00:00 | |
| 9A1FER-10 | 2026-09-04 12:50:03 | 45.77334 | 14.95270 | 325° | 9km/h | 23410m | 5.1m/s | 0°C | 0% | 0hPa | 0V | 00:00:00 | 00:00:00 | 00:00:00 | |
| 9A1FER-15 | 2026-09-04 12:49:55 | 45.77319 | 14.95284 | 273° | 9km/h | 23367m | 6.4m/s | 0°C | 0% | 0hPa | 0V | 00:00:00 | 00:00:00 | 00:00:00 | |
| 9A1FER-10 | 2026-09-04 12:49:48 | 45.77312 | 14.95301 | 334° | 11km/h | 23328m | 4.8m/s | 0°C | 0% | 0hPa | 0V | 00:00:00 | 00:00:00 | 00:00:00 | |
| 9A1FER-15 | 2026-09-04 12:49:40 | 45.77312 | 14.95332 | 274° | 9km/h | 23284m | 4.9m/s | 0°C | 0% | 0hPa | 0V | 00:00:00 | 00:00:00 | 00:00:00 | |
| 9A1FER-10 | 2026-09-04 12:49:32 | 45.77323 | 14.95349 | 192° | 13km/h | 23241m | 4.6m/s | 0°C | 0% | 0hPa | 0V | 00:00:00 | 00:00:00 | 00:00:00 | |
| 9A1FER-3 | 2026-09-04 12:49:25 | 45.77339 | 14.95356 | 212° | 15km/h | 23204m | 6.1m/s | 0°C | 0% | 0hPa | 0V | 00:00:00 | 00:00:00 | 00:00:00 | |
| 9A1FER-15 | 2026-09-04 12:49:24 | 45.77342 | 14.95358 | 203° | 16km/h | 23198m | 4.2m/s | 0°C | 0% | 0hPa | 0V | 00:00:00 | 00:00:00 | 00:00:00 | |
| 9A1FER-10 | 2026-09-04 12:49:18 | 45.77373 | 14.95350 | 142° | 15km/h | 23161m | 5.0m/s | 0°C | 0% | 0hPa | 0V | 00:00:00 | 00:00:00 | 00:00:00 | |
| 9A1FER-3 | 2026-09-04 12:49:09 | 45.77399 | 14.95339 | 172° | 15km/h | 23118m | 7.1m/s | 0°C | 0% | 0hPa | 0V | 00:00:00 | 00:00:00 | 00:00:00 | |
| 9A1FER-15 | 2026-09-04 12:49:08 | 45.77403 | 14.95339 | 188° | 15km/h | 23113m | 5.3m/s | 0°C | 0% | 0hPa | 0V | 00:00:00 | 00:00:00 | 00:00:00 | |
| 9A1FER-10 | 2026-09-04 12:49:01 | 45.77424 | 14.95329 | 156° | 18km/h | 23074m | 6.8m/s | 0°C | 0% | 0hPa | 0V | 00:00:00 | 00:00:00 | 00:00:00 | |
| 9A1FER-3 | 2026-09-04 12:48:54 | 45.77444 | 14.95300 | 126° | 16km/h | 23035m | 5.4m/s | 0°C | 0% | 0hPa | 0V | 00:00:00 | 00:00:00 | 00:00:00 | |
| 9A1FER-15 | 2026-09-04 12:48:53 | 45.77448 | 14.95295 | 140° | 16km/h | 23028m | 6.4m/s | 0°C | 0% | 0hPa | 0V | 00:00:00 | 00:00:00 | 00:00:00 | |
| 9A1FER-10 | 2026-09-04 12:48:46 | 45.77463 | 14.95268 | 104° | 15km/h | 22992m | 4.8m/s | 0°C | 0% | 0hPa | 0V | 00:00:00 | 00:00:00 | 00:00:00 | |
| 9A1FER-15 | 2026-09-04 12:48:38 | 45.77483 | 14.95226 | 124° | 13km/h | 22950m | 5.3m/s | 0°C | 0% | 0hPa | 0V | 00:00:00 | 00:00:00 | 00:00:00 | |
| 9A1FER-10 | 2026-09-04 12:48:31 | 45.77485 | 14.95197 | 139° | 13km/h | 22915m | 4.8m/s | 0°C | 0% | 0hPa | 0V | 00:00:00 | 00:00:00 | 00:00:00 | |
| PETON7-10 | 2026-09-04 12:48:30 | 45.77488 | 14.95193 | 146° | 13km/h | 22910m | 4.6m/s | 0°C | 0% | 0hPa | 0V | 00:00:00 | 00:00:00 | 00:00:00 | |
| 9A1FER-3 | 2026-09-04 12:48:23 | 45.77490 | 14.95166 | 98° | 13km/h | 22873m | 6.4m/s | 0°C | 0% | 0hPa | 0V | 00:00:00 | 00:00:00 | 00:00:00 | |
| 9A1FER-10 | 2026-09-04 12:48:16 | 45.77493 | 14.95134 | 72° | 15km/h | 22839m | 4.5m/s | 0°C | 0% | 0hPa | 0V | 00:00:00 | 00:00:00 | 00:00:00 | |
| PETON7-10 | 2026-09-04 12:48:13 | 45.77490 | 14.95122 | 97° | 13km/h | 22823m | 4.4m/s | 0°C | 0% | 0hPa | 0V | 00:00:00 | 00:00:00 | 00:00:00 | |
| 9A1FER-15 | 2026-09-04 12:48:08 | 45.77490 | 14.95101 | 56° | 16km/h | 22798m | 5.0m/s | 0°C | 0% | 0hPa | 0V | 00:00:00 | 00:00:00 | 00:00:00 | |
| 9A1FER-3 | 2026-09-04 12:48:07 | 45.77488 | 14.95097 | 54° | 16km/h | 22792m | 6.9m/s | 0°C | 0% | 0hPa | 0V | 00:00:00 | 00:00:00 | 00:00:00 | |
| 9A1FER-10 | 2026-09-04 12:48:01 | 45.77472 | 14.95068 | 73° | 15km/h | 22760m | 6.7m/s | 0°C | 0% | 0hPa | 0V | 00:00:00 | 00:00:00 | 00:00:00 | |
| 9A1FER-15 | 2026-09-04 12:47:53 | 45.77451 | 14.95037 | 47° | 16km/h | 22720m | 6.4m/s | 0°C | 0% | 0hPa | 0V | 00:00:00 | 00:00:00 | 00:00:00 | |
| 9A1FER-3 | 2026-09-04 12:47:51 | 45.77449 | 14.95032 | 90° | 18km/h | 22711m | 6.8m/s | 0°C | 0% | 0hPa | 0V | 00:00:00 | 00:00:00 | 00:00:00 | |
| PETON7-10 | 2026-09-04 12:47:50 | 45.77449 | 14.95027 | 97° | 16km/h | 22705m | 5.4m/s | 0°C | 0% | 0hPa | 0V | 00:00:00 | 00:00:00 | 00:00:00 | |
| 9A1FER-10 | 2026-09-04 12:47:46 | 45.77446 | 14.94999 | 72° | 18km/h | 22685m | 6.4m/s | 0°C | 0% | 0hPa | 0V | 00:00:00 | 00:00:00 | 00:00:00 | |
| 9A1FER-15 | 2026-09-04 12:47:38 | 45.77429 | 14.94961 | 58° | 22km/h | 22643m | 4.9m/s | 0°C | 0% | 0hPa | 0V | 00:00:00 | 00:00:00 | 00:00:00 | |
| 9A1FER-3 | 2026-09-04 12:47:35 | 45.77419 | 14.94940 | 60° | 24km/h | 22627m | 4.6m/s | 0°C | 0% | 0hPa | 0V | 00:00:00 | 00:00:00 | 00:00:00 | |
| 9A1FER-10 | 2026-09-04 12:47:31 | 45.77402 | 14.94926 | 360° | 22km/h | 22606m | 4.9m/s | 0°C | 0% | 0hPa | 0V | 00:00:00 | 00:00:00 | 00:00:00 | |
| 9A1FER-15 | 2026-09-04 12:47:23 | 45.77370 | 14.94895 | 30° | 24km/h | 22566m | 3.7m/s | 0°C | 0% | 0hPa | 0V | 00:00:00 | 00:00:00 | 00:00:00 | |
| PETON7-10 | 2026-09-04 12:47:19 | 45.77345 | 14.94885 | 22° | 26km/h | 22547m | 6.6m/s | 0°C | 0% | 0hPa | 0V | 00:00:00 | 00:00:00 | 00:00:00 | |
| 9A1FER-10 | 2026-09-04 12:47:16 | 45.77329 | 14.94875 | 11° | 24km/h | 22529m | 7.0m/s | 0°C | 0% | 0hPa | 0V | 00:00:00 | 00:00:00 | 00:00:00 | |
| 9A1FER-15 | 2026-09-04 12:47:08 | 45.77287 | 14.94863 | 10° | 24km/h | 22487m | 5.8m/s | 0°C | 0% | 0hPa | 0V | 00:00:00 | 00:00:00 | 00:00:00 | |
| 9A1FER-3 | 2026-09-04 12:47:05 | 45.77269 | 14.94861 | 357° | 26km/h | 22469m | 5.2m/s | 0°C | 0% | 0hPa | 0V | 00:00:00 | 00:00:00 | 00:00:00 | |
| 9A1FER-10 | 2026-09-04 12:47:01 | 45.77243 | 14.94858 | 10° | 24km/h | 22450m | 5.8m/s | 0°C | 0% | 0hPa | 0V | 00:00:00 | 00:00:00 | 00:00:00 | |
| PETON7-10 | 2026-09-04 12:47:00 | 45.77237 | 14.94858 | 359° | 24km/h | 22446m | 4.7m/s | 0°C | 0% | 0hPa | 0V | 00:00:00 | 00:00:00 | 00:00:00 | |
| 9A1FER-15 | 2026-09-04 12:46:53 | 45.77199 | 14.94857 | 4° | 24km/h | 22413m | 5.3m/s | 0°C | 0% | 0hPa | 0V | 00:00:00 | 00:00:00 | 00:00:00 | |
| 9A1FER-3 | 2026-09-04 12:46:50 | 45.77180 | 14.94851 | 7° | 20km/h | 22396m | 6.3m/s | 0°C | 0% | 0hPa | 0V | 00:00:00 | 00:00:00 | 00:00:00 | |
| 9A1FER-10 | 2026-09-04 12:46:46 | 45.77156 | 14.94844 | 35° | 20km/h | 22376m | 6.0m/s | 0°C | 0% | 0hPa | 0V | 00:00:00 | 00:00:00 | 00:00:00 | |
| PETON7-10 | 2026-09-04 12:46:45 | 45.77151 | 14.94840 | 29° | 20km/h | 22370m | 6.5m/s | 0°C | 0% | 0hPa | 0V | 00:00:00 | 00:00:00 | 00:00:00 | |
| 9A1FER-15 | 2026-09-04 12:46:38 | 45.77120 | 14.94816 | 20° | 22km/h | 22335m | 5.6m/s | 0°C | 0% | 0hPa | 0V | 00:00:00 | 00:00:00 | 00:00:00 | |
| 9A1FER-3 | 2026-09-04 12:46:33 | 45.77102 | 14.94795 | 30° | 24km/h | 22309m | 5.5m/s | 0°C | 0% | 0hPa | 0V | 00:00:00 | 00:00:00 | 00:00:00 | |
| 9A1FER-10 | 2026-09-04 12:46:31 | 45.77091 | 14.94785 | 41° | 22km/h | 22298m | 5.4m/s | 0°C | 0% | 0hPa | 0V | 00:00:00 | 00:00:00 | 00:00:00 | |
| 9A1FER-15 | 2026-09-04 12:46:23 | 45.77049 | 14.94764 | 11° | 22km/h | 22257m | 5.0m/s | 0°C | 0% | 0hPa | 0V | 00:00:00 | 00:00:00 | 00:00:00 | |
| 9A1FER-3 | 2026-09-04 12:46:18 | 45.77023 | 14.94748 | 3° | 22km/h | 22231m | 5.8m/s | 0°C | 0% | 0hPa | 0V | 00:00:00 | 00:00:00 | 00:00:00 | |
| 9A1FER-10 | 2026-09-04 12:46:16 | 45.77012 | 14.94752 | 337° | 24km/h | 22223m | 6.1m/s | 0°C | 0% | 0hPa | 0V | 00:00:00 | 00:00:00 | 00:00:00 | |
| 9A1FER-15 | 2026-09-04 12:46:08 | 45.76970 | 14.94753 | 352° | 24km/h | 22180m | 6.1m/s | 0°C | 0% | 0hPa | 0V | 00:00:00 | 00:00:00 | 00:00:00 | |
| 9A1FER-3 | 2026-09-04 12:46:03 | 45.76939 | 14.94768 | 347° | 20km/h | 22154m | 5.2m/s | 0°C | 0% | 0hPa | 0V | 00:00:00 | 00:00:00 | 00:00:00 | |
| 9A1FER-10 | 2026-09-04 12:46:01 | 45.76927 | 14.94772 | 349° | 18km/h | 22144m | 5.9m/s | 0°C | 0% | 0hPa | 0V | 00:00:00 | 00:00:00 | 00:00:00 | |
| 9A1FER-15 | 2026-09-04 12:45:53 | 45.76883 | 14.94780 | 17° | 16km/h | 22102m | 6.4m/s | 0°C | 0% | 0hPa | 0V | 00:00:00 | 00:00:00 | 00:00:00 | |
| 9A1FER-3 | 2026-09-04 12:45:46 | 45.76856 | 14.94789 | 341° | 15km/h | 22064m | 4.3m/s | 0°C | 0% | 0hPa | 0V | 00:00:00 | 00:00:00 | 00:00:00 | |
| 9A1FER-15 | 2026-09-04 12:45:38 | 45.76830 | 14.94796 | 277° | 11km/h | 22029m | 6.8m/s | 0°C | 0% | 0hPa | 0V | 00:00:00 | 00:00:00 | 00:00:00 | |
| 9A1FER-10 | 2026-09-04 12:45:31 | 45.76816 | 14.94817 | 334° | 9km/h | 21993m | 4.8m/s | 0°C | 0% | 0hPa | 0V | 00:00:00 | 00:00:00 | 00:00:00 | |
| 9A1FER-3 | 2026-09-04 12:45:30 | 45.76812 | 14.94823 | 304° | 11km/h | 21984m | 4.6m/s | 0°C | 0% | 0hPa | 0V | 00:00:00 | 00:00:00 | 00:00:00 | |
| 9A1FER-15 | 2026-09-04 12:45:23 | 45.76813 | 14.94835 | 259° | 9km/h | 21954m | 3.8m/s | 0°C | 0% | 0hPa | 0V | 00:00:00 | 00:00:00 | 00:00:00 | |
| 9A1FER-10 | 2026-09-04 12:45:16 | 45.76801 | 14.94855 | 254° | 7km/h | 21919m | 5.9m/s | 0°C | 0% | 0hPa | 0V | 00:00:00 | 00:00:00 | 00:00:00 | |
| 9A1FER-15 | 2026-09-04 12:45:08 | 45.76809 | 14.94856 | 303° | 9km/h | 21876m | 5.2m/s | 0°C | 0% | 0hPa | 0V | 00:00:00 | 00:00:00 | 00:00:00 | |
| 9A1FER-10 | 2026-09-04 12:45:01 | 45.76823 | 14.94845 | 199° | 13km/h | 21843m | 4.1m/s | 0°C | 0% | 0hPa | 0V | 00:00:00 | 00:00:00 | 00:00:00 | |
| 9A1FER-15 | 2026-09-04 12:44:53 | 45.76842 | 14.94833 | 135° | 11km/h | 21800m | 3.3m/s | 0°C | 0% | 0hPa | 0V | 00:00:00 | 00:00:00 | 00:00:00 | |
| 9A1FER-3 | 2026-09-04 12:44:47 | 45.76865 | 14.94820 | 164° | 9km/h | 21770m | 5.6m/s | 0°C | 0% | 0hPa | 0V | 00:00:00 | 00:00:00 | 00:00:00 | |
| 9A1FER-10 | 2026-09-04 12:44:46 | 45.76868 | 14.94819 | 192° | 7km/h | 21764m | 4.8m/s | 0°C | 0% | 0hPa | 0V | 00:00:00 | 00:00:00 | 00:00:00 | |
| 9A1FER-15 | 2026-09-04 12:44:38 | 45.76880 | 14.94818 | 152° | 7km/h | 21726m | 6.8m/s | 0°C | 0% | 0hPa | 0V | 00:00:00 | 00:00:00 | 00:00:00 | |
| 9A1FER-10 | 2026-09-04 12:44:31 | 45.76889 | 14.94817 | 333° | 9km/h | 21690m | 3.9m/s | 0°C | 0% | 0hPa | 0V | 00:00:00 | 00:00:00 | 00:00:00 | |
| 9A1FER-3 | 2026-09-04 12:44:30 | 45.76888 | 14.94819 | 283° | 7km/h | 21686m | 5.4m/s | 0°C | 0% | 0hPa | 0V | 00:00:00 | 00:00:00 | 00:00:00 | |
| 9A1FER-15 | 2026-09-04 12:44:23 | 45.76893 | 14.94833 | 286° | 9km/h | 21653m | 5.0m/s | 0°C | 0% | 0hPa | 0V | 00:00:00 | 00:00:00 | 00:00:00 | |
| 9A1FER-10 | 2026-09-04 12:44:16 | 45.76888 | 14.94855 | 314° | 13km/h | 21618m | 5.4m/s | 0°C | 0% | 0hPa | 0V | 00:00:00 | 00:00:00 | 00:00:00 | |
| 9A1FER-3 | 2026-09-04 12:44:14 | 45.76884 | 14.94861 | 315° | 9km/h | 21608m | 4.6m/s | 0°C | 0% | 0hPa | 0V | 00:00:00 | 00:00:00 | 00:00:00 | |
| 9A1FER-15 | 2026-09-04 12:44:08 | 45.76881 | 14.94872 | 295° | 15km/h | 21576m | 3.7m/s | 0°C | 0% | 0hPa | 0V | 00:00:00 | 00:00:00 | 00:00:00 | |
| 9A1FER-10 | 2026-09-04 12:44:01 | 45.76863 | 14.94906 | 312° | 11km/h | 21543m | 5.2m/s | 0°C | 0% | 0hPa | 0V | 00:00:00 | 00:00:00 | 00:00:00 | |
| 9A1FER-3 | 2026-09-04 12:43:57 | 45.76863 | 14.94917 | 299° | 11km/h | 21522m | 6.2m/s | 0°C | 0% | 0hPa | 0V | 00:00:00 | 00:00:00 | 00:00:00 | |
| OE3JTB-15 | 2026-09-04 12:43:56 | 45.76861 | 14.94921 | 311° | 15km/h | 21517m | 3.8m/s | 0°C | 0% | 0hPa | 0V | 00:00:00 | 00:00:00 | 00:00:00 | |
| 9A1FER-15 | 2026-09-04 12:43:53 | 45.76856 | 14.94937 | 282° | 11km/h | 21504m | 5.5m/s | 0°C | 0% | 0hPa | 0V | 00:00:00 | 00:00:00 | 00:00:00 | |
| 9A1FER-10 | 2026-09-04 12:43:46 | 45.76862 | 14.94956 | 298° | 13km/h | 21468m | 4.7m/s | 0°C | 0% | 0hPa | 0V | 00:00:00 | 00:00:00 | 00:00:00 | |
| 9A1FER-15 | 2026-09-04 12:43:38 | 45.76865 | 14.94988 | 244° | 13km/h | 21430m | 4.2m/s | 0°C | 0% | 0hPa | 0V | 00:00:00 | 00:00:00 | 00:00:00 | |
| 9A1FER-10 | 2026-09-04 12:43:31 | 45.76879 | 14.95014 | 188° | 11km/h | 21394m | 4.6m/s | 0°C | 0% | 0hPa | 0V | 00:00:00 | 00:00:00 | 00:00:00 | |
| OE3JTB-15 | 2026-09-04 12:43:23 | 45.76898 | 14.95032 | 142° | 15km/h | 21347m | 5.4m/s | 0°C | 0% | 0hPa | 0V | 00:00:00 | 00:00:00 | 00:00:00 | |
| 9A1FER-10 | 2026-09-04 12:43:16 | 45.76910 | 14.95026 | 153° | 7km/h | 21320m | 4.4m/s | 0°C | 0% | 0hPa | 0V | 00:00:00 | 00:00:00 | 00:00:00 | |
| 9A1FER-15 | 2026-09-04 12:43:08 | 45.76928 | 14.95016 | 150° | 11km/h | 21276m | 5.6m/s | 0°C | 0% | 0hPa | 0V | 00:00:00 | 00:00:00 | 00:00:00 | |
| 9A1FER-10 | 2026-09-04 12:43:01 | 45.76939 | 14.95005 | 168° | 15km/h | 21242m | 6.4m/s | 0°C | 0% | 0hPa | 0V | 00:00:00 | 00:00:00 | 00:00:00 | |
| 9A1FER-15 | 2026-09-04 12:42:52 | 45.76965 | 14.94975 | 120° | 15km/h | 21196m | 3.8m/s | 0°C | 0% | 0hPa | 0V | 00:00:00 | 00:00:00 | 00:00:00 | |
| 9A1FER-10 | 2026-09-04 12:42:46 | 45.76973 | 14.94948 | 126° | 9km/h | 21167m | 4.6m/s | 0°C | 0% | 0hPa | 0V | 00:00:00 | 00:00:00 | 00:00:00 | |
| 9A1FER-15 | 2026-09-04 12:42:37 | 45.76982 | 14.94910 | 71° | 5km/h | 21122m | 5.1m/s | 0°C | 0% | 0hPa | 0V | 00:00:00 | 00:00:00 | 00:00:00 | |
| 9A1FER-3 | 2026-09-04 12:42:36 | 45.76981 | 14.94909 | 9° | 5km/h | 21117m | 4.5m/s | 0°C | 0% | 0hPa | 0V | 00:00:00 | 00:00:00 | 00:00:00 | |
| 9A1FER-10 | 2026-09-04 12:42:31 | 45.76977 | 14.94899 | 58° | 5km/h | 21092m | 4.7m/s | 0°C | 0% | 0hPa | 0V | 00:00:00 | 00:00:00 | 00:00:00 | |
| 9A1FER-15 | 2026-09-04 12:42:22 | 45.76976 | 14.94889 | 301° | 7km/h | 21046m | 4.5m/s | 0°C | 0% | 0hPa | 0V | 00:00:00 | 00:00:00 | 00:00:00 | |
| 9A1FER-3 | 2026-09-04 12:42:21 | 45.76976 | 14.94890 | 324° | 9km/h | 21042m | 2.4m/s | 0°C | 0% | 0hPa | 0V | 00:00:00 | 00:00:00 | 00:00:00 | |
| 9A1FER-10 | 2026-09-04 12:42:16 | 45.76980 | 14.94888 | 14° | 9km/h | 21019m | 3.6m/s | 0°C | 0% | 0hPa | 0V | 00:00:00 | 00:00:00 | 00:00:00 | |
| 9A1FER-15 | 2026-09-04 12:42:07 | 45.76998 | 14.94891 | 184° | 16km/h | 20971m | 4.0m/s | 0°C | 0% | 0hPa | 0V | 00:00:00 | 00:00:00 | 00:00:00 | |
| 9A1FER-3 | 2026-09-04 12:42:02 | 45.77014 | 14.94898 | 198° | 18km/h | 20945m | 3.5m/s | 0°C | 0% | 0hPa | 0V | 00:00:00 | 00:00:00 | 00:00:00 | |
| 9A1FER-10 | 2026-09-04 12:42:01 | 45.77017 | 14.94898 | 177° | 20km/h | 20940m | 5.5m/s | 0°C | 0% | 0hPa | 0V | 00:00:00 | 00:00:00 | 00:00:00 | |
| 9A1FER-15 | 2026-09-04 12:41:52 | 45.77057 | 14.94887 | 194° | 20km/h | 20894m | 5.1m/s | 0°C | 0% | 0hPa | 0V | 00:00:00 | 00:00:00 | 00:00:00 | |
| 9A1FER-3 | 2026-09-04 12:41:46 | 45.77085 | 14.94867 | 147° | 18km/h | 20862m | 5.4m/s | 0°C | 0% | 0hPa | 0V | 00:00:00 | 00:00:00 | 00:00:00 | |
| 9A1FER-15 | 2026-09-04 12:41:36 | 45.77130 | 14.94843 | 137° | 16km/h | 20809m | 5.4m/s | 0°C | 0% | 0hPa | 0V | 00:00:00 | 00:00:00 | 00:00:00 | |
| 9A1FER-10 | 2026-09-04 12:41:31 | 45.77148 | 14.94829 | 165° | 18km/h | 20784m | 4.8m/s | 0°C | 0% | 0hPa | 0V | 00:00:00 | 00:00:00 | 00:00:00 | |
| 9A1FER-3 | 2026-09-04 12:41:30 | 45.77153 | 14.94827 | 159° | 16km/h | 20780m | 3.1m/s | 0°C | 0% | 0hPa | 0V | 00:00:00 | 00:00:00 | 00:00:00 | |
| 9A1FER-15 | 2026-09-04 12:41:21 | 45.77179 | 14.94790 | 134° | 18km/h | 20736m | 6.1m/s | 0°C | 0% | 0hPa | 0V | 00:00:00 | 00:00:00 | 00:00:00 | |
| 9A1FER-10 | 2026-09-04 12:41:16 | 45.77195 | 14.94764 | 138° | 18km/h | 20708m | 4.9m/s | 0°C | 0% | 0hPa | 0V | 00:00:00 | 00:00:00 | 00:00:00 | |
| 9A1FER-3 | 2026-09-04 12:41:15 | 45.77200 | 14.94758 | 137° | 18km/h | 20702m | 4.4m/s | 0°C | 0% | 0hPa | 0V | 00:00:00 | 00:00:00 | 00:00:00 | |
| 9A1FER-15 | 2026-09-04 12:41:06 | 45.77223 | 14.94708 | 123° | 18km/h | 20656m | 5.2m/s | 0°C | 0% | 0hPa | 0V | 00:00:00 | 00:00:00 | 00:00:00 | |
| 9A1FER-10 | 2026-09-04 12:41:01 | 45.77231 | 14.94680 | 119° | 16km/h | 20629m | 5.2m/s | 0°C | 0% | 0hPa | 0V | 00:00:00 | 00:00:00 | 00:00:00 | |
| 9A1FER-3 | 2026-09-04 12:41:00 | 45.77233 | 14.94674 | 101° | 16km/h | 20623m | 6.7m/s | 0°C | 0% | 0hPa | 0V | 00:00:00 | 00:00:00 | 00:00:00 | |
| 9A1FER-15 | 2026-09-04 12:40:51 | 45.77239 | 14.94614 | 122° | 13km/h | 20580m | 3.8m/s | 0°C | 0% | 0hPa | 0V | 00:00:00 | 00:00:00 | 00:00:00 | |
| 9A1FER-10 | 2026-09-04 12:40:46 | 45.77241 | 14.94597 | 92° | 15km/h | 20557m | 4.8m/s | 0°C | 0% | 0hPa | 0V | 00:00:00 | 00:00:00 | 00:00:00 | |
| 9A1FER-3 | 2026-09-04 12:40:45 | 45.77240 | 14.94593 | 80° | 16km/h | 20552m | 4.4m/s | 0°C | 0% | 0hPa | 0V | 00:00:00 | 00:00:00 | 00:00:00 | |
| 9A1FER-15 | 2026-09-04 12:40:36 | 45.77237 | 14.94547 | 72° | 11km/h | 20505m | 4.5m/s | 0°C | 0% | 0hPa | 0V | 00:00:00 | 00:00:00 | 00:00:00 | |
| 9A1FER-10 | 2026-09-04 12:40:31 | 45.77226 | 14.94519 | 84° | 9km/h | 20478m | 6.3m/s | 0°C | 0% | 0hPa | 0V | 00:00:00 | 00:00:00 | 00:00:00 | |
| 9A1FER-3 | 2026-09-04 12:40:30 | 45.77225 | 14.94516 | 86° | 9km/h | 20473m | 5.1m/s | 0°C | 0% | 0hPa | 0V | 00:00:00 | 00:00:00 | 00:00:00 | |
| 9A1FER-15 | 2026-09-04 12:40:21 | 45.77215 | 14.94492 | 65° | 9km/h | 20426m | 4.9m/s | 0°C | 0% | 0hPa | 0V | 00:00:00 | 00:00:00 | 00:00:00 | |
| 9A1FER-10 | 2026-09-04 12:40:16 | 45.77210 | 14.94484 | 37° | 9km/h | 20398m | 4.1m/s | 0°C | 0% | 0hPa | 0V | 00:00:00 | 00:00:00 | 00:00:00 | |
| 9A1FER-3 | 2026-09-04 12:40:15 | 45.77207 | 14.94482 | 29° | 9km/h | 20392m | 5.6m/s | 0°C | 0% | 0hPa | 0V | 00:00:00 | 00:00:00 | 00:00:00 | |
| 9A1FER-15 | 2026-09-04 12:40:06 | 45.77186 | 14.94473 | 129° | 7km/h | 20348m | 4.2m/s | 0°C | 0% | 0hPa | 0V | 00:00:00 | 00:00:00 | 00:00:00 | |
| 9A1FER-10 | 2026-09-04 12:40:01 | 45.77186 | 14.94465 | 247° | 7km/h | 20323m | 4.9m/s | 0°C | 0% | 0hPa | 0V | 00:00:00 | 00:00:00 | 00:00:00 | |
| 9A1FER-3 | 2026-09-04 12:39:59 | 45.77184 | 14.94467 | 351° | 7km/h | 20312m | 5.1m/s | 0°C | 0% | 0hPa | 0V | 00:00:00 | 00:00:00 | 00:00:00 | |
| 9A1FER-15 | 2026-09-04 12:39:51 | 45.77187 | 14.94456 | 113° | 7km/h | 20271m | 6.4m/s | 0°C | 0% | 0hPa | 0V | 00:00:00 | 00:00:00 | 00:00:00 | |
| 9A1FER-10 | 2026-09-04 12:39:46 | 45.77190 | 14.94444 | 133° | 7km/h | 20245m | 6.5m/s | 0°C | 0% | 0hPa | 0V | 00:00:00 | 00:00:00 | 00:00:00 | |
| 9A1FER-3 | 2026-09-04 12:39:42 | 45.77195 | 14.94442 | 229° | 7km/h | 20226m | 6.0m/s | 0°C | 0% | 0hPa | 0V | 00:00:00 | 00:00:00 | 00:00:00 | |
| 9A1FER-15 | 2026-09-04 12:39:36 | 45.77195 | 14.94430 | 115° | 9km/h | 20195m | 5.8m/s | 0°C | 0% | 0hPa | 0V | 00:00:00 | 00:00:00 | 00:00:00 | |
| 9A1FER-10 | 2026-09-04 12:39:31 | 45.77205 | 14.94425 | 165° | 7km/h | 20171m | 5.9m/s | 0°C | 0% | 0hPa | 0V | 00:00:00 | 00:00:00 | 00:00:00 | |
| 9A1FER-3 | 2026-09-04 12:39:27 | 45.77206 | 14.94419 | 50° | 7km/h | 20150m | 3.5m/s | 0°C | 0% | 0hPa | 0V | 00:00:00 | 00:00:00 | 00:00:00 | |
| 9A1FER-15 | 2026-09-04 12:39:21 | 45.77207 | 14.94402 | 178° | 5km/h | 20124m | 5.5m/s | 0°C | 0% | 0hPa | 0V | 00:00:00 | 00:00:00 | 00:00:00 | |
| 9A1FER-10 | 2026-09-04 12:39:16 | 45.77209 | 14.94402 | 147° | 7km/h | 20099m | 5.8m/s | 0°C | 0% | 0hPa | 0V | 00:00:00 | 00:00:00 | 00:00:00 | |
| 9A1FER-3 | 2026-09-04 12:39:10 | 45.77215 | 14.94392 | 253° | 5km/h | 20064m | 4.7m/s | 0°C | 0% | 0hPa | 0V | 00:00:00 | 00:00:00 | 00:00:00 | |
| 9A1FER-15 | 2026-09-04 12:39:04 | 45.77217 | 14.94391 | 141° | 7km/h | 20035m | 4.1m/s | 0°C | 0% | 0hPa | 0V | 00:00:00 | 00:00:00 | 00:00:00 | |
| 9A1FER-10 | 2026-09-04 12:39:01 | 45.77221 | 14.94380 | 111° | 5km/h | 20020m | 4.7m/s | 0°C | 0% | 0hPa | 0V | 00:00:00 | 00:00:00 | 00:00:00 | |
| 9A1FER-3 | 2026-09-04 12:38:55 | 45.77227 | 14.94372 | 149° | 5km/h | 19987m | 4.1m/s | 0°C | 0% | 0hPa | 0V | 00:00:00 | 00:00:00 | 00:00:00 | |
| 9A1FER-15 | 2026-09-04 12:38:49 | 45.77234 | 14.94364 | 176° | 7km/h | 19956m | 5.7m/s | 0°C | 0% | 0hPa | 0V | 00:00:00 | 00:00:00 | 00:00:00 | |
| 9A1FER-10 | 2026-09-04 12:38:46 | 45.77235 | 14.94365 | 268° | 7km/h | 19941m | 4.8m/s | 0°C | 0% | 0hPa | 0V | 00:00:00 | 00:00:00 | 00:00:00 | |
| 9A1FER-3 | 2026-09-04 12:38:40 | 45.77241 | 14.94364 | 209° | 11km/h | 19911m | 5.1m/s | 0°C | 0% | 0hPa | 0V | 00:00:00 | 00:00:00 | 00:00:00 | |
| 9A1FER-15 | 2026-09-04 12:38:34 | 45.77257 | 14.94368 | 183° | 11km/h | 19881m | 3.3m/s | 0°C | 0% | 0hPa | 0V | 00:00:00 | 00:00:00 | 00:00:00 | |
| 9A1FER-10 | 2026-09-04 12:38:31 | 45.77260 | 14.94364 | 118° | 13km/h | 19868m | 6.7m/s | 0°C | 0% | 0hPa | 0V | 00:00:00 | 00:00:00 | 00:00:00 | |
| 9A1FER-3 | 2026-09-04 12:38:25 | 45.77275 | 14.94362 | 183° | 16km/h | 19839m | 5.5m/s | 0°C | 0% | 0hPa | 0V | 00:00:00 | 00:00:00 | 00:00:00 | |
| 9A1FER-15 | 2026-09-04 12:38:19 | 45.77295 | 14.94363 | 185° | 20km/h | 19807m | 4.3m/s | 0°C | 0% | 0hPa | 0V | 00:00:00 | 00:00:00 | 00:00:00 | |
| 9A1FER-10 | 2026-09-04 12:38:16 | 45.77309 | 14.94364 | 184° | 20km/h | 19792m | 5.5m/s | 0°C | 0% | 0hPa | 0V | 00:00:00 | 00:00:00 | 00:00:00 | |
| 9A1FER-3 | 2026-09-04 12:38:10 | 45.77340 | 14.94353 | 153° | 18km/h | 19762m | 4.0m/s | 0°C | 0% | 0hPa | 0V | 00:00:00 | 00:00:00 | 00:00:00 | |
| 9A1FER-15 | 2026-09-04 12:38:04 | 45.77370 | 14.94347 | 161° | 18km/h | 19731m | 4.1m/s | 0°C | 0% | 0hPa | 0V | 00:00:00 | 00:00:00 | 00:00:00 | |
| 9A1FER-10 | 2026-09-04 12:38:01 | 45.77384 | 14.94338 | 147° | 16km/h | 19716m | 4.3m/s | 0°C | 0% | 0hPa | 0V | 00:00:00 | 00:00:00 | 00:00:00 | |
| 9A1FER-3 | 2026-09-04 12:37:55 | 45.77405 | 14.94323 | 163° | 18km/h | 19686m | 4.1m/s | 0°C | 0% | 0hPa | 0V | 00:00:00 | 00:00:00 | 00:00:00 | |
| 9A1FER-15 | 2026-09-04 12:37:49 | 45.77432 | 14.94312 | 176° | 20km/h | 19655m | 5.0m/s | 0°C | 0% | 0hPa | 0V | 00:00:00 | 00:00:00 | 00:00:00 | |
| 9A1FER-10 | 2026-09-04 12:37:46 | 45.77440 | 14.94308 | 166° | 22km/h | 19640m | 4.2m/s | 0°C | 0% | 0hPa | 0V | 00:00:00 | 00:00:00 | 00:00:00 | |
| 9A1FER-3 | 2026-09-04 12:37:39 | 45.77479 | 14.94295 | 172° | 22km/h | 19604m | 5.7m/s | 0°C | 0% | 0hPa | 0V | 00:00:00 | 00:00:00 | 00:00:00 | |
| 9A1FER-15 | 2026-09-04 12:37:33 | 45.77508 | 14.94282 | 156° | 26km/h | 19575m | 5.8m/s | 0°C | 0% | 0hPa | 0V | 00:00:00 | 00:00:00 | 00:00:00 | |
| 9A1FER-10 | 2026-09-04 12:37:31 | 45.77521 | 14.94271 | 147° | 24km/h | 19564m | 7.0m/s | 0°C | 0% | 0hPa | 0V | 00:00:00 | 00:00:00 | 00:00:00 | |
| 9A1FER-3 | 2026-09-04 12:37:24 | 45.77553 | 14.94239 | 149° | 20km/h | 19526m | 5.6m/s | 0°C | 0% | 0hPa | 0V | 00:00:00 | 00:00:00 | 00:00:00 | |
| 9A1FER-15 | 2026-09-04 12:37:18 | 45.77584 | 14.94210 | 128° | 16km/h | 19494m | 4.7m/s | 0°C | 0% | 0hPa | 0V | 00:00:00 | 00:00:00 | 00:00:00 | |
| 9A1FER-10 | 2026-09-04 12:37:16 | 45.77590 | 14.94202 | 147° | 16km/h | 19484m | 4.9m/s | 0°C | 0% | 0hPa | 0V | 00:00:00 | 00:00:00 | 00:00:00 | |
| 9A1FER-3 | 2026-09-04 12:37:10 | 45.77614 | 14.94173 | 111° | 13km/h | 19448m | 5.3m/s | 0°C | 0% | 0hPa | 0V | 00:00:00 | 00:00:00 | 00:00:00 | |
| 9A1FER-15 | 2026-09-04 12:37:03 | 45.77625 | 14.94149 | 146° | 18km/h | 19416m | 5.1m/s | 0°C | 0% | 0hPa | 0V | 00:00:00 | 00:00:00 | 00:00:00 | |
| 9A1FER-10 | 2026-09-04 12:37:01 | 45.77634 | 14.94143 | 164° | 16km/h | 19406m | 5.0m/s | 0°C | 0% | 0hPa | 0V | 00:00:00 | 00:00:00 | 00:00:00 | |
| 9A1FER-3 | 2026-09-04 12:36:54 | 45.77644 | 14.94118 | 132° | 16km/h | 19371m | 5.3m/s | 0°C | 0% | 0hPa | 0V | 00:00:00 | 00:00:00 | 00:00:00 | |
| 9A1FER-15 | 2026-09-04 12:36:48 | 45.77668 | 14.94086 | 120° | 16km/h | 19342m | 6.5m/s | 0°C | 0% | 0hPa | 0V | 00:00:00 | 00:00:00 | 00:00:00 | |
| 9A1FER-10 | 2026-09-04 12:36:46 | 45.77671 | 14.94079 | 111° | 16km/h | 19331m | 6.5m/s | 0°C | 0% | 0hPa | 0V | 00:00:00 | 00:00:00 | 00:00:00 | |
| 9A1FER-3 | 2026-09-04 12:36:37 | 45.77701 | 14.94044 | 144° | 20km/h | 19286m | 3.4m/s | 0°C | 0% | 0hPa | 0V | 00:00:00 | 00:00:00 | 00:00:00 | |
| 9A1FER-15 | 2026-09-04 12:36:33 | 45.77713 | 14.94023 | 127° | 22km/h | 19266m | 5.3m/s | 0°C | 0% | 0hPa | 0V | 00:00:00 | 00:00:00 | 00:00:00 | |
| 9A1FER-10 | 2026-09-04 12:36:32 | 45.77719 | 14.94014 | 135° | 22km/h | 19257m | 4.3m/s | 0°C | 0% | 0hPa | 0V | 00:00:00 | 00:00:00 | 00:00:00 | |
| 9A1FER-3 | 2026-09-04 12:36:21 | 45.77758 | 14.93963 | 148° | 29km/h | 19211m | 5.4m/s | 0°C | 0% | 0hPa | 0V | 00:00:00 | 00:00:00 | 00:00:00 | |
| 9A1FER-15 | 2026-09-04 12:36:17 | 45.77775 | 14.93939 | 147° | 29km/h | 19192m | 4.4m/s | 0°C | 0% | 0hPa | 0V | 00:00:00 | 00:00:00 | 00:00:00 | |
| 9A1FER-10 | 2026-09-04 12:36:16 | 45.77782 | 14.93932 | 142° | 29km/h | 19187m | 6.1m/s | 0°C | 0% | 0hPa | 0V | 00:00:00 | 00:00:00 | 00:00:00 | |
| 9A1FER-3 | 2026-09-04 12:36:02 | 45.77862 | 14.93832 | 131° | 31km/h | 19113m | 5.9m/s | 0°C | 0% | 0hPa | 0V | 00:00:00 | 00:00:00 | 00:00:00 | |
| 9A1FER-10 | 2026-09-04 12:36:01 | 45.77867 | 14.93824 | 126° | 33km/h | 19108m | 3.9m/s | 0°C | 0% | 0hPa | 0V | 00:00:00 | 00:00:00 | 00:00:00 | |
| 9A1FER-15 | 2026-09-04 12:36:00 | 45.77871 | 14.93816 | 131° | 33km/h | 19103m | 4.9m/s | 0°C | 0% | 0hPa | 0V | 00:00:00 | 00:00:00 | 00:00:00 | |
| 9A1FER-3 | 2026-09-04 12:35:46 | 45.77945 | 14.93685 | 127° | 38km/h | 19031m | 5.5m/s | 0°C | 0% | 0hPa | 0V | 00:00:00 | 00:00:00 | 00:00:00 | |
| 9A1FER-15 | 2026-09-04 12:35:45 | 45.77950 | 14.93675 | 129° | 38km/h | 19026m | 4.7m/s | 0°C | 0% | 0hPa | 0V | 00:00:00 | 00:00:00 | 00:00:00 | |
| 9A1FER-3 | 2026-09-04 12:35:31 | 45.78017 | 14.93517 | 111° | 37km/h | 18960m | 6.0m/s | 0°C | 0% | 0hPa | 0V | 00:00:00 | 00:00:00 | 00:00:00 | |
| 9A1FER-15 | 2026-09-04 12:35:30 | 45.78021 | 14.93487 | 115° | 37km/h | 18954m | 6.0m/s | 0°C | 0% | 0hPa | 0V | 00:00:00 | 00:00:00 | 00:00:00 | |
| 9A1FER-3 | 2026-09-04 12:35:16 | 45.78075 | 14.93319 | 117° | 38km/h | 18884m | 6.0m/s | 0°C | 0% | 0hPa | 0V | 00:00:00 | 00:00:00 | 00:00:00 | |
| 9A1FER-15 | 2026-09-04 12:35:15 | 45.78079 | 14.93309 | 124° | 38km/h | 18879m | 4.2m/s | 0°C | 0% | 0hPa | 0V | 00:00:00 | 00:00:00 | 00:00:00 | |
| 9A1FER-10 | 2026-09-04 12:35:01 | 45.78123 | 14.93119 | 96° | 40km/h | 18813m | 6.5m/s | 0°C | 0% | 0hPa | 0V | 00:00:00 | 00:00:00 | 00:00:00 | |
| 9A1FER-15 | 2026-09-04 12:35:00 | 45.78124 | 14.93104 | 98° | 38km/h | 18809m | 2.4m/s | 0°C | 0% | 0hPa | 0V | 00:00:00 | 00:00:00 | 00:00:00 | |
| 9A1FER-3 | 2026-09-04 12:34:46 | 45.78156 | 14.92912 | 96° | 33km/h | 18742m | 5.6m/s | 0°C | 0% | 0hPa | 0V | 00:00:00 | 00:00:00 | 00:00:00 | |
| 9A1FER-15 | 2026-09-04 12:34:44 | 45.78159 | 14.92888 | 105° | 31km/h | 18732m | 6.5m/s | 0°C | 0% | 0hPa | 0V | 00:00:00 | 00:00:00 | 00:00:00 | |
| 9A1FER-10 | 2026-09-04 12:34:31 | 45.78185 | 14.92747 | 116° | 26km/h | 18665m | 4.0m/s | 0°C | 0% | 0hPa | 0V | 00:00:00 | 00:00:00 | 00:00:00 | |
| 9A1FER-15 | 2026-09-04 12:34:29 | 45.78191 | 14.92731 | 121° | 26km/h | 18654m | 5.0m/s | 0°C | 0% | 0hPa | 0V | 00:00:00 | 00:00:00 | 00:00:00 | |
| 9A1FER-10 | 2026-09-04 12:34:15 | 45.78203 | 14.92608 | 93° | 22km/h | 18588m | 4.1m/s | 0°C | 0% | 0hPa | 0V | 00:00:00 | 00:00:00 | 00:00:00 | |
| 9A1FER-15 | 2026-09-04 12:34:14 | 45.78203 | 14.92599 | 90° | 20km/h | 18585m | 3.5m/s | 0°C | 0% | 0hPa | 0V | 00:00:00 | 00:00:00 | 00:00:00 | |
| 9A1FER-3 | 2026-09-04 12:34:13 | 45.78203 | 14.92590 | 85° | 20km/h | 18581m | 4.8m/s | 0°C | 0% | 0hPa | 0V | 00:00:00 | 00:00:00 | 00:00:00 | |
| 9A1FER-10 | 2026-09-04 12:34:00 | 45.78196 | 14.92495 | 93° | 24km/h | 18516m | 6.2m/s | 0°C | 0% | 0hPa | 0V | 00:00:00 | 00:00:00 | 00:00:00 | |
| 9A1FER-3 | 2026-09-04 12:33:58 | 45.78195 | 14.92481 | 78° | 24km/h | 18507m | 5.5m/s | 0°C | 0% | 0hPa | 0V | 00:00:00 | 00:00:00 | 00:00:00 | |
| 9A1FER-10 | 2026-09-04 12:33:45 | 45.78168 | 14.92370 | 64° | 29km/h | 18448m | 4.4m/s | 0°C | 0% | 0hPa | 0V | 00:00:00 | 00:00:00 | 00:00:00 | |
| 9A1FER-15 | 2026-09-04 12:33:44 | 45.78165 | 14.92360 | 69° | 31km/h | 18444m | 3.0m/s | 0°C | 0% | 0hPa | 0V | 00:00:00 | 00:00:00 | 00:00:00 | |
| 9A1FER-3 | 2026-09-04 12:33:43 | 45.78163 | 14.92350 | 74° | 29km/h | 18440m | 6.0m/s | 0°C | 0% | 0hPa | 0V | 00:00:00 | 00:00:00 | 00:00:00 | |
| 9A1FER-10 | 2026-09-04 12:33:30 | 45.78149 | 14.92214 | 99° | 35km/h | 18381m | 4.6m/s | 0°C | 0% | 0hPa | 0V | 00:00:00 | 00:00:00 | 00:00:00 | |
| 9A1FER-15 | 2026-09-04 12:33:29 | 45.78149 | 14.92201 | 94° | 35km/h | 18377m | 3.5m/s | 0°C | 0% | 0hPa | 0V | 00:00:00 | 00:00:00 | 00:00:00 | |
| 9A1FER-3 | 2026-09-04 12:33:28 | 45.78149 | 14.92188 | 86° | 33km/h | 18373m | 4.6m/s | 0°C | 0% | 0hPa | 0V | 00:00:00 | 00:00:00 | 00:00:00 | |
| 9A1FER-10 | 2026-09-04 12:33:15 | 45.78161 | 14.92038 | 88° | 31km/h | 18317m | 5.3m/s | 0°C | 0% | 0hPa | 0V | 00:00:00 | 00:00:00 | 00:00:00 | |
| 9A1FER-15 | 2026-09-04 12:33:14 | 45.78160 | 14.92025 | 90° | 31km/h | 18313m | 4.5m/s | 0°C | 0% | 0hPa | 0V | 00:00:00 | 00:00:00 | 00:00:00 | |
| 9A1FER-3 | 2026-09-04 12:33:04 | 45.78176 | 14.91911 | 94° | 26km/h | 18266m | 3.3m/s | 0°C | 0% | 0hPa | 0V | 00:00:00 | 00:00:00 | 00:00:00 | |
| 9A1FER-10 | 2026-09-04 12:33:00 | 45.78176 | 14.91872 | 95° | 24km/h | 18250m | 4.3m/s | 0°C | 0% | 0hPa | 0V | 00:00:00 | 00:00:00 | 00:00:00 | |
| 9A1FER-15 | 2026-09-04 12:32:59 | 45.78177 | 14.91861 | 98° | 24km/h | 18247m | 4.3m/s | 0°C | 0% | 0hPa | 0V | 00:00:00 | 00:00:00 | 00:00:00 | |
| 9A1FER-3 | 2026-09-04 12:32:48 | 45.78198 | 14.91773 | 138° | 24km/h | 18193m | 3.6m/s | 0°C | 0% | 0hPa | 0V | 00:00:00 | 00:00:00 | 00:00:00 | |
| 9A1FER-10 | 2026-09-04 12:32:45 | 45.78211 | 14.91754 | 129° | 26km/h | 18180m | 3.9m/s | 0°C | 0% | 0hPa | 0V | 00:00:00 | 00:00:00 | 00:00:00 | |
| 9A1FER-15 | 2026-09-04 12:32:44 | 45.78215 | 14.91747 | 134° | 24km/h | 18176m | 5.7m/s | 0°C | 0% | 0hPa | 0V | 00:00:00 | 00:00:00 | 00:00:00 | |
| 9A1FER-15 | 2026-09-04 12:32:29 | 45.78266 | 14.91634 | 118° | 26km/h | 18104m | 4.0m/s | 0°C | 0% | 0hPa | 0V | 00:00:00 | 00:00:00 | 00:00:00 | |
| 9A1FER-3 | 2026-09-04 12:32:28 | 45.78270 | 14.91625 | 113° | 26km/h | 18099m | 5.5m/s | 0°C | 0% | 0hPa | 0V | 00:00:00 | 00:00:00 | 00:00:00 | |
| 9A1FER-15 | 2026-09-04 12:32:14 | 45.78311 | 14.91508 | 117° | 26km/h | 18031m | 3.9m/s | 0°C | 0% | 0hPa | 0V | 00:00:00 | 00:00:00 | 00:00:00 | |
| 9A1FER-3 | 2026-09-04 12:32:11 | 45.78319 | 14.91483 | 105° | 27km/h | 18016m | 5.8m/s | 0°C | 0% | 0hPa | 0V | 00:00:00 | 00:00:00 | 00:00:00 | |
| 9A1FER-10 | 2026-09-04 12:31:59 | 45.78348 | 14.91383 | 99° | 24km/h | 17959m | 4.2m/s | 0°C | 0% | 0hPa | 0V | 00:00:00 | 00:00:00 | 00:00:00 | |
| 9A1FER-3 | 2026-09-04 12:31:56 | 45.78350 | 14.91349 | 93° | 20km/h | 17945m | 2.7m/s | 0°C | 0% | 0hPa | 0V | 00:00:00 | 00:00:00 | 00:00:00 | |
| 9A1FER-15 | 2026-09-04 12:31:44 | 45.78370 | 14.91259 | 91° | 15km/h | 17888m | 4.4m/s | 0°C | 0% | 0hPa | 0V | 00:00:00 | 00:00:00 | 00:00:00 | |
| 9A1FER-3 | 2026-09-04 12:31:41 | 45.78369 | 14.91244 | 94° | 15km/h | 17875m | 3.3m/s | 0°C | 0% | 0hPa | 0V | 00:00:00 | 00:00:00 | 00:00:00 | |
| 9A1FER-15 | 2026-09-04 12:31:29 | 45.78381 | 14.91182 | 109° | 11km/h | 17819m | 5.2m/s | 0°C | 0% | 0hPa | 0V | 00:00:00 | 00:00:00 | 00:00:00 | |
| 9A1FER-3 | 2026-09-04 12:31:26 | 45.78383 | 14.91172 | 94° | 13km/h | 17805m | 2.6m/s | 0°C | 0% | 0hPa | 0V | 00:00:00 | 00:00:00 | 00:00:00 | |
| 9A1FER-10 | 2026-09-04 12:31:14 | 45.78386 | 14.91121 | 110° | 15km/h | 17749m | 4.3m/s | 0°C | 0% | 0hPa | 0V | 00:00:00 | 00:00:00 | 00:00:00 | |
| 9A1FER-3 | 2026-09-04 12:31:11 | 45.78388 | 14.91107 | 97° | 15km/h | 17736m | 5.4m/s | 0°C | 0% | 0hPa | 0V | 00:00:00 | 00:00:00 | 00:00:00 | |
| 9A1FER-15 | 2026-09-04 12:30:59 | 45.78420 | 14.91060 | 155° | 16km/h | 17679m | 4.4m/s | 0°C | 0% | 0hPa | 0V | 00:00:00 | 00:00:00 | 00:00:00 | |
| 9A1FER-3 | 2026-09-04 12:30:45 | 45.78473 | 14.91026 | 144° | 22km/h | 17614m | 4.2m/s | 0°C | 0% | 0hPa | 0V | 00:00:00 | 00:00:00 | 00:00:00 | |
| 9A1FER-10 | 2026-09-04 12:30:30 | 45.78542 | 14.90940 | 149° | 26km/h | 17543m | 4.0m/s | 0°C | 0% | 0hPa | 0V | 00:00:00 | 00:00:00 | 00:00:00 | |
| 9A1FER-15 | 2026-09-04 12:30:29 | 45.78542 | 14.90940 | 149° | 26km/h | 17543m | 4.0m/s | 0°C | 0% | 0hPa | 0V | 00:00:00 | 00:00:00 | 00:00:00 | |
| OE3JTB-15 | 2026-09-04 12:30:23 | 45.78562 | 14.90892 | 88° | 24km/h | 17512m | 4.3m/s | 0°C | 0% | 0hPa | 0V | 00:00:00 | 00:00:00 | 00:00:00 | |
| 9A1FER-3 | 2026-09-04 12:30:15 | 45.78584 | 14.90834 | 117° | 26km/h | 17482m | 3.5m/s | 0°C | 0% | 0hPa | 0V | 00:00:00 | 00:00:00 | 00:00:00 | |
| 9A1FER-10 | 2026-09-04 12:30:14 | 45.78587 | 14.90826 | 112° | 26km/h | 17478m | 5.2m/s | 0°C | 0% | 0hPa | 0V | 00:00:00 | 00:00:00 | 00:00:00 | |
| 9A1FER-15 | 2026-09-04 12:30:13 | 45.78589 | 14.90818 | 99° | 26km/h | 17473m | 4.4m/s | 0°C | 0% | 0hPa | 0V | 00:00:00 | 00:00:00 | 00:00:00 | |
| 9A1FER-3 | 2026-09-04 12:30:00 | 45.78589 | 14.90702 | 74° | 27km/h | 17414m | 3.2m/s | 0°C | 0% | 0hPa | 0V | 00:00:00 | 00:00:00 | 00:00:00 | |
| 9A1FER-10 | 2026-09-04 12:29:59 | 45.78586 | 14.90692 | 73° | 26km/h | 17410m | 5.1m/s | 0°C | 0% | 0hPa | 0V | 00:00:00 | 00:00:00 | 00:00:00 | |
| 9A1FER-15 | 2026-09-04 12:29:58 | 45.78584 | 14.90682 | 68° | 26km/h | 17405m | 3.8m/s | 0°C | 0% | 0hPa | 0V | 00:00:00 | 00:00:00 | 00:00:00 | |
| OE3JTB-15 | 2026-09-04 12:29:46 | 45.78562 | 14.90578 | 90° | 22km/h | 17352m | 5.8m/s | 0°C | 0% | 0hPa | 0V | 00:00:00 | 00:00:00 | 00:00:00 | |
| 9A1FER-3 | 2026-09-04 12:29:45 | 45.78561 | 14.90569 | 91° | 20km/h | 17347m | 4.3m/s | 0°C | 0% | 0hPa | 0V | 00:00:00 | 00:00:00 | 00:00:00 | |
| 9A1FER-10 | 2026-09-04 12:29:44 | 45.78561 | 14.90559 | 83° | 18km/h | 17342m | 5.8m/s | 0°C | 0% | 0hPa | 0V | 00:00:00 | 00:00:00 | 00:00:00 | |
| 9A1FER-15 | 2026-09-04 12:29:43 | 45.78560 | 14.90550 | 83° | 18km/h | 17337m | 3.9m/s | 0°C | 0% | 0hPa | 0V | 00:00:00 | 00:00:00 | 00:00:00 | |
| 9A1FER-3 | 2026-09-04 12:29:30 | 45.78568 | 14.90469 | 103° | 18km/h | 17272m | 3.6m/s | 0°C | 0% | 0hPa | 0V | 00:00:00 | 00:00:00 | 00:00:00 | |
| 9A1FER-10 | 2026-09-04 12:29:29 | 45.78569 | 14.90465 | 121° | 18km/h | 17268m | 6.0m/s | 0°C | 0% | 0hPa | 0V | 00:00:00 | 00:00:00 | 00:00:00 | |
| 9A1FER-15 | 2026-09-04 12:29:28 | 45.78571 | 14.90461 | 134° | 18km/h | 17263m | 4.8m/s | 0°C | 0% | 0hPa | 0V | 00:00:00 | 00:00:00 | 00:00:00 | |
| 9A1FER-3 | 2026-09-04 12:29:15 | 45.78606 | 14.90395 | 137° | 26km/h | 17196m | 5.2m/s | 0°C | 0% | 0hPa | 0V | 00:00:00 | 00:00:00 | 00:00:00 | |
| 9A1FER-10 | 2026-09-04 12:29:14 | 45.78610 | 14.90390 | 131° | 27km/h | 17191m | 2.8m/s | 0°C | 0% | 0hPa | 0V | 00:00:00 | 00:00:00 | 00:00:00 | |
| 9A1FER-15 | 2026-09-04 12:29:13 | 45.78614 | 14.90384 | 138° | 27km/h | 17187m | 6.2m/s | 0°C | 0% | 0hPa | 0V | 00:00:00 | 00:00:00 | 00:00:00 | |
| 9A1FER-3 | 2026-09-04 12:29:00 | 45.78690 | 14.90308 | 137° | 24km/h | 17126m | 3.8m/s | 0°C | 0% | 0hPa | 0V | 00:00:00 | 00:00:00 | 00:00:00 | |
| 9A1FER-10 | 2026-09-04 12:28:59 | 45.78694 | 14.90302 | 140° | 22km/h | 17122m | 5.9m/s | 0°C | 0% | 0hPa | 0V | 00:00:00 | 00:00:00 | 00:00:00 | |
| 9A1FER-15 | 2026-09-04 12:28:58 | 45.78700 | 14.90296 | 143° | 22km/h | 17117m | 3.8m/s | 0°C | 0% | 0hPa | 0V | 00:00:00 | 00:00:00 | 00:00:00 | |
| 9A1FER-3 | 2026-09-04 12:28:45 | 45.78755 | 14.90227 | 125° | 18km/h | 17055m | 3.2m/s | 0°C | 0% | 0hPa | 0V | 00:00:00 | 00:00:00 | 00:00:00 | |
| 9A1FER-15 | 2026-09-04 12:28:42 | 45.78765 | 14.90212 | 141° | 16km/h | 17041m | 5.4m/s | 0°C | 0% | 0hPa | 0V | 00:00:00 | 00:00:00 | 00:00:00 | |
| 9A1FER-10 | 2026-09-04 12:28:29 | 45.78800 | 14.90157 | 143° | 15km/h | 16978m | 4.6m/s | 0°C | 0% | 0hPa | 0V | 00:00:00 | 00:00:00 | 00:00:00 | |
| 9A1FER-15 | 2026-09-04 12:28:27 | 45.78806 | 14.90150 | 137° | 16km/h | 16969m | 5.0m/s | 0°C | 0% | 0hPa | 0V | 00:00:00 | 00:00:00 | 00:00:00 | |
| 9A1FER-3 | 2026-09-04 12:28:22 | 45.78816 | 14.90124 | 108° | 13km/h | 16943m | 6.2m/s | 0°C | 0% | 0hPa | 0V | 00:00:00 | 00:00:00 | 00:00:00 | |
| 9A1FER-10 | 2026-09-04 12:28:14 | 45.78829 | 14.90082 | 108° | 15km/h | 16905m | 3.9m/s | 0°C | 0% | 0hPa | 0V | 00:00:00 | 00:00:00 | 00:00:00 | |
| 9A1FER-15 | 2026-09-04 12:28:12 | 45.78833 | 14.90073 | 135° | 13km/h | 16896m | 4.3m/s | 0°C | 0% | 0hPa | 0V | 00:00:00 | 00:00:00 | 00:00:00 | |
| 9A1FER-3 | 2026-09-04 12:28:07 | 45.78842 | 14.90058 | 95° | 15km/h | 16873m | 4.9m/s | 0°C | 0% | 0hPa | 0V | 00:00:00 | 00:00:00 | 00:00:00 | |
| 9A1FER-10 | 2026-09-04 12:27:59 | 45.78852 | 14.90023 | 125° | 11km/h | 16835m | 4.8m/s | 0°C | 0% | 0hPa | 0V | 00:00:00 | 00:00:00 | 00:00:00 | |
| 9A1FER-15 | 2026-09-04 12:27:57 | 45.78852 | 14.90015 | 83° | 13km/h | 16826m | 5.3m/s | 0°C | 0% | 0hPa | 0V | 00:00:00 | 00:00:00 | 00:00:00 | |
| 9A1FER-3 | 2026-09-04 12:27:52 | 45.78850 | 14.89988 | 124° | 9km/h | 16801m | 5.1m/s | 0°C | 0% | 0hPa | 0V | 00:00:00 | 00:00:00 | 00:00:00 | |
| 9A1FER-10 | 2026-09-04 12:27:44 | 45.78852 | 14.89968 | 62° | 13km/h | 16763m | 3.9m/s | 0°C | 0% | 0hPa | 0V | 00:00:00 | 00:00:00 | 00:00:00 | |
| 9A1FER-15 | 2026-09-04 12:27:42 | 45.78850 | 14.89956 | 94° | 9km/h | 16754m | 4.8m/s | 0°C | 0% | 0hPa | 0V | 00:00:00 | 00:00:00 | 00:00:00 | |
| 9A1FER-3 | 2026-09-04 12:27:37 | 45.78855 | 14.89946 | 104° | 13km/h | 16730m | 5.2m/s | 0°C | 0% | 0hPa | 0V | 00:00:00 | 00:00:00 | 00:00:00 | |
| 9A1FER-10 | 2026-09-04 12:27:29 | 45.78852 | 14.89914 | 85° | 15km/h | 16692m | 5.2m/s | 0°C | 0% | 0hPa | 0V | 00:00:00 | 00:00:00 | 00:00:00 | |
| 9A1FER-15 | 2026-09-04 12:27:27 | 45.78852 | 14.89907 | 107° | 16km/h | 16682m | 4.7m/s | 0°C | 0% | 0hPa | 0V | 00:00:00 | 00:00:00 | 00:00:00 | |
| 9A1FER-3 | 2026-09-04 12:27:18 | 45.78864 | 14.89856 | 105° | 18km/h | 16634m | 4.1m/s | 0°C | 0% | 0hPa | 0V | 00:00:00 | 00:00:00 | 00:00:00 | |
| 9A1FER-10 | 2026-09-04 12:27:14 | 45.78872 | 14.89834 | 118° | 18km/h | 16614m | 4.5m/s | 0°C | 0% | 0hPa | 0V | 00:00:00 | 00:00:00 | 00:00:00 | |
| 9A1FER-15 | 2026-09-04 12:27:12 | 45.78878 | 14.89822 | 134° | 18km/h | 16605m | 4.8m/s | 0°C | 0% | 0hPa | 0V | 00:00:00 | 00:00:00 | 00:00:00 | |
| 9A1FER-10 | 2026-09-04 12:26:59 | 45.78914 | 14.89758 | 109° | 24km/h | 16538m | 4.9m/s | 0°C | 0% | 0hPa | 0V | 00:00:00 | 00:00:00 | 00:00:00 | |
| 9A1FER-15 | 2026-09-04 12:26:57 | 45.78917 | 14.89744 | 113° | 24km/h | 16528m | 5.6m/s | 0°C | 0% | 0hPa | 0V | 00:00:00 | 00:00:00 | 00:00:00 | |
| 9A1FER-10 | 2026-09-04 12:26:44 | 45.78947 | 14.89646 | 112° | 27km/h | 16462m | 6.0m/s | 0°C | 0% | 0hPa | 0V | 00:00:00 | 00:00:00 | 00:00:00 | |
| 9A1FER-3 | 2026-09-04 12:26:42 | 45.78952 | 14.89631 | 117° | 27km/h | 16452m | 6.7m/s | 0°C | 0% | 0hPa | 0V | 00:00:00 | 00:00:00 | 00:00:00 | |
| 9A1FER-10 | 2026-09-04 12:26:30 | 45.78990 | 14.89510 | 125° | 37km/h | 16391m | 4.6m/s | 0°C | 0% | 0hPa | 0V | 00:00:00 | 00:00:00 | 00:00:00 | |
| 9A1FER-15 | 2026-09-04 12:26:27 | 45.78997 | 14.89488 | 110° | 38km/h | 16381m | 3.5m/s | 0°C | 0% | 0hPa | 0V | 00:00:00 | 00:00:00 | 00:00:00 | |
| 9A1FER-10 | 2026-09-04 12:26:14 | 45.79060 | 14.89338 | 126° | 40km/h | 16317m | 5.7m/s | 0°C | 0% | 0hPa | 0V | 00:00:00 | 00:00:00 | 00:00:00 | |
| 9A1FER-3 | 2026-09-04 12:26:12 | 45.79072 | 14.89316 | 129° | 40km/h | 16307m | 5.6m/s | 0°C | 0% | 0hPa | 0V | 00:00:00 | 00:00:00 | 00:00:00 | |
| 9A1FER-15 | 2026-09-04 12:26:11 | 45.79077 | 14.89304 | 121° | 40km/h | 16303m | 5.0m/s | 0°C | 0% | 0hPa | 0V | 00:00:00 | 00:00:00 | 00:00:00 | |
| 9A1FER-10 | 2026-09-04 12:25:59 | 45.79155 | 14.89174 | 130° | 46km/h | 16245m | 6.5m/s | 0°C | 0% | 0hPa | 0V | 00:00:00 | 00:00:00 | 00:00:00 | |
| 9A1FER-3 | 2026-09-04 12:25:57 | 45.79167 | 14.89148 | 126° | 47km/h | 16235m | 6.2m/s | 0°C | 0% | 0hPa | 0V | 00:00:00 | 00:00:00 | 00:00:00 | |
| 9A1FER-15 | 2026-09-04 12:25:55 | 45.79184 | 14.89121 | 135° | 51km/h | 16225m | 2.7m/s | 0°C | 0% | 0hPa | 0V | 00:00:00 | 00:00:00 | 00:00:00 | |
| 9A1FER-10 | 2026-09-04 12:25:44 | 45.79271 | 14.88985 | 127° | 57km/h | 16171m | 5.1m/s | 0°C | 0% | 0hPa | 0V | 00:00:00 | 00:00:00 | 00:00:00 | |
| 9A1FER-3 | 2026-09-04 12:25:42 | 45.79287 | 14.88955 | 129° | 58km/h | 16161m | 5.3m/s | 0°C | 0% | 0hPa | 0V | 00:00:00 | 00:00:00 | 00:00:00 | |
| 9A1FER-15 | 2026-09-04 12:25:38 | 45.79321 | 14.88898 | 129° | 60km/h | 16141m | 4.8m/s | 0°C | 0% | 0hPa | 0V | 00:00:00 | 00:00:00 | 00:00:00 | |
| 9A1FER-10 | 2026-09-04 12:25:29 | 45.79412 | 14.88747 | 128° | 60km/h | 16099m | 4.5m/s | 0°C | 0% | 0hPa | 0V | 00:00:00 | 00:00:00 | 00:00:00 | |
| 9A1FER-3 | 2026-09-04 12:25:27 | 45.79432 | 14.88713 | 130° | 58km/h | 16090m | 3.9m/s | 0°C | 0% | 0hPa | 0V | 00:00:00 | 00:00:00 | 00:00:00 | |
| 9A1FER-15 | 2026-09-04 12:25:23 | 45.79470 | 14.88644 | 131° | 57km/h | 16072m | 3.1m/s | 0°C | 0% | 0hPa | 0V | 00:00:00 | 00:00:00 | 00:00:00 | |
| 9A1FER-10 | 2026-09-04 12:25:14 | 45.79546 | 14.88491 | 131° | 55km/h | 16025m | 4.3m/s | 0°C | 0% | 0hPa | 0V | 00:00:00 | 00:00:00 | 00:00:00 | |
| 9A1FER-3 | 2026-09-04 12:25:12 | 45.79563 | 14.88456 | 123° | 53km/h | 16017m | 4.3m/s | 0°C | 0% | 0hPa | 0V | 00:00:00 | 00:00:00 | 00:00:00 | |
| 9A1FER-15 | 2026-09-04 12:25:08 | 45.79593 | 14.88390 | 121° | 57km/h | 15996m | 4.2m/s | 0°C | 0% | 0hPa | 0V | 00:00:00 | 00:00:00 | 00:00:00 | |
| 9A1FER-10 | 2026-09-04 12:24:59 | 45.79661 | 14.88243 | 120° | 49km/h | 15954m | 4.3m/s | 0°C | 0% | 0hPa | 0V | 00:00:00 | 00:00:00 | 00:00:00 | |
| 9A1FER-3 | 2026-09-04 12:24:57 | 45.79673 | 14.88213 | 122° | 51km/h | 15945m | 4.9m/s | 0°C | 0% | 0hPa | 0V | 00:00:00 | 00:00:00 | 00:00:00 | |
| 9A1FER-15 | 2026-09-04 12:24:52 | 45.79712 | 14.88139 | 135° | 55km/h | 15920m | 3.4m/s | 0°C | 0% | 0hPa | 0V | 00:00:00 | 00:00:00 | 00:00:00 | |
| 9A1FER-10 | 2026-09-04 12:24:44 | 45.79781 | 14.88031 | 132° | 57km/h | 15883m | 4.5m/s | 0°C | 0% | 0hPa | 0V | 00:00:00 | 00:00:00 | 00:00:00 | |
| 9A1FER-3 | 2026-09-04 12:24:42 | 45.79801 | 14.88001 | 134° | 58km/h | 15874m | 4.0m/s | 0°C | 0% | 0hPa | 0V | 00:00:00 | 00:00:00 | 00:00:00 | |
| 9A1FER-15 | 2026-09-04 12:24:35 | 45.79872 | 14.87894 | 131° | 58km/h | 15844m | 6.8m/s | 0°C | 0% | 0hPa | 0V | 00:00:00 | 00:00:00 | 00:00:00 | |
| 9A1FER-10 | 2026-09-04 12:24:29 | 45.79932 | 14.87807 | 139° | 62km/h | 15815m | 5.7m/s | 0°C | 0% | 0hPa | 0V | 00:00:00 | 00:00:00 | 00:00:00 | |
| 9A1FER-3 | 2026-09-04 12:24:27 | 45.79953 | 14.87777 | 134° | 62km/h | 15805m | 4.3m/s | 0°C | 0% | 0hPa | 0V | 00:00:00 | 00:00:00 | 00:00:00 | |
| 9A1FER-15 | 2026-09-04 12:24:18 | 45.80049 | 14.87638 | 141° | 66km/h | 15763m | 5.4m/s | 0°C | 0% | 0hPa | 0V | 00:00:00 | 00:00:00 | 00:00:00 | |
| 9A1FER-10 | 2026-09-04 12:24:13 | 45.80112 | 14.87556 | 134° | 62km/h | 15740m | 5.0m/s | 0°C | 0% | 0hPa | 0V | 00:00:00 | 00:00:00 | 00:00:00 | |
| 9A1FER-3 | 2026-09-04 12:24:12 | 45.80124 | 14.87539 | 136° | 64km/h | 15736m | 4.5m/s | 0°C | 0% | 0hPa | 0V | 00:00:00 | 00:00:00 | 00:00:00 | |
| 9A1FER-15 | 2026-09-04 12:24:03 | 45.80223 | 14.87398 | 132° | 62km/h | 15690m | 5.2m/s | 0°C | 0% | 0hPa | 0V | 00:00:00 | 00:00:00 | 00:00:00 | |
| 9A1FER-10 | 2026-09-04 12:23:58 | 45.80276 | 14.87316 | 134° | 64km/h | 15668m | 5.9m/s | 0°C | 0% | 0hPa | 0V | 00:00:00 | 00:00:00 | 00:00:00 | |
| 9A1FER-15 | 2026-09-04 12:23:46 | 45.80400 | 14.87106 | 133° | 64km/h | 15609m | 4.3m/s | 0°C | 0% | 0hPa | 0V | 00:00:00 | 00:00:00 | 00:00:00 | |
| 9A1FER-10 | 2026-09-04 12:23:43 | 45.80435 | 14.87052 | 134° | 64km/h | 15591m | 6.4m/s | 0°C | 0% | 0hPa | 0V | 00:00:00 | 00:00:00 | 00:00:00 | |
| 9A1FER-3 | 2026-09-04 12:23:41 | 45.80458 | 14.87019 | 136° | 66km/h | 15583m | 5.4m/s | 0°C | 0% | 0hPa | 0V | 00:00:00 | 00:00:00 | 00:00:00 | |
| 9A1FER-15 | 2026-09-04 12:23:31 | 45.80568 | 14.86853 | 132° | 62km/h | 15534m | 3.2m/s | 0°C | 0% | 0hPa | 0V | 00:00:00 | 00:00:00 | 00:00:00 | |
| 9A1FER-10 | 2026-09-04 12:23:28 | 45.80604 | 14.86801 | 138° | 60km/h | 15522m | 2.2m/s | 0°C | 0% | 0hPa | 0V | 00:00:00 | 00:00:00 | 00:00:00 | |
| 9A1FER-3 | 2026-09-04 12:23:24 | 45.80648 | 14.86735 | 133° | 60km/h | 15502m | 3.5m/s | 0°C | 0% | 0hPa | 0V | 00:00:00 | 00:00:00 | 00:00:00 | |
| 9A1FER-15 | 2026-09-04 12:23:15 | 45.80740 | 14.86593 | 130° | 58km/h | 15459m | 3.8m/s | 0°C | 0% | 0hPa | 0V | 00:00:00 | 00:00:00 | 00:00:00 | |
| 9A1FER-10 | 2026-09-04 12:23:13 | 45.80758 | 14.86558 | 125° | 57km/h | 15450m | 4.7m/s | 0°C | 0% | 0hPa | 0V | 00:00:00 | 00:00:00 | 00:00:00 | |
| 9A1FER-3 | 2026-09-04 12:23:08 | 45.80817 | 14.86456 | 137° | 55km/h | 15422m | 3.9m/s | 0°C | 0% | 0hPa | 0V | 00:00:00 | 00:00:00 | 00:00:00 | |
| 9A1FER-15 | 2026-09-04 12:23:00 | 45.80880 | 14.86349 | 134° | 49km/h | 15390m | 6.8m/s | 0°C | 0% | 0hPa | 0V | 00:00:00 | 00:00:00 | 00:00:00 | |
| 9A1FER-10 | 2026-09-04 12:22:58 | 45.80899 | 14.86325 | 142° | 49km/h | 15379m | 5.0m/s | 0°C | 0% | 0hPa | 0V | 00:00:00 | 00:00:00 | 00:00:00 | |
| 9A1FER-3 | 2026-09-04 12:22:52 | 45.80955 | 14.86243 | 125° | 44km/h | 15351m | 3.2m/s | 0°C | 0% | 0hPa | 0V | 00:00:00 | 00:00:00 | 00:00:00 | |
| 9A1FER-15 | 2026-09-04 12:22:45 | 45.81015 | 14.86169 | 152° | 42km/h | 15318m | 3.5m/s | 0°C | 0% | 0hPa | 0V | 00:00:00 | 00:00:00 | 00:00:00 | |
| 9A1FER-10 | 2026-09-04 12:22:42 | 45.81042 | 14.86139 | 137° | 42km/h | 15303m | 4.6m/s | 0°C | 0% | 0hPa | 0V | 00:00:00 | 00:00:00 | 00:00:00 | |
| 9A1FER-3 | 2026-09-04 12:22:37 | 45.81079 | 14.86095 | 151° | 46km/h | 15278m | 5.1m/s | 0°C | 0% | 0hPa | 0V | 00:00:00 | 00:00:00 | 00:00:00 | |
| 9A1FER-15 | 2026-09-04 12:22:29 | 45.81152 | 14.86025 | 132° | 46km/h | 15244m | 4.1m/s | 0°C | 0% | 0hPa | 0V | 00:00:00 | 00:00:00 | 00:00:00 | |
| 9A1FER-10 | 2026-09-04 12:22:27 | 45.81168 | 14.86007 | 150° | 47km/h | 15235m | 2.4m/s | 0°C | 0% | 0hPa | 0V | 00:00:00 | 00:00:00 | 00:00:00 | |
| 9A1FER-3 | 2026-09-04 12:22:22 | 45.81223 | 14.85966 | 154° | 46km/h | 15211m | 6.0m/s | 0°C | 0% | 0hPa | 0V | 00:00:00 | 00:00:00 | 00:00:00 | |
| 9A1FER-15 | 2026-09-04 12:22:14 | 45.81303 | 14.85902 | 157° | 51km/h | 15172m | 5.5m/s | 0°C | 0% | 0hPa | 0V | 00:00:00 | 00:00:00 | 00:00:00 | |
| 9A1FER-10 | 2026-09-04 12:22:12 | 45.81328 | 14.85885 | 156° | 51km/h | 15163m | 5.5m/s | 0°C | 0% | 0hPa | 0V | 00:00:00 | 00:00:00 | 00:00:00 | |
| 9A1FER-3 | 2026-09-04 12:22:07 | 45.81383 | 14.85839 | 152° | 51km/h | 15139m | 4.8m/s | 0°C | 0% | 0hPa | 0V | 00:00:00 | 00:00:00 | 00:00:00 | |
| 9A1FER-15 | 2026-09-04 12:21:59 | 45.81472 | 14.85769 | 150° | 57km/h | 15103m | 2.8m/s | 0°C | 0% | 0hPa | 0V | 00:00:00 | 00:00:00 | 00:00:00 | |
| 9A1FER-10 | 2026-09-04 12:21:57 | 45.81495 | 14.85751 | 152° | 58km/h | 15094m | 2.6m/s | 0°C | 0% | 0hPa | 0V | 00:00:00 | 00:00:00 | 00:00:00 | |
| 9A1FER-3 | 2026-09-04 12:21:52 | 45.81557 | 14.85704 | 155° | 60km/h | 15069m | 6.0m/s | 0°C | 0% | 0hPa | 0V | 00:00:00 | 00:00:00 | 00:00:00 | |
| 9A1FER-15 | 2026-09-04 12:21:44 | 45.81663 | 14.85619 | 156° | 62km/h | 15032m | 4.3m/s | 0°C | 0% | 0hPa | 0V | 00:00:00 | 00:00:00 | 00:00:00 | |
| 9A1FER-10 | 2026-09-04 12:21:42 | 45.81691 | 14.85601 | 155° | 62km/h | 15022m | 4.5m/s | 0°C | 0% | 0hPa | 0V | 00:00:00 | 00:00:00 | 00:00:00 | |
| 9A1FER-3 | 2026-09-04 12:21:27 | 45.81895 | 14.85432 | 148° | 69km/h | 14949m | 4.3m/s | 0°C | 0% | 0hPa | 0V | 00:00:00 | 00:00:00 | 00:00:00 | |
| 9A1FER-10 | 2026-09-04 12:21:12 | 45.82113 | 14.85218 | 148° | 71km/h | 14877m | 4.8m/s | 0°C | 0% | 0hPa | 0V | 00:00:00 | 00:00:00 | 00:00:00 | |
| 9A1FER-3 | 2026-09-04 12:21:09 | 45.82159 | 14.85175 | 145° | 71km/h | 14864m | 5.9m/s | 0°C | 0% | 0hPa | 0V | 00:00:00 | 00:00:00 | 00:00:00 | |
| OE3JTB-15 | 2026-09-04 12:21:01 | 45.82321 | 14.85016 | 146° | 62km/h | 14811m | 5.0m/s | 0°C | 0% | 0hPa | 0V | 00:00:00 | 00:00:00 | 00:00:00 | |
| 9A1FER-10 | 2026-09-04 12:20:57 | 45.82336 | 14.85001 | 144° | 68km/h | 14807m | 3.9m/s | 0°C | 0% | 0hPa | 0V | 00:00:00 | 00:00:00 | 00:00:00 | |
| 9A1FER-3 | 2026-09-04 12:20:49 | 45.82448 | 14.84885 | 147° | 62km/h | 14769m | 5.3m/s | 0°C | 0% | 0hPa | 0V | 00:00:00 | 00:00:00 | 00:00:00 | |
| 9A1FER-10 | 2026-09-04 12:20:42 | 45.82538 | 14.84790 | 148° | 58km/h | 14733m | 7.9m/s | 0°C | 0% | 0hPa | 0V | 00:00:00 | 00:00:00 | 00:00:00 | |
| 9A1FER-15 | 2026-09-04 12:20:36 | 45.82613 | 14.84728 | 150° | 64km/h | 14701m | 3.2m/s | 0°C | 0% | 0hPa | 0V | 00:00:00 | 00:00:00 | 00:00:00 | |
| 9A1FER-3 | 2026-09-04 12:20:34 | 45.82639 | 14.84703 | 145° | 60km/h | 14691m | 4.4m/s | 0°C | 0% | 0hPa | 0V | 00:00:00 | 00:00:00 | 00:00:00 | |
| OE3JTB-15 | 2026-09-04 12:20:32 | 45.82685 | 14.84659 | 145° | 62km/h | 14671m | 3.5m/s | 0°C | 0% | 0hPa | 0V | 00:00:00 | 00:00:00 | 00:00:00 | |
| 9A1FER-10 | 2026-09-04 12:20:27 | 45.82728 | 14.84622 | 151° | 66km/h | 14654m | 9.0m/s | 0°C | 0% | 0hPa | 0V | 00:00:00 | 00:00:00 | 00:00:00 | |
| 9A1FER-15 | 2026-09-04 12:20:21 | 45.82817 | 14.84544 | 141° | 60km/h | 14621m | 3.9m/s | 0°C | 0% | 0hPa | 0V | 00:00:00 | 00:00:00 | 00:00:00 | |
| 9A1FER-3 | 2026-09-04 12:20:19 | 45.82841 | 14.84519 | 146° | 62km/h | 14608m | 3.8m/s | 0°C | 0% | 0hPa | 0V | 00:00:00 | 00:00:00 | 00:00:00 | |
| 9A1FER-10 | 2026-09-04 12:20:12 | 45.82938 | 14.84424 | 145° | 58km/h | 14572m | 3.7m/s | 0°C | 0% | 0hPa | 0V | 00:00:00 | 00:00:00 | 00:00:00 | |
| 9A1FER-15 | 2026-09-04 12:20:06 | 45.83006 | 14.84345 | 145° | 58km/h | 14543m | 5.9m/s | 0°C | 0% | 0hPa | 0V | 00:00:00 | 00:00:00 | 00:00:00 | |
| 9A1FER-3 | 2026-09-04 12:20:04 | 45.83032 | 14.84319 | 145° | 60km/h | 14533m | 6.1m/s | 0°C | 0% | 0hPa | 0V | 00:00:00 | 00:00:00 | 00:00:00 | |
| 9A1FER-10 | 2026-09-04 12:19:57 | 45.83114 | 14.84231 | 151° | 60km/h | 14500m | 3.8m/s | 0°C | 0% | 0hPa | 0V | 00:00:00 | 00:00:00 | 00:00:00 | |
| 9A1FER-15 | 2026-09-04 12:19:51 | 45.83185 | 14.84156 | 142° | 60km/h | 14467m | 9.1m/s | 0°C | 0% | 0hPa | 0V | 00:00:00 | 00:00:00 | 00:00:00 | |
| 9A1FER-3 | 2026-09-04 12:19:49 | 45.83209 | 14.84127 | 140° | 62km/h | 14456m | 5.0m/s | 0°C | 0% | 0hPa | 0V | 00:00:00 | 00:00:00 | 00:00:00 | |
| 9A1FER-10 | 2026-09-04 12:19:42 | 45.83291 | 14.84023 | 139° | 60km/h | 14422m | 6.3m/s | 0°C | 0% | 0hPa | 0V | 00:00:00 | 00:00:00 | 00:00:00 | |
| 9A1FER-15 | 2026-09-04 12:19:36 | 45.83363 | 14.83936 | 138° | 60km/h | 14391m | 6.0m/s | 0°C | 0% | 0hPa | 0V | 00:00:00 | 00:00:00 | 00:00:00 | |
| 9A1FER-3 | 2026-09-04 12:19:33 | 45.83398 | 14.83899 | 148° | 62km/h | 14378m | 4.3m/s | 0°C | 0% | 0hPa | 0V | 00:00:00 | 00:00:00 | 00:00:00 | |
| 9A1FER-10 | 2026-09-04 12:19:27 | 45.83472 | 14.83818 | 143° | 64km/h | 14350m | 4.8m/s | 0°C | 0% | 0hPa | 0V | 00:00:00 | 00:00:00 | 00:00:00 | |
| 9A1FER-15 | 2026-09-04 12:19:21 | 45.83549 | 14.83743 | 147° | 66km/h | 14323m | 5.6m/s | 0°C | 0% | 0hPa | 0V | 00:00:00 | 00:00:00 | 00:00:00 | |
| 9A1FER-3 | 2026-09-04 12:19:17 | 45.83602 | 14.83686 | 144° | 64km/h | 14304m | 5.1m/s | 0°C | 0% | 0hPa | 0V | 00:00:00 | 00:00:00 | 00:00:00 | |
| 9A1FER-10 | 2026-09-04 12:19:12 | 45.83669 | 14.83612 | 144° | 60km/h | 14281m | 4.2m/s | 0°C | 0% | 0hPa | 0V | 00:00:00 | 00:00:00 | 00:00:00 | |
| 9A1FER-15 | 2026-09-04 12:19:06 | 45.83743 | 14.83525 | 140° | 55km/h | 14253m | 6.5m/s | 0°C | 0% | 0hPa | 0V | 00:00:00 | 00:00:00 | 00:00:00 | |
| 9A1FER-3 | 2026-09-04 12:19:02 | 45.83788 | 14.83466 | 136° | 55km/h | 14236m | 5.1m/s | 0°C | 0% | 0hPa | 0V | 00:00:00 | 00:00:00 | 00:00:00 | |
| 9A1FER-10 | 2026-09-04 12:18:56 | 45.83857 | 14.83393 | 153° | 57km/h | 14209m | 4.6m/s | 0°C | 0% | 0hPa | 0V | 00:00:00 | 00:00:00 | 00:00:00 | |
| 9A1FER-15 | 2026-09-04 12:18:51 | 45.83912 | 14.83343 | 144° | 58km/h | 14185m | 6.2m/s | 0°C | 0% | 0hPa | 0V | 00:00:00 | 00:00:00 | 00:00:00 | |
| 9A1FER-3 | 2026-09-04 12:18:47 | 45.83959 | 14.83296 | 145° | 60km/h | 14168m | 5.5m/s | 0°C | 0% | 0hPa | 0V | 00:00:00 | 00:00:00 | 00:00:00 | |
| 9A1FER-10 | 2026-09-04 12:18:41 | 45.84034 | 14.83224 | 152° | 60km/h | 14141m | 5.0m/s | 0°C | 0% | 0hPa | 0V | 00:00:00 | 00:00:00 | 00:00:00 | |
| 9A1FER-15 | 2026-09-04 12:18:36 | 45.84100 | 14.83171 | 151° | 62km/h | 14117m | 3.8m/s | 0°C | 0% | 0hPa | 0V | 00:00:00 | 00:00:00 | 00:00:00 | |
| 9A1FER-3 | 2026-09-04 12:18:32 | 45.84151 | 14.83124 | 146° | 64km/h | 14100m | 3.2m/s | 0°C | 0% | 0hPa | 0V | 00:00:00 | 00:00:00 | 00:00:00 | |
| 9A1FER-10 | 2026-09-04 12:18:26 | 45.84239 | 14.83070 | 163° | 69km/h | 14072m | 5.6m/s | 0°C | 0% | 0hPa | 0V | 00:00:00 | 00:00:00 | 00:00:00 | |
| 9A1FER-15 | 2026-09-04 12:18:21 | 45.84313 | 14.83027 | 157° | 71km/h | 14049m | 4.4m/s | 0°C | 0% | 0hPa | 0V | 00:00:00 | 00:00:00 | 00:00:00 | |
| 9A1FER-10 | 2026-09-04 12:18:11 | 45.84482 | 14.82930 | 161° | 77km/h | 14003m | 4.5m/s | 0°C | 0% | 0hPa | 0V | 00:00:00 | 00:00:00 | 00:00:00 | |
| 9A1FER-15 | 2026-09-04 12:18:06 | 45.84565 | 14.82879 | 152° | 80km/h | 13978m | 3.2m/s | 0°C | 0% | 0hPa | 0V | 00:00:00 | 00:00:00 | 00:00:00 | |
| 9A1FER-3 | 2026-09-04 12:18:02 | 45.84639 | 14.82823 | 154° | 82km/h | 13955m | 7.3m/s | 0°C | 0% | 0hPa | 0V | 00:00:00 | 00:00:00 | 00:00:00 | |
| 9A1FER-10 | 2026-09-04 12:17:56 | 45.84745 | 14.82746 | 149° | 78km/h | 13928m | 3.8m/s | 0°C | 0% | 0hPa | 0V | 00:00:00 | 00:00:00 | 00:00:00 | |
| 9A1FER-15 | 2026-09-04 12:17:48 | 45.84887 | 14.82630 | 150° | 78km/h | 13889m | 3.7m/s | 0°C | 0% | 0hPa | 0V | 00:00:00 | 00:00:00 | 00:00:00 | |
| 9A1FER-3 | 2026-09-04 12:17:47 | 45.84905 | 14.82614 | 149° | 78km/h | 13884m | 5.6m/s | 0°C | 0% | 0hPa | 0V | 00:00:00 | 00:00:00 | 00:00:00 | |
| 9A1FER-10 | 2026-09-04 12:17:41 | 45.85005 | 14.82531 | 154° | 78km/h | 13855m | 4.8m/s | 0°C | 0% | 0hPa | 0V | 00:00:00 | 00:00:00 | 00:00:00 | |
| 9A1FER-15 | 2026-09-04 12:17:33 | 45.85144 | 14.82417 | 147° | 78km/h | 13815m | 5.3m/s | 0°C | 0% | 0hPa | 0V | 00:00:00 | 00:00:00 | 00:00:00 | |
| 9A1FER-3 | 2026-09-04 12:17:32 | 45.85160 | 14.82403 | 148° | 78km/h | 13810m | 3.4m/s | 0°C | 0% | 0hPa | 0V | 00:00:00 | 00:00:00 | 00:00:00 | |
| 9A1FER-10 | 2026-09-04 12:17:25 | 45.85279 | 14.82292 | 147° | 77km/h | 13773m | 7.2m/s | 0°C | 0% | 0hPa | 0V | 00:00:00 | 00:00:00 | 00:00:00 | |
| 9A1FER-15 | 2026-09-04 12:17:18 | 45.85386 | 14.82175 | 143° | 75km/h | 13739m | 7.5m/s | 0°C | 0% | 0hPa | 0V | 00:00:00 | 00:00:00 | 00:00:00 | |
| 9A1FER-3 | 2026-09-04 12:17:17 | 45.85401 | 14.82158 | 143° | 77km/h | 13734m | 3.7m/s | 0°C | 0% | 0hPa | 0V | 00:00:00 | 00:00:00 | 00:00:00 | |
| 9A1FER-10 | 2026-09-04 12:17:10 | 45.85508 | 14.82031 | 139° | 71km/h | 13695m | 4.7m/s | 0°C | 0% | 0hPa | 0V | 00:00:00 | 00:00:00 | 00:00:00 | |
| 9A1FER-15 | 2026-09-04 12:17:03 | 45.85602 | 14.81911 | 137° | 68km/h | 13661m | 5.4m/s | 0°C | 0% | 0hPa | 0V | 00:00:00 | 00:00:00 | 00:00:00 | |
| 9A1FER-3 | 2026-09-04 12:17:02 | 45.85615 | 14.81894 | 140° | 68km/h | 13657m | 2.5m/s | 0°C | 0% | 0hPa | 0V | 00:00:00 | 00:00:00 | 00:00:00 | |
| 9A1FER-10 | 2026-09-04 12:16:55 | 45.85714 | 14.81787 | 135° | 68km/h | 13624m | 4.9m/s | 0°C | 0% | 0hPa | 0V | 00:00:00 | 00:00:00 | 00:00:00 | |
| 9A1FER-15 | 2026-09-04 12:16:48 | 45.85798 | 14.81676 | 147° | 66km/h | 13594m | 4.3m/s | 0°C | 0% | 0hPa | 0V | 00:00:00 | 00:00:00 | 00:00:00 | |
| 9A1FER-3 | 2026-09-04 12:16:47 | 45.85810 | 14.81664 | 146° | 64km/h | 13590m | 3.4m/s | 0°C | 0% | 0hPa | 0V | 00:00:00 | 00:00:00 | 00:00:00 | |
| 9A1FER-10 | 2026-09-04 12:16:40 | 45.85895 | 14.81541 | 139° | 62km/h | 13558m | 2.8m/s | 0°C | 0% | 0hPa | 0V | 00:00:00 | 00:00:00 | 00:00:00 | |
| 9A1FER-15 | 2026-09-04 12:16:33 | 45.85983 | 14.81448 | 143° | 58km/h | 13522m | 8.5m/s | 0°C | 0% | 0hPa | 0V | 00:00:00 | 00:00:00 | 00:00:00 | |
| 9A1FER-3 | 2026-09-04 12:16:32 | 45.85996 | 14.81432 | 136° | 58km/h | 13516m | 3.9m/s | 0°C | 0% | 0hPa | 0V | 00:00:00 | 00:00:00 | 00:00:00 | |
| 9A1FER-10 | 2026-09-04 12:16:25 | 45.86070 | 14.81329 | 150° | 49km/h | 13481m | 7.6m/s | 0°C | 0% | 0hPa | 0V | 00:00:00 | 00:00:00 | 00:00:00 | |
| 9A1FER-15 | 2026-09-04 12:16:18 | 45.86151 | 14.81254 | 127° | 46km/h | 13441m | 6.6m/s | 0°C | 0% | 0hPa | 0V | 00:00:00 | 00:00:00 | 00:00:00 | |
| 9A1FER-3 | 2026-09-04 12:16:17 | 45.86158 | 14.81239 | 124° | 46km/h | 13436m | 3.0m/s | 0°C | 0% | 0hPa | 0V | 00:00:00 | 00:00:00 | 00:00:00 | |
| 9A1FER-10 | 2026-09-04 12:16:10 | 45.86225 | 14.81176 | 150° | 44km/h | 13395m | 5.8m/s | 0°C | 0% | 0hPa | 0V | 00:00:00 | 00:00:00 | 00:00:00 | |
| 9A1FER-15 | 2026-09-04 12:16:03 | 45.86291 | 14.81113 | 157° | 44km/h | 13361m | 4.0m/s | 0°C | 0% | 0hPa | 0V | 00:00:00 | 00:00:00 | 00:00:00 | |
| 9A1FER-3 | 2026-09-04 12:16:02 | 45.86302 | 14.81107 | 158° | 44km/h | 13356m | 6.5m/s | 0°C | 0% | 0hPa | 0V | 00:00:00 | 00:00:00 | 00:00:00 | |
| 9A1FER-10 | 2026-09-04 12:15:55 | 45.86371 | 14.81060 | 149° | 44km/h | 13321m | 2.6m/s | 0°C | 0% | 0hPa | 0V | 00:00:00 | 00:00:00 | 00:00:00 | |
| 9A1FER-15 | 2026-09-04 12:15:47 | 45.86455 | 14.81015 | 164° | 46km/h | 13280m | 7.1m/s | 0°C | 0% | 0hPa | 0V | 00:00:00 | 00:00:00 | 00:00:00 | |
| 9A1FER-10 | 2026-09-04 12:15:40 | 45.86528 | 14.80988 | 169° | 49km/h | 13244m | 8.0m/s | 0°C | 0% | 0hPa | 0V | 00:00:00 | 00:00:00 | 00:00:00 | |
| 9A1FER-15 | 2026-09-04 12:15:32 | 45.86627 | 14.80959 | 179° | 47km/h | 13200m | 3.7m/s | 0°C | 0% | 0hPa | 0V | 00:00:00 | 00:00:00 | 00:00:00 | |
| OE3JTB-15 | 2026-09-04 12:15:26 | 45.86698 | 14.80949 | 174° | 47km/h | 13169m | 6.1m/s | 0°C | 0% | 0hPa | 0V | 00:00:00 | 00:00:00 | 00:00:00 | |
| 9A1FER-10 | 2026-09-04 12:15:25 | 45.86710 | 14.80947 | 172° | 47km/h | 13164m | 4.4m/s | 0°C | 0% | 0hPa | 0V | 00:00:00 | 00:00:00 | 00:00:00 | |
| 9A1FER-15 | 2026-09-04 12:15:17 | 45.86803 | 14.80914 | 171° | 47km/h | 13120m | 7.2m/s | 0°C | 0% | 0hPa | 0V | 00:00:00 | 00:00:00 | 00:00:00 | |
| 9A1FER-10 | 2026-09-04 12:15:10 | 45.86886 | 14.80889 | 169° | 49km/h | 13086m | 5.3m/s | 0°C | 0% | 0hPa | 0V | 00:00:00 | 00:00:00 | 00:00:00 | |
| OE3JTB-15 | 2026-09-04 12:14:57 | 45.87037 | 14.80817 | 158° | 49km/h | 13019m | 4.4m/s | 0°C | 0% | 0hPa | 0V | 00:00:00 | 00:00:00 | 00:00:00 | |
| 9A1FER-10 | 2026-09-04 12:14:55 | 45.87062 | 14.80803 | 159° | 51km/h | 13009m | 4.0m/s | 0°C | 0% | 0hPa | 0V | 00:00:00 | 00:00:00 | 00:00:00 | |
| 9A1FER-3 | 2026-09-04 12:14:47 | 45.87153 | 14.80744 | 156° | 51km/h | 12970m | 3.8m/s | 0°C | 0% | 0hPa | 0V | 00:00:00 | 00:00:00 | 00:00:00 | |
| 9A1FER-10 | 2026-09-04 12:14:40 | 45.87235 | 14.80686 | 150° | 49km/h | 12937m | 4.2m/s | 0°C | 0% | 0hPa | 0V | 00:00:00 | 00:00:00 | 00:00:00 | |
| 9A1FER-15 | 2026-09-04 12:14:32 | 45.87323 | 14.80625 | 154° | 49km/h | 12898m | 5.1m/s | 0°C | 0% | 0hPa | 0V | 00:00:00 | 00:00:00 | 00:00:00 | |
| OE3JTB-15 | 2026-09-04 12:14:27 | 45.87379 | 14.80590 | 156° | 51km/h | 12876m | 4.7m/s | 0°C | 0% | 0hPa | 0V | 00:00:00 | 00:00:00 | 00:00:00 | |
| 9A1FER-10 | 2026-09-04 12:14:25 | 45.87403 | 14.80573 | 151° | 49km/h | 12866m | 3.2m/s | 0°C | 0% | 0hPa | 0V | 00:00:00 | 00:00:00 | 00:00:00 | |
| 9A1FER-15 | 2026-09-04 12:14:17 | 45.87491 | 14.80503 | 150° | 49km/h | 12829m | 4.2m/s | 0°C | 0% | 0hPa | 0V | 00:00:00 | 00:00:00 | 00:00:00 | |
| 9A1FER-3 | 2026-09-04 12:14:16 | 45.87502 | 14.80494 | 150° | 49km/h | 12825m | 4.2m/s | 0°C | 0% | 0hPa | 0V | 00:00:00 | 00:00:00 | 00:00:00 | |
| 9A1FER-10 | 2026-09-04 12:14:10 | 45.87568 | 14.80440 | 153° | 51km/h | 12797m | 6.1m/s | 0°C | 0% | 0hPa | 0V | 00:00:00 | 00:00:00 | 00:00:00 | |
| 9A1FER-15 | 2026-09-04 12:14:02 | 45.87657 | 14.80373 | 147° | 53km/h | 12758m | 5.4m/s | 0°C | 0% | 0hPa | 0V | 00:00:00 | 00:00:00 | 00:00:00 | |
| 9A1FER-3 | 2026-09-04 12:14:01 | 45.87668 | 14.80361 | 145° | 53km/h | 12754m | 3.1m/s | 0°C | 0% | 0hPa | 0V | 00:00:00 | 00:00:00 | 00:00:00 | |
| OE3JTB-15 | 2026-09-04 12:13:58 | 45.87702 | 14.80333 | 155° | 51km/h | 12742m | 6.0m/s | 0°C | 0% | 0hPa | 0V | 00:00:00 | 00:00:00 | 00:00:00 | |
| 9A1FER-10 | 2026-09-04 12:13:55 | 45.87738 | 14.80310 | 154° | 53km/h | 12728m | 5.5m/s | 0°C | 0% | 0hPa | 0V | 00:00:00 | 00:00:00 | 00:00:00 | |
| 9A1FER-3 | 2026-09-04 12:13:46 | 45.87840 | 14.80217 | 149° | 49km/h | 12686m | 6.7m/s | 0°C | 0% | 0hPa | 0V | 00:00:00 | 00:00:00 | 00:00:00 | |
| 9A1FER-10 | 2026-09-04 12:13:40 | 45.87905 | 14.80156 | 143° | 49km/h | 12657m | 5.6m/s | 0°C | 0% | 0hPa | 0V | 00:00:00 | 00:00:00 | 00:00:00 | |
| 9A1FER-15 | 2026-09-04 12:13:31 | 45.87997 | 14.80069 | 143° | 46km/h | 12615m | 4.1m/s | 0°C | 0% | 0hPa | 0V | 00:00:00 | 00:00:00 | 00:00:00 | |
| OE3JTB-15 | 2026-09-04 12:13:29 | 45.88019 | 14.80044 | 141° | 51km/h | 12607m | 5.9m/s | 0°C | 0% | 0hPa | 0V | 00:00:00 | 00:00:00 | 00:00:00 | |
| 9A1FER-10 | 2026-09-04 12:13:25 | 45.88060 | 14.80004 | 154° | 47km/h | 12588m | 6.5m/s | 0°C | 0% | 0hPa | 0V | 00:00:00 | 00:00:00 | 00:00:00 | |
| 9A1FER-15 | 2026-09-04 12:13:16 | 45.88143 | 14.79932 | 152° | 51km/h | 12543m | 4.2m/s | 0°C | 0% | 0hPa | 0V | 00:00:00 | 00:00:00 | 00:00:00 | |
| 9A1FER-10 | 2026-09-04 12:13:10 | 45.88206 | 14.79861 | 139° | 49km/h | 12511m | 4.1m/s | 0°C | 0% | 0hPa | 0V | 00:00:00 | 00:00:00 | 00:00:00 | |
| 9A1FER-3 | 2026-09-04 12:13:01 | 45.88294 | 14.79759 | 136° | 47km/h | 12462m | 6.5m/s | 0°C | 0% | 0hPa | 0V | 00:00:00 | 00:00:00 | 00:00:00 | |
| 9A1FER-15 | 2026-09-04 12:13:00 | 45.88304 | 14.79747 | 141° | 47km/h | 12456m | 4.7m/s | 0°C | 0% | 0hPa | 0V | 00:00:00 | 00:00:00 | 00:00:00 | |
| 9A1FER-10 | 2026-09-04 12:12:55 | 45.88351 | 14.79692 | 145° | 47km/h | 12432m | 3.2m/s | 0°C | 0% | 0hPa | 0V | 00:00:00 | 00:00:00 | 00:00:00 | |
| 9A1FER-3 | 2026-09-04 12:12:46 | 45.88436 | 14.79598 | 149° | 49km/h | 12390m | 3.9m/s | 0°C | 0% | 0hPa | 0V | 00:00:00 | 00:00:00 | 00:00:00 | |
| 9A1FER-10 | 2026-09-04 12:12:40 | 45.88492 | 14.79527 | 132° | 47km/h | 12363m | 4.8m/s | 0°C | 0% | 0hPa | 0V | 00:00:00 | 00:00:00 | 00:00:00 | |
| OE3JTB-15 | 2026-09-04 12:12:31 | 45.88577 | 14.79430 | 140° | 46km/h | 12317m | 5.4m/s | 0°C | 0% | 0hPa | 0V | 00:00:00 | 00:00:00 | 00:00:00 | |
| 9A1FER-15 | 2026-09-04 12:12:30 | 45.88585 | 14.79420 | 139° | 49km/h | 12312m | 3.9m/s | 0°C | 0% | 0hPa | 0V | 00:00:00 | 00:00:00 | 00:00:00 | |
| 9A1FER-10 | 2026-09-04 12:12:25 | 45.88636 | 14.79365 | 144° | 49km/h | 12290m | 5.5m/s | 0°C | 0% | 0hPa | 0V | 00:00:00 | 00:00:00 | 00:00:00 | |
| 9A1FER-3 | 2026-09-04 12:12:16 | 45.88721 | 14.79259 | 135° | 49km/h | 12244m | 5.0m/s | 0°C | 0% | 0hPa | 0V | 00:00:00 | 00:00:00 | 00:00:00 | |
| 9A1FER-15 | 2026-09-04 12:12:15 | 45.88729 | 14.79247 | 135° | 49km/h | 12240m | 3.9m/s | 0°C | 0% | 0hPa | 0V | 00:00:00 | 00:00:00 | 00:00:00 | |
| 9A1FER-3 | 2026-09-04 12:12:01 | 45.88858 | 14.79077 | 137° | 47km/h | 12175m | 7.1m/s | 0°C | 0% | 0hPa | 0V | 00:00:00 | 00:00:00 | 00:00:00 | |
| 9A1FER-15 | 2026-09-04 12:12:00 | 45.88867 | 14.79065 | 139° | 47km/h | 12170m | 4.1m/s | 0°C | 0% | 0hPa | 0V | 00:00:00 | 00:00:00 | 00:00:00 | |
| 9A1FER-10 | 2026-09-04 12:11:55 | 45.88916 | 14.79002 | 133° | 46km/h | 12145m | 4.1m/s | 0°C | 0% | 0hPa | 0V | 00:00:00 | 00:00:00 | 00:00:00 | |
| 9A1FER-3 | 2026-09-04 12:11:46 | 45.88990 | 14.78896 | 139° | 46km/h | 12109m | 3.9m/s | 0°C | 0% | 0hPa | 0V | 00:00:00 | 00:00:00 | 00:00:00 | |
| 9A1FER-15 | 2026-09-04 12:11:45 | 45.88998 | 14.78886 | 138° | 46km/h | 12105m | 5.6m/s | 0°C | 0% | 0hPa | 0V | 00:00:00 | 00:00:00 | 00:00:00 | |
| 9A1FER-10 | 2026-09-04 12:11:40 | 45.89037 | 14.78823 | 133° | 46km/h | 12080m | 5.4m/s | 0°C | 0% | 0hPa | 0V | 00:00:00 | 00:00:00 | 00:00:00 | |
| 9A1FER-3 | 2026-09-04 12:11:31 | 45.89114 | 14.78719 | 140° | 42km/h | 12037m | 5.3m/s | 0°C | 0% | 0hPa | 0V | 00:00:00 | 00:00:00 | 00:00:00 | |
| 9A1FER-15 | 2026-09-04 12:11:30 | 45.89122 | 14.78710 | 140° | 42km/h | 12033m | 4.5m/s | 0°C | 0% | 0hPa | 0V | 00:00:00 | 00:00:00 | 00:00:00 | |
| 9A1FER-10 | 2026-09-04 12:11:25 | 45.89161 | 14.78658 | 136° | 44km/h | 12007m | 4.5m/s | 0°C | 0% | 0hPa | 0V | 00:00:00 | 00:00:00 | 00:00:00 | |
| OE3JTB-15 | 2026-09-04 12:11:23 | 45.89177 | 14.78633 | 133° | 40km/h | 11997m | 3.8m/s | 0°C | 0% | 0hPa | 0V | 00:00:00 | 00:00:00 | 00:00:00 | |
| 9A1FER-3 | 2026-09-04 12:11:16 | 45.89229 | 14.78561 | 128° | 42km/h | 11966m | 7.0m/s | 0°C | 0% | 0hPa | 0V | 00:00:00 | 00:00:00 | 00:00:00 | |
| 9A1FER-15 | 2026-09-04 12:11:15 | 45.89237 | 14.78547 | 127° | 42km/h | 11961m | 2.4m/s | 0°C | 0% | 0hPa | 0V | 00:00:00 | 00:00:00 | 00:00:00 | |
| 9A1FER-10 | 2026-09-04 12:11:10 | 45.89276 | 14.78487 | 144° | 40km/h | 11937m | 7.1m/s | 0°C | 0% | 0hPa | 0V | 00:00:00 | 00:00:00 | 00:00:00 | |
| 9A1FER-3 | 2026-09-04 12:11:01 | 45.89338 | 14.78417 | 145° | 42km/h | 11890m | 4.0m/s | 0°C | 0% | 0hPa | 0V | 00:00:00 | 00:00:00 | 00:00:00 | |
| 9A1FER-15 | 2026-09-04 12:11:00 | 45.89347 | 14.78391 | 149° | 42km/h | 11885m | 6.2m/s | 0°C | 0% | 0hPa | 0V | 00:00:00 | 00:00:00 | 00:00:00 | |
| 9A1FER-10 | 2026-09-04 12:10:55 | 45.89388 | 14.78340 | 126° | 42km/h | 11860m | 6.8m/s | 0°C | 0% | 0hPa | 0V | 00:00:00 | 00:00:00 | 00:00:00 | |
| OE3JTB-15 | 2026-09-04 12:10:54 | 45.89404 | 14.78303 | 132° | 53km/h | 11845m | 5.9m/s | 0°C | 0% | 0hPa | 0V | 00:00:00 | 00:00:00 | 00:00:00 | |
| 9A1FER-3 | 2026-09-04 12:10:46 | 45.89454 | 14.78244 | 141° | 40km/h | 11813m | 6.1m/s | 0°C | 0% | 0hPa | 0V | 00:00:00 | 00:00:00 | 00:00:00 | |
| 9A1FER-15 | 2026-09-04 12:10:44 | 45.89469 | 14.78223 | 133° | 40km/h | 11803m | 4.7m/s | 0°C | 0% | 0hPa | 0V | 00:00:00 | 00:00:00 | 00:00:00 | |
| 9A1FER-10 | 2026-09-04 12:10:40 | 45.89497 | 14.78182 | 135° | 42km/h | 11781m | 6.0m/s | 0°C | 0% | 0hPa | 0V | 00:00:00 | 00:00:00 | 00:00:00 | |
| 9A1FER-3 | 2026-09-04 12:10:31 | 45.89566 | 14.78092 | 143° | 46km/h | 11730m | 6.2m/s | 0°C | 0% | 0hPa | 0V | 00:00:00 | 00:00:00 | 00:00:00 | |
| 9A1FER-15 | 2026-09-04 12:10:29 | 45.89582 | 14.78072 | 140° | 46km/h | 11718m | 3.7m/s | 0°C | 0% | 0hPa | 0V | 00:00:00 | 00:00:00 | 00:00:00 | |
| 9A1FER-10 | 2026-09-04 12:10:24 | 45.89623 | 14.78015 | 138° | 46km/h | 11691m | 4.9m/s | 0°C | 0% | 0hPa | 0V | 00:00:00 | 00:00:00 | 00:00:00 | |
| 9A1FER-3 | 2026-09-04 12:10:16 | 45.89698 | 14.77938 | 138° | 46km/h | 11645m | 7.6m/s | 0°C | 0% | 0hPa | 0V | 00:00:00 | 00:00:00 | 00:00:00 | |
| 9A1FER-15 | 2026-09-04 12:10:14 | 45.89714 | 14.77919 | 146° | 47km/h | 11634m | 3.9m/s | 0°C | 0% | 0hPa | 0V | 00:00:00 | 00:00:00 | 00:00:00 | |
| 9A1FER-10 | 2026-09-04 12:10:09 | 45.89766 | 14.77870 | 141° | 49km/h | 11607m | 4.4m/s | 0°C | 0% | 0hPa | 0V | 00:00:00 | 00:00:00 | 00:00:00 | |
| 9A1FER-3 | 2026-09-04 12:10:01 | 45.89840 | 14.77793 | 150° | 51km/h | 11560m | 6.4m/s | 0°C | 0% | 0hPa | 0V | 00:00:00 | 00:00:00 | 00:00:00 | |
| 9A1FER-15 | 2026-09-04 12:09:59 | 45.89864 | 14.77772 | 147° | 51km/h | 11549m | 5.6m/s | 0°C | 0% | 0hPa | 0V | 00:00:00 | 00:00:00 | 00:00:00 | |
| 9A1FER-10 | 2026-09-04 12:09:54 | 45.89915 | 14.77708 | 145° | 49km/h | 11523m | 6.4m/s | 0°C | 0% | 0hPa | 0V | 00:00:00 | 00:00:00 | 00:00:00 | |
| 9A1FER-3 | 2026-09-04 12:09:46 | 45.89997 | 14.77635 | 138° | 51km/h | 11478m | 7.3m/s | 0°C | 0% | 0hPa | 0V | 00:00:00 | 00:00:00 | 00:00:00 | |
| 9A1FER-15 | 2026-09-04 12:09:44 | 45.90018 | 14.77606 | 136° | 49km/h | 11466m | 5.1m/s | 0°C | 0% | 0hPa | 0V | 00:00:00 | 00:00:00 | 00:00:00 | |
| 9A1FER-10 | 2026-09-04 12:09:39 | 45.90059 | 14.77551 | 142° | 51km/h | 11439m | 4.3m/s | 0°C | 0% | 0hPa | 0V | 00:00:00 | 00:00:00 | 00:00:00 | |
| 9A1FER-3 | 2026-09-04 12:09:31 | 45.90140 | 14.77453 | 147° | 49km/h | 11401m | 4.3m/s | 0°C | 0% | 0hPa | 0V | 00:00:00 | 00:00:00 | 00:00:00 | |
| 9A1FER-15 | 2026-09-04 12:09:29 | 45.90160 | 14.77434 | 145° | 51km/h | 11391m | 4.8m/s | 0°C | 0% | 0hPa | 0V | 00:00:00 | 00:00:00 | 00:00:00 | |
| 9A1FER-10 | 2026-09-04 12:09:24 | 45.90204 | 14.77370 | 132° | 51km/h | 11367m | 5.3m/s | 0°C | 0% | 0hPa | 0V | 00:00:00 | 00:00:00 | 00:00:00 | |
| 9A1FER-3 | 2026-09-04 12:09:16 | 45.90284 | 14.77282 | 139° | 57km/h | 11326m | 7.8m/s | 0°C | 0% | 0hPa | 0V | 00:00:00 | 00:00:00 | 00:00:00 | |
| 9A1FER-15 | 2026-09-04 12:09:13 | 45.90311 | 14.77235 | 125° | 57km/h | 11310m | 6.5m/s | 0°C | 0% | 0hPa | 0V | 00:00:00 | 00:00:00 | 00:00:00 | |
| 9A1FER-10 | 2026-09-04 12:09:09 | 45.90350 | 14.77181 | 143° | 58km/h | 11287m | 6.4m/s | 0°C | 0% | 0hPa | 0V | 00:00:00 | 00:00:00 | 00:00:00 | |
| 9A1FER-15 | 2026-09-04 12:08:58 | 45.90472 | 14.77030 | 137° | 58km/h | 11219m | 8.9m/s | 0°C | 0% | 0hPa | 0V | 00:00:00 | 00:00:00 | 00:00:00 | |
| 9A1FER-10 | 2026-09-04 12:08:54 | 45.90518 | 14.76971 | 136° | 58km/h | 11196m | 4.1m/s | 0°C | 0% | 0hPa | 0V | 00:00:00 | 00:00:00 | 00:00:00 | |
| 9A1FER-3 | 2026-09-04 12:08:46 | 45.90605 | 14.76868 | 140° | 58km/h | 11153m | 3.6m/s | 0°C | 0% | 0hPa | 0V | 00:00:00 | 00:00:00 | 00:00:00 | |
| 9A1FER-15 | 2026-09-04 12:08:43 | 45.90638 | 14.76824 | 138° | 58km/h | 11138m | 5.8m/s | 0°C | 0% | 0hPa | 0V | 00:00:00 | 00:00:00 | 00:00:00 | |
| 9A1FER-10 | 2026-09-04 12:08:39 | 45.90682 | 14.76766 | 144° | 57km/h | 11115m | 4.2m/s | 0°C | 0% | 0hPa | 0V | 00:00:00 | 00:00:00 | 00:00:00 | |
| 9A1FER-3 | 2026-09-04 12:08:31 | 45.90771 | 14.76653 | 132° | 55km/h | 11072m | 4.6m/s | 0°C | 0% | 0hPa | 0V | 00:00:00 | 00:00:00 | 00:00:00 | |
| 9A1FER-15 | 2026-09-04 12:08:27 | 45.90811 | 14.76599 | 143° | 55km/h | 11054m | 6.2m/s | 0°C | 0% | 0hPa | 0V | 00:00:00 | 00:00:00 | 00:00:00 | |
| 9A1FER-3 | 2026-09-04 12:08:16 | 45.90924 | 14.76450 | 136° | 58km/h | 10999m | 4.7m/s | 0°C | 0% | 0hPa | 0V | 00:00:00 | 00:00:00 | 00:00:00 | |
| 9A1FER-15 | 2026-09-04 12:08:12 | 45.90965 | 14.76390 | 137° | 58km/h | 10979m | 3.7m/s | 0°C | 0% | 0hPa | 0V | 00:00:00 | 00:00:00 | 00:00:00 | |
| 9A1FER-10 | 2026-09-04 12:08:11 | 45.90977 | 14.76374 | 139° | 57km/h | 10974m | 6.1m/s | 0°C | 0% | 0hPa | 0V | 00:00:00 | 00:00:00 | 00:00:00 | |
| OM5KV | 2026-09-04 12:08:09 | 45.91010 | 14.76334 | 142° | 55km/h | 10958m | 8.1m/s | 0°C | 0% | 0hPa | 0V | 00:00:00 | 00:00:00 | 00:00:00 | |
| 9A1FER-3 | 2026-09-04 12:08:01 | 45.91085 | 14.76231 | 138° | 58km/h | 10920m | 3.8m/s | 0°C | 0% | 0hPa | 0V | 00:00:00 | 00:00:00 | 00:00:00 | |
| 9A1FER-15 | 2026-09-04 12:07:57 | 45.91127 | 14.76178 | 134° | 58km/h | 10900m | 5.3m/s | 0°C | 0% | 0hPa | 0V | 00:00:00 | 00:00:00 | 00:00:00 | |
| 9A1FER-3 | 2026-09-04 12:07:47 | 45.91247 | 14.76023 | 141° | 57km/h | 10846m | 3.8m/s | 0°C | 0% | 0hPa | 0V | 00:00:00 | 00:00:00 | 00:00:00 | |
| 9A1FER-15 | 2026-09-04 12:07:42 | 45.91289 | 14.75969 | 139° | 55km/h | 10826m | 3.6m/s | 0°C | 0% | 0hPa | 0V | 00:00:00 | 00:00:00 | 00:00:00 | |
| 9A1FER-3 | 2026-09-04 12:07:31 | 45.91406 | 14.75819 | 137° | 53km/h | 10775m | 5.3m/s | 0°C | 0% | 0hPa | 0V | 00:00:00 | 00:00:00 | 00:00:00 | |
| 9A1FER-15 | 2026-09-04 12:07:27 | 45.91446 | 14.75767 | 140° | 53km/h | 10755m | 5.0m/s | 0°C | 0% | 0hPa | 0V | 00:00:00 | 00:00:00 | 00:00:00 | |
| 9A1FER-3 | 2026-09-04 12:07:16 | 45.91554 | 14.75624 | 139° | 51km/h | 10705m | 5.2m/s | 0°C | 0% | 0hPa | 0V | 00:00:00 | 00:00:00 | 00:00:00 | |
| 9A1FER-15 | 2026-09-04 12:07:12 | 45.91593 | 14.75575 | 133° | 51km/h | 10688m | 3.4m/s | 0°C | 0% | 0hPa | 0V | 00:00:00 | 00:00:00 | 00:00:00 | |
| 9A1FER-3 | 2026-09-04 12:07:01 | 45.91692 | 14.75433 | 132° | 51km/h | 10639m | 4.4m/s | 0°C | 0% | 0hPa | 0V | 00:00:00 | 00:00:00 | 00:00:00 | |
| 9A1FER-15 | 2026-09-04 12:06:57 | 45.91729 | 14.75381 | 135° | 53km/h | 10621m | 4.9m/s | 0°C | 0% | 0hPa | 0V | 00:00:00 | 00:00:00 | 00:00:00 | |
| OM5KV | 2026-09-04 12:06:50 | 45.91791 | 14.75287 | 136° | 47km/h | 10587m | 3.5m/s | 0°C | 0% | 0hPa | 0V | 00:00:00 | 00:00:00 | 00:00:00 | |
| 9A1FER-3 | 2026-09-04 12:06:46 | 45.91828 | 14.75232 | 137° | 49km/h | 10569m | 3.4m/s | 0°C | 0% | 0hPa | 0V | 00:00:00 | 00:00:00 | 00:00:00 | |
| OM5KV | 2026-09-04 12:06:43 | 45.91859 | 14.75188 | 134° | 51km/h | 10555m | 4.7m/s | 0°C | 0% | 0hPa | 0V | 00:00:00 | 00:00:00 | 00:00:00 | |
| 9A1FER-15 | 2026-09-04 12:06:42 | 45.91866 | 14.75175 | 130° | 47km/h | 10550m | 3.9m/s | 0°C | 0% | 0hPa | 0V | 00:00:00 | 00:00:00 | 00:00:00 | |
| OM5KV | 2026-09-04 12:06:36 | 45.91907 | 14.75095 | 129° | 51km/h | 10524m | 6.3m/s | 0°C | 0% | 0hPa | 0V | 00:00:00 | 00:00:00 | 00:00:00 | |
| 9A1FER-3 | 2026-09-04 12:06:29 | 45.91965 | 14.75001 | 126° | 49km/h | 10488m | 4.3m/s | 0°C | 0% | 0hPa | 0V | 00:00:00 | 00:00:00 | 00:00:00 | |
| OM5KV | 2026-09-04 12:06:27 | 45.91980 | 14.74975 | 134° | 51km/h | 10480m | 4.2m/s | 0°C | 0% | 0hPa | 0V | 00:00:00 | 00:00:00 | 00:00:00 | |
| 9A1FER-15 | 2026-09-04 12:06:26 | 45.91988 | 14.74961 | 135° | 51km/h | 10475m | 4.9m/s | 0°C | 0% | 0hPa | 0V | 00:00:00 | 00:00:00 | 00:00:00 | |
| OM5KV | 2026-09-04 12:06:24 | 45.92008 | 14.74929 | 131° | 58km/h | 10464m | 5.7m/s | 0°C | 0% | 0hPa | 0V | 00:00:00 | 00:00:00 | 00:00:00 | |
| OM5KV | 2026-09-04 12:06:20 | 45.92044 | 14.74868 | 131° | 51km/h | 10444m | 4.0m/s | 0°C | 0% | 0hPa | 0V | 00:00:00 | 00:00:00 | 00:00:00 | |
| OM5KV | 2026-09-04 12:06:18 | 45.92059 | 14.74839 | 131° | 47km/h | 10432m | 4.8m/s | 0°C | 0% | 0hPa | 0V | 00:00:00 | 00:00:00 | 00:00:00 | |
| 9A1FER-3 | 2026-09-04 12:06:14 | 45.92091 | 14.74794 | 137° | 51km/h | 10414m | 3.7m/s | 0°C | 0% | 0hPa | 0V | 00:00:00 | 00:00:00 | 00:00:00 | |
| OM5KV | 2026-09-04 12:06:13 | 45.92100 | 14.74782 | 137° | 53km/h | 10410m | 5.2m/s | 0°C | 0% | 0hPa | 0V | 00:00:00 | 00:00:00 | 00:00:00 | |
| 9A1FER-15 | 2026-09-04 12:06:10 | 45.92125 | 14.74737 | 128° | 49km/h | 10394m | 3.0m/s | 0°C | 0% | 0hPa | 0V | 00:00:00 | 00:00:00 | 00:00:00 | |
| OM5KV | 2026-09-04 12:06:08 | 45.92142 | 14.74707 | 132° | 55km/h | 10384m | 5.8m/s | 0°C | 0% | 0hPa | 0V | 00:00:00 | 00:00:00 | 00:00:00 | |
| OM5KV | 2026-09-04 12:06:06 | 45.92159 | 14.74679 | 132° | 51km/h | 10374m | 6.5m/s | 0°C | 0% | 0hPa | 0V | 00:00:00 | 00:00:00 | 00:00:00 | |
| 9A1FER-10 | 2026-09-04 12:06:02 | 45.92192 | 14.74628 | 131° | 53km/h | 10354m | 4.0m/s | 0°C | 0% | 0hPa | 0V | 00:00:00 | 00:00:00 | 00:00:00 | |
| OM5KV | 2026-09-04 12:05:59 | 45.92215 | 14.74584 | 127° | 53km/h | 10340m | 4.9m/s | 0°C | 0% | 0hPa | 0V | 00:00:00 | 00:00:00 | 00:00:00 | |
| 9A1FER-3 | 2026-09-04 12:05:58 | 45.92223 | 14.74568 | 125° | 55km/h | 10334m | 7.3m/s | 0°C | 0% | 0hPa | 0V | 00:00:00 | 00:00:00 | 00:00:00 | |
| OM5KV | 2026-09-04 12:05:57 | 45.92229 | 14.74553 | 123° | 49km/h | 10328m | 4.0m/s | 0°C | 0% | 0hPa | 0V | 00:00:00 | 00:00:00 | 00:00:00 | |
| 9A1FER-15 | 2026-09-04 12:05:55 | 45.92244 | 14.74523 | 130° | 53km/h | 10316m | 4.1m/s | 0°C | 0% | 0hPa | 0V | 00:00:00 | 00:00:00 | 00:00:00 | |
| OM5KV | 2026-09-04 12:05:53 | 45.92261 | 14.74492 | 130° | 57km/h | 10305m | 4.9m/s | 0°C | 0% | 0hPa | 0V | 00:00:00 | 00:00:00 | 00:00:00 | |
| 9A1FER-10 | 2026-09-04 12:05:46 | 45.92318 | 14.74379 | 127° | 53km/h | 10271m | 6.4m/s | 0°C | 0% | 0hPa | 0V | 00:00:00 | 00:00:00 | 00:00:00 | |
| 9A1FER-3 | 2026-09-04 12:05:44 | 45.92342 | 14.74332 | 127° | 53km/h | 10255m | 6.1m/s | 0°C | 0% | 0hPa | 0V | 00:00:00 | 00:00:00 | 00:00:00 | |
| 9A1FER-15 | 2026-09-04 12:05:40 | 45.92363 | 14.74289 | 125° | 53km/h | 10241m | 5.2m/s | 0°C | 0% | 0hPa | 0V | 00:00:00 | 00:00:00 | 00:00:00 | |
| OM5KV | 2026-09-04 12:05:39 | 45.92371 | 14.74274 | 129° | 51km/h | 10236m | 4.7m/s | 0°C | 0% | 0hPa | 0V | 00:00:00 | 00:00:00 | 00:00:00 | |
| OM5KV | 2026-09-04 12:05:34 | 45.92413 | 14.74198 | 130° | 57km/h | 10214m | 4.8m/s | 0°C | 0% | 0hPa | 0V | 00:00:00 | 00:00:00 | 00:00:00 | |
| OM5KV | 2026-09-04 12:05:33 | 45.92421 | 14.74182 | 124° | 55km/h | 10211m | 2.8m/s | 0°C | 0% | 0hPa | 0V | 00:00:00 | 00:00:00 | 00:00:00 | |
| 9A1FER-10 | 2026-09-04 12:05:31 | 45.92437 | 14.74148 | 126° | 53km/h | 10202m | 6.5m/s | 0°C | 0% | 0hPa | 0V | 00:00:00 | 00:00:00 | 00:00:00 | |
| OM5KV | 2026-09-04 12:05:29 | 45.92453 | 14.74117 | 126° | 55km/h | 10193m | 6.1m/s | 0°C | 0% | 0hPa | 0V | 00:00:00 | 00:00:00 | 00:00:00 | |
| 9A1FER-3 | 2026-09-04 12:05:27 | 45.92469 | 14.74084 | 125° | 55km/h | 10184m | 5.5m/s | 0°C | 0% | 0hPa | 0V | 00:00:00 | 00:00:00 | 00:00:00 | |
| 9A1FER-15 | 2026-09-04 12:05:25 | 45.92484 | 14.74053 | 127° | 55km/h | 10175m | 4.8m/s | 0°C | 0% | 0hPa | 0V | 00:00:00 | 00:00:00 | 00:00:00 | |
| OM5KV | 2026-09-04 12:05:17 | 45.92550 | 14.73931 | 123° | 53km/h | 10140m | 4.4m/s | 0°C | 0% | 0hPa | 0V | 00:00:00 | 00:00:00 | 00:00:00 | |
| 9A1FER-10 | 2026-09-04 12:05:16 | 45.92558 | 14.73914 | 125° | 55km/h | 10136m | 3.6m/s | 0°C | 0% | 0hPa | 0V | 00:00:00 | 00:00:00 | 00:00:00 | |
| 9A1FER-3 | 2026-09-04 12:05:12 | 45.92593 | 14.73851 | 132° | 55km/h | 10119m | 4.8m/s | 0°C | 0% | 0hPa | 0V | 00:00:00 | 00:00:00 | 00:00:00 | |
| 9A1FER-15 | 2026-09-04 12:05:10 | 45.92612 | 14.73820 | 131° | 55km/h | 10110m | 3.6m/s | 0°C | 0% | 0hPa | 0V | 00:00:00 | 00:00:00 | 00:00:00 | |
| OM5KV | 2026-09-04 12:05:02 | 45.92677 | 14.73693 | 129° | 53km/h | 10078m | 3.9m/s | 0°C | 0% | 0hPa | 0V | 00:00:00 | 00:00:00 | 00:00:00 | |
| 9A1FER-10 | 2026-09-04 12:05:01 | 45.92685 | 14.73678 | 128° | 58km/h | 10073m | 5.1m/s | 0°C | 0% | 0hPa | 0V | 00:00:00 | 00:00:00 | 00:00:00 | |
| OM5KV | 2026-09-04 12:04:58 | 45.92711 | 14.73630 | 130° | 53km/h | 10061m | 3.2m/s | 0°C | 0% | 0hPa | 0V | 00:00:00 | 00:00:00 | 00:00:00 | |
| 9A1FER-3 | 2026-09-04 12:04:57 | 45.92719 | 14.73615 | 130° | 55km/h | 10057m | 5.4m/s | 0°C | 0% | 0hPa | 0V | 00:00:00 | 00:00:00 | 00:00:00 | |
| 9A1FER-15 | 2026-09-04 12:04:55 | 45.92737 | 14.73583 | 130° | 55km/h | 10047m | 6.2m/s | 0°C | 0% | 0hPa | 0V | 00:00:00 | 00:00:00 | 00:00:00 | |
| OM5KV | 2026-09-04 12:04:52 | 45.92764 | 14.73539 | 130° | 57km/h | 10033m | 4.5m/s | 0°C | 0% | 0hPa | 0V | 00:00:00 | 00:00:00 | 00:00:00 | |
| OM5KV | 2026-09-04 12:04:51 | 45.92774 | 14.73523 | 130° | 57km/h | 10029m | 4.5m/s | 0°C | 0% | 0hPa | 0V | 00:00:00 | 00:00:00 | 00:00:00 | |
| OM5KV | 2026-09-04 12:04:45 | 45.92825 | 14.73428 | 129° | 51km/h | 10005m | 5.2m/s | 0°C | 0% | 0hPa | 0V | 00:00:00 | 00:00:00 | 00:00:00 | |
| OM5KV | 2026-09-04 12:04:44 | 45.92833 | 14.73413 | 131° | 53km/h | 10000m | 4.1m/s | 0°C | 0% | 0hPa | 0V | 00:00:00 | 00:00:00 | 00:00:00 | |
| 9A1FER-3 | 2026-09-04 12:04:42 | 45.92852 | 14.73383 | 132° | 57km/h | 9991m | 4.0m/s | 0°C | 0% | 0hPa | 0V | 00:00:00 | 00:00:00 | 00:00:00 | |
| 9A1FER-15 | 2026-09-04 12:04:40 | 45.92870 | 14.73350 | 127° | 57km/h | 9984m | 2.9m/s | 0°C | 0% | 0hPa | 0V | 00:00:00 | 00:00:00 | 00:00:00 | |
| OM5KV | 2026-09-04 12:04:37 | 45.92897 | 14.73302 | 133° | 57km/h | 9970m | 5.2m/s | 0°C | 0% | 0hPa | 0V | 00:00:00 | 00:00:00 | 00:00:00 | |
| OM5KV | 2026-09-04 12:04:33 | 45.92932 | 14.73241 | 130° | 57km/h | 9951m | 5.5m/s | 0°C | 0% | 0hPa | 0V | 00:00:00 | 00:00:00 | 00:00:00 | |
| OM5KV | 2026-09-04 12:04:32 | 45.92941 | 14.73225 | 131° | 58km/h | 9947m | 3.9m/s | 0°C | 0% | 0hPa | 0V | 00:00:00 | 00:00:00 | 00:00:00 | |
| OM5KV | 2026-09-04 12:04:31 | 45.92950 | 14.73209 | 129° | 55km/h | 9942m | 5.3m/s | 0°C | 0% | 0hPa | 0V | 00:00:00 | 00:00:00 | 00:00:00 | |
| 9A1FER-3 | 2026-09-04 12:04:27 | 45.92989 | 14.73147 | 132° | 57km/h | 9925m | 4.0m/s | 0°C | 0% | 0hPa | 0V | 00:00:00 | 00:00:00 | 00:00:00 | |
| 9A1FER-15 | 2026-09-04 12:04:25 | 45.93007 | 14.73116 | 132° | 57km/h | 9918m | 4.9m/s | 0°C | 0% | 0hPa | 0V | 00:00:00 | 00:00:00 | 00:00:00 | |
| OM5KV | 2026-09-04 12:04:19 | 45.93061 | 14.73020 | 133° | 57km/h | 9894m | 4.3m/s | 0°C | 0% | 0hPa | 0V | 00:00:00 | 00:00:00 | 00:00:00 | |
| OM5KV | 2026-09-04 12:04:17 | 45.93079 | 14.72988 | 130° | 57km/h | 9886m | 4.4m/s | 0°C | 0% | 0hPa | 0V | 00:00:00 | 00:00:00 | 00:00:00 | |
| OM5KV | 2026-09-04 12:04:13 | 45.93114 | 14.72923 | 130° | 57km/h | 9869m | 5.2m/s | 0°C | 0% | 0hPa | 0V | 00:00:00 | 00:00:00 | 00:00:00 | |
| 9A1FER-3 | 2026-09-04 12:04:12 | 45.93124 | 14.72908 | 134° | 57km/h | 9865m | 3.8m/s | 0°C | 0% | 0hPa | 0V | 00:00:00 | 00:00:00 | 00:00:00 | |
| 9A1FER-15 | 2026-09-04 12:04:10 | 45.93143 | 14.72878 | 131° | 57km/h | 9856m | 3.8m/s | 0°C | 0% | 0hPa | 0V | 00:00:00 | 00:00:00 | 00:00:00 | |
| OM5KV | 2026-09-04 12:04:08 | 45.93161 | 14.72848 | 131° | 58km/h | 9848m | 2.9m/s | 0°C | 0% | 0hPa | 0V | 00:00:00 | 00:00:00 | 00:00:00 | |
| OM5KV | 2026-09-04 12:04:07 | 45.93170 | 14.72832 | 129° | 55km/h | 9844m | 4.8m/s | 0°C | 0% | 0hPa | 0V | 00:00:00 | 00:00:00 | 00:00:00 | |
| OM5KV | 2026-09-04 12:04:03 | 45.93208 | 14.72765 | 131° | 62km/h | 9827m | 6.0m/s | 0°C | 0% | 0hPa | 0V | 00:00:00 | 00:00:00 | 00:00:00 | |
| OM5KV | 2026-09-04 12:04:02 | 45.93218 | 14.72748 | 131° | 60km/h | 9822m | 3.8m/s | 0°C | 0% | 0hPa | 0V | 00:00:00 | 00:00:00 | 00:00:00 | |
| 9A1FER-3 | 2026-09-04 12:03:57 | 45.93263 | 14.72668 | 128° | 58km/h | 9801m | 6.2m/s | 0°C | 0% | 0hPa | 0V | 00:00:00 | 00:00:00 | 00:00:00 | |
| OM5KV | 2026-09-04 12:03:56 | 45.93271 | 14.72653 | 130° | 53km/h | 9797m | 2.5m/s | 0°C | 0% | 0hPa | 0V | 00:00:00 | 00:00:00 | 00:00:00 | |
| 9A1FER-15 | 2026-09-04 12:03:55 | 45.93280 | 14.72637 | 128° | 60km/h | 9793m | 6.1m/s | 0°C | 0% | 0hPa | 0V | 00:00:00 | 00:00:00 | 00:00:00 | |
| OM5KV | 2026-09-04 12:03:50 | 45.93322 | 14.72551 | 127° | 60km/h | 9770m | 4.2m/s | 0°C | 0% | 0hPa | 0V | 00:00:00 | 00:00:00 | 00:00:00 | |
| OM5KV | 2026-09-04 12:03:49 | 45.93332 | 14.72534 | 129° | 60km/h | 9765m | 4.8m/s | 0°C | 0% | 0hPa | 0V | 00:00:00 | 00:00:00 | 00:00:00 | |
| OM5KV | 2026-09-04 12:03:43 | 45.93386 | 14.72431 | 129° | 58km/h | 9739m | 5.8m/s | 0°C | 0% | 0hPa | 0V | 00:00:00 | 00:00:00 | 00:00:00 | |
| OM5KV | 2026-09-04 12:03:42 | 45.93395 | 14.72414 | 128° | 62km/h | 9734m | 4.1m/s | 0°C | 0% | 0hPa | 0V | 00:00:00 | 00:00:00 | 00:00:00 | |
| 9A1FER-3 | 2026-09-04 12:03:41 | 45.93404 | 14.72396 | 124° | 58km/h | 9730m | 3.6m/s | 0°C | 0% | 0hPa | 0V | 00:00:00 | 00:00:00 | 00:00:00 | |
| 9A1FER-15 | 2026-09-04 12:03:40 | 45.93413 | 14.72377 | 124° | 57km/h | 9726m | 5.9m/s | 0°C | 0% | 0hPa | 0V | 00:00:00 | 00:00:00 | 00:00:00 | |
| OM5KV | 2026-09-04 12:03:39 | 45.93421 | 14.72359 | 123° | 57km/h | 9721m | 4.0m/s | 0°C | 0% | 0hPa | 0V | 00:00:00 | 00:00:00 | 00:00:00 | |
| OM5KV | 2026-09-04 12:03:38 | 45.93429 | 14.72341 | 124° | 58km/h | 9716m | 6.3m/s | 0°C | 0% | 0hPa | 0V | 00:00:00 | 00:00:00 | 00:00:00 | |
| OM5KV | 2026-09-04 12:03:35 | 45.93453 | 14.72291 | 128° | 55km/h | 9703m | 2.8m/s | 0°C | 0% | 0hPa | 0V | 00:00:00 | 00:00:00 | 00:00:00 | |
| 9A1FER-10 | 2026-09-04 12:03:31 | 45.93490 | 14.72220 | 125° | 58km/h | 9687m | 2.9m/s | 0°C | 0% | 0hPa | 0V | 00:00:00 | 00:00:00 | 00:00:00 | |
| OM5KV | 2026-09-04 12:03:29 | 45.93508 | 14.72185 | 131° | 58km/h | 9677m | 4.9m/s | 0°C | 0% | 0hPa | 0V | 00:00:00 | 00:00:00 | 00:00:00 | |
| OM5KV | 2026-09-04 12:03:28 | 45.93517 | 14.72169 | 129° | 55km/h | 9672m | 4.5m/s | 0°C | 0% | 0hPa | 0V | 00:00:00 | 00:00:00 | 00:00:00 | |
| 9A1FER-3 | 2026-09-04 12:03:26 | 45.93531 | 14.72138 | 119° | 57km/h | 9664m | 4.2m/s | 0°C | 0% | 0hPa | 0V | 00:00:00 | 00:00:00 | 00:00:00 | |
| 9A1FER-15 | 2026-09-04 12:03:25 | 45.93537 | 14.72123 | 121° | 57km/h | 9659m | 4.5m/s | 0°C | 0% | 0hPa | 0V | 00:00:00 | 00:00:00 | 00:00:00 | |
| 9A1FER-10 | 2026-09-04 12:03:16 | 45.93606 | 14.71959 | 116° | 57km/h | 9621m | 4.7m/s | 0°C | 0% | 0hPa | 0V | 00:00:00 | 00:00:00 | 00:00:00 | |
| 9A1FER-3 | 2026-09-04 12:03:11 | 45.93647 | 14.71882 | 130° | 58km/h | 9599m | 6.1m/s | 0°C | 0% | 0hPa | 0V | 00:00:00 | 00:00:00 | 00:00:00 | |
| 9A1FER-15 | 2026-09-04 12:03:10 | 45.93656 | 14.71866 | 127° | 58km/h | 9594m | 4.3m/s | 0°C | 0% | 0hPa | 0V | 00:00:00 | 00:00:00 | 00:00:00 | |
| OM5KV | 2026-09-04 12:03:06 | 45.93686 | 14.71794 | 125° | 62km/h | 9570m | 3.8m/s | 0°C | 0% | 0hPa | 0V | 00:00:00 | 00:00:00 | 00:00:00 | |
| OM5KV | 2026-09-04 12:03:04 | 45.93705 | 14.71757 | 130° | 62km/h | 9560m | 6.4m/s | 0°C | 0% | 0hPa | 0V | 00:00:00 | 00:00:00 | 00:00:00 | |
| OM5KV | 2026-09-04 12:03:01 | 45.93732 | 14.71708 | 128° | 53km/h | 9543m | 6.7m/s | 0°C | 0% | 0hPa | 0V | 00:00:00 | 00:00:00 | 00:00:00 | |
| 9A1FER-10 | 2026-09-04 12:03:00 | 45.93740 | 14.71693 | 130° | 60km/h | 9537m | 5.5m/s | 0°C | 0% | 0hPa | 0V | 00:00:00 | 00:00:00 | 00:00:00 | |
| OM5KV | 2026-09-04 12:02:59 | 45.93749 | 14.71677 | 130° | 60km/h | 9532m | 4.1m/s | 0°C | 0% | 0hPa | 0V | 00:00:00 | 00:00:00 | 00:00:00 | |
| 9A1FER-3 | 2026-09-04 12:02:56 | 45.93779 | 14.71623 | 129° | 58km/h | 9516m | 3.9m/s | 0°C | 0% | 0hPa | 0V | 00:00:00 | 00:00:00 | 00:00:00 | |
| 9A1FER-15 | 2026-09-04 12:02:55 | 45.93788 | 14.71606 | 130° | 58km/h | 9512m | 5.6m/s | 0°C | 0% | 0hPa | 0V | 00:00:00 | 00:00:00 | 00:00:00 | |
| OM5KV | 2026-09-04 12:02:54 | 45.93798 | 14.71591 | 131° | 55km/h | 9507m | 4.3m/s | 0°C | 0% | 0hPa | 0V | 00:00:00 | 00:00:00 | 00:00:00 | |
| OM5KV | 2026-09-04 12:02:48 | 45.93851 | 14.71489 | 127° | 60km/h | 9475m | 4.3m/s | 0°C | 0% | 0hPa | 0V | 00:00:00 | 00:00:00 | 00:00:00 | |
| 9A1FER-10 | 2026-09-04 12:02:45 | 45.93877 | 14.71434 | 125° | 58km/h | 9462m | 3.9m/s | 0°C | 0% | 0hPa | 0V | 00:00:00 | 00:00:00 | 00:00:00 | |
| OM5KV | 2026-09-04 12:02:43 | 45.93893 | 14.71400 | 126° | 58km/h | 9451m | 5.7m/s | 0°C | 0% | 0hPa | 0V | 00:00:00 | 00:00:00 | 00:00:00 | |
| 9A1FER-3 | 2026-09-04 12:02:41 | 45.93911 | 14.71365 | 124° | 58km/h | 9441m | 5.6m/s | 0°C | 0% | 0hPa | 0V | 00:00:00 | 00:00:00 | 00:00:00 | |
| 9A1FER-15 | 2026-09-04 12:02:40 | 45.93920 | 14.71348 | 127° | 58km/h | 9435m | 6.7m/s | 0°C | 0% | 0hPa | 0V | 00:00:00 | 00:00:00 | 00:00:00 | |
| OM5KV | 2026-09-04 12:02:36 | 45.93953 | 14.71282 | 123° | 58km/h | 9415m | 3.5m/s | 0°C | 0% | 0hPa | 0V | 00:00:00 | 00:00:00 | 00:00:00 | |
| OM5KV | 2026-09-04 12:02:35 | 45.93960 | 14.71264 | 122° | 62km/h | 9411m | 5.5m/s | 0°C | 0% | 0hPa | 0V | 00:00:00 | 00:00:00 | 00:00:00 | |
| OM5KV | 2026-09-04 12:02:34 | 45.93968 | 14.71245 | 121° | 60km/h | 9406m | 5.3m/s | 0°C | 0% | 0hPa | 0V | 00:00:00 | 00:00:00 | 00:00:00 | |
| 9A1FER-10 | 2026-09-04 12:02:30 | 45.94001 | 14.71175 | 126° | 58km/h | 9387m | 5.1m/s | 0°C | 0% | 0hPa | 0V | 00:00:00 | 00:00:00 | 00:00:00 | |
| 9A1FER-3 | 2026-09-04 12:02:26 | 45.94035 | 14.71107 | 126° | 58km/h | 9367m | 6.3m/s | 0°C | 0% | 0hPa | 0V | 00:00:00 | 00:00:00 | 00:00:00 | |
| 9A1FER-15 | 2026-09-04 12:02:25 | 45.94044 | 14.71088 | 127° | 58km/h | 9361m | 5.6m/s | 0°C | 0% | 0hPa | 0V | 00:00:00 | 00:00:00 | 00:00:00 | |
| OM5KV | 2026-09-04 12:02:24 | 45.94053 | 14.71069 | 125° | 64km/h | 9356m | 5.3m/s | 0°C | 0% | 0hPa | 0V | 00:00:00 | 00:00:00 | 00:00:00 | |
| OM5KV | 2026-09-04 12:02:21 | 45.94077 | 14.71014 | 117° | 55km/h | 9341m | 4.1m/s | 0°C | 0% | 0hPa | 0V | 00:00:00 | 00:00:00 | 00:00:00 | |
| OM5KV | 2026-09-04 12:02:18 | 45.94098 | 14.70963 | 130° | 58km/h | 9327m | 5.4m/s | 0°C | 0% | 0hPa | 0V | 00:00:00 | 00:00:00 | 00:00:00 | |
| OM5KV | 2026-09-04 12:02:16 | 45.94116 | 14.70931 | 127° | 57km/h | 9317m | 6.3m/s | 0°C | 0% | 0hPa | 0V | 00:00:00 | 00:00:00 | 00:00:00 | |
| 9A1FER-10 | 2026-09-04 12:02:15 | 45.94125 | 14.70914 | 128° | 58km/h | 9313m | 3.0m/s | 0°C | 0% | 0hPa | 0V | 00:00:00 | 00:00:00 | 00:00:00 | |
| 9A1FER-3 | 2026-09-04 12:02:11 | 45.94160 | 14.70846 | 128° | 58km/h | 9293m | 4.5m/s | 0°C | 0% | 0hPa | 0V | 00:00:00 | 00:00:00 | 00:00:00 | |
| 9A1FER-15 | 2026-09-04 12:02:10 | 45.94169 | 14.70829 | 126° | 58km/h | 9288m | 5.1m/s | 0°C | 0% | 0hPa | 0V | 00:00:00 | 00:00:00 | 00:00:00 | |
| OM5KV | 2026-09-04 12:02:05 | 45.94210 | 14.70743 | 122° | 57km/h | 9266m | 4.4m/s | 0°C | 0% | 0hPa | 0V | 00:00:00 | 00:00:00 | 00:00:00 | |
| OM5KV | 2026-09-04 12:02:04 | 45.94217 | 14.70725 | 121° | 57km/h | 9262m | 3.5m/s | 0°C | 0% | 0hPa | 0V | 00:00:00 | 00:00:00 | 00:00:00 | |
| 9A1FER-10 | 2026-09-04 12:02:00 | 45.94250 | 14.70654 | 127° | 58km/h | 9245m | 4.0m/s | 0°C | 0% | 0hPa | 0V | 00:00:00 | 00:00:00 | 00:00:00 | |
| OM5KV | 2026-09-04 12:01:59 | 45.94260 | 14.70636 | 132° | 62km/h | 9241m | 4.0m/s | 0°C | 0% | 0hPa | 0V | 00:00:00 | 00:00:00 | 00:00:00 | |
| 9A1FER-3 | 2026-09-04 12:01:56 | 45.94287 | 14.70585 | 125° | 57km/h | 9228m | 4.0m/s | 0°C | 0% | 0hPa | 0V | 00:00:00 | 00:00:00 | 00:00:00 | |
| 9A1FER-15 | 2026-09-04 12:01:55 | 45.94295 | 14.70568 | 125° | 57km/h | 9225m | 3.3m/s | 0°C | 0% | 0hPa | 0V | 00:00:00 | 00:00:00 | 00:00:00 | |
| OM5KV | 2026-09-04 12:01:53 | 45.94310 | 14.70533 | 121° | 58km/h | 9217m | 3.1m/s | 0°C | 0% | 0hPa | 0V | 00:00:00 | 00:00:00 | 00:00:00 | |
| 9A1FER-10 | 2026-09-04 12:01:45 | 45.94380 | 14.70395 | 124° | 57km/h | 9184m | 3.6m/s | 0°C | 0% | 0hPa | 0V | 00:00:00 | 00:00:00 | 00:00:00 | |
| 9A1FER-3 | 2026-09-04 12:01:41 | 45.94413 | 14.70333 | 129° | 58km/h | 9166m | 4.5m/s | 0°C | 0% | 0hPa | 0V | 00:00:00 | 00:00:00 | 00:00:00 | |
| 9A1FER-15 | 2026-09-04 12:01:40 | 45.94422 | 14.70317 | 129° | 58km/h | 9162m | 3.3m/s | 0°C | 0% | 0hPa | 0V | 00:00:00 | 00:00:00 | 00:00:00 | |
| 9A1FER-10 | 2026-09-04 12:01:30 | 45.94515 | 14.70154 | 130° | 57km/h | 9111m | 5.5m/s | 0°C | 0% | 0hPa | 0V | 00:00:00 | 00:00:00 | 00:00:00 | |
| OM5KV | 2026-09-04 12:01:27 | 45.94546 | 14.70105 | 131° | 57km/h | 9095m | 4.6m/s | 0°C | 0% | 0hPa | 0V | 00:00:00 | 00:00:00 | 00:00:00 | |
| 9A1FER-3 | 2026-09-04 12:01:26 | 45.94555 | 14.70090 | 130° | 53km/h | 9090m | 4.7m/s | 0°C | 0% | 0hPa | 0V | 00:00:00 | 00:00:00 | 00:00:00 | |
| 9A1FER-15 | 2026-09-04 12:01:25 | 45.94563 | 14.70075 | 128° | 53km/h | 9085m | 4.7m/s | 0°C | 0% | 0hPa | 0V | 00:00:00 | 00:00:00 | 00:00:00 | |
| 9A1FER-10 | 2026-09-04 12:01:15 | 45.94655 | 14.69933 | 127° | 51km/h | 9038m | 4.7m/s | 0°C | 0% | 0hPa | 0V | 00:00:00 | 00:00:00 | 00:00:00 | |
| 9A1FER-3 | 2026-09-04 12:01:11 | 45.94686 | 14.69874 | 132° | 49km/h | 9021m | 5.9m/s | 0°C | 0% | 0hPa | 0V | 00:00:00 | 00:00:00 | 00:00:00 | |
| 9A1FER-15 | 2026-09-04 12:01:10 | 45.94694 | 14.69862 | 136° | 49km/h | 9016m | 4.8m/s | 0°C | 0% | 0hPa | 0V | 00:00:00 | 00:00:00 | 00:00:00 | |
| OM5KV | 2026-09-04 12:01:02 | 45.94770 | 14.69751 | 135° | 51km/h | 8981m | 4.9m/s | 0°C | 0% | 0hPa | 0V | 00:00:00 | 00:00:00 | 00:00:00 | |
| 9A1FER-10 | 2026-09-04 12:01:00 | 45.94786 | 14.69725 | 134° | 47km/h | 8972m | 4.3m/s | 0°C | 0% | 0hPa | 0V | 00:00:00 | 00:00:00 | 00:00:00 | |
| OM5KV | 2026-09-04 12:00:57 | 45.94809 | 14.69694 | 141° | 46km/h | 8958m | 4.3m/s | 0°C | 0% | 0hPa | 0V | 00:00:00 | 00:00:00 | 00:00:00 | |
| 9A1FER-3 | 2026-09-04 12:00:56 | 45.94818 | 14.69683 | 140° | 49km/h | 8954m | 5.1m/s | 0°C | 0% | 0hPa | 0V | 00:00:00 | 00:00:00 | 00:00:00 | |
| 9A1FER-15 | 2026-09-04 12:00:55 | 45.94828 | 14.69672 | 143° | 49km/h | 8948m | 6.4m/s | 0°C | 0% | 0hPa | 0V | 00:00:00 | 00:00:00 | 00:00:00 | |
| OM5KV | 2026-09-04 12:00:49 | 45.94879 | 14.69589 | 129° | 46km/h | 8919m | 3.0m/s | 0°C | 0% | 0hPa | 0V | 00:00:00 | 00:00:00 | 00:00:00 | |
| OM5KV | 2026-09-04 12:00:42 | 45.94938 | 14.69499 | 133° | 47km/h | 8886m | 4.1m/s | 0°C | 0% | 0hPa | 0V | 00:00:00 | 00:00:00 | 00:00:00 | |
| 9A1FER-3 | 2026-09-04 12:00:41 | 45.94946 | 14.69487 | 134° | 47km/h | 8882m | 4.6m/s | 0°C | 0% | 0hPa | 0V | 00:00:00 | 00:00:00 | 00:00:00 | |
| 9A1FER-15 | 2026-09-04 12:00:40 | 45.94954 | 14.69475 | 134° | 49km/h | 8877m | 4.3m/s | 0°C | 0% | 0hPa | 0V | 00:00:00 | 00:00:00 | 00:00:00 | |
| 9A1FER-10 | 2026-09-04 12:00:30 | 45.95039 | 14.69343 | 128° | 49km/h | 8836m | 4.8m/s | 0°C | 0% | 0hPa | 0V | 00:00:00 | 00:00:00 | 00:00:00 | |
| 9A1FER-3 | 2026-09-04 12:00:26 | 45.95073 | 14.69296 | 141° | 51km/h | 8820m | 5.4m/s | 0°C | 0% | 0hPa | 0V | 00:00:00 | 00:00:00 | 00:00:00 | |
| 9A1FER-15 | 2026-09-04 12:00:25 | 45.95083 | 14.69283 | 138° | 51km/h | 8815m | 4.0m/s | 0°C | 0% | 0hPa | 0V | 00:00:00 | 00:00:00 | 00:00:00 | |
| OM5KV | 2026-09-04 12:00:23 | 45.95104 | 14.69252 | 127° | 55km/h | 8807m | 2.9m/s | 0°C | 0% | 0hPa | 0V | 00:00:00 | 00:00:00 | 00:00:00 | |
| OM5KV | 2026-09-04 12:00:16 | 45.95162 | 14.69145 | 139° | 51km/h | 8768m | 6.8m/s | 0°C | 0% | 0hPa | 0V | 00:00:00 | 00:00:00 | 00:00:00 | |
| 9A1FER-10 | 2026-09-04 12:00:15 | 45.95162 | 14.69145 | 139° | 47km/h | 8768m | 6.8m/s | 0°C | 0% | 0hPa | 0V | 00:00:00 | 00:00:00 | 00:00:00 | |
| 9A1FER-3 | 2026-09-04 12:00:11 | 45.95196 | 14.69086 | 120° | 47km/h | 8750m | 6.8m/s | 0°C | 0% | 0hPa | 0V | 00:00:00 | 00:00:00 | 00:00:00 | |
| 9A1FER-10 | 2026-09-04 12:00:00 | 45.95276 | 14.68943 | 127° | 46km/h | 8693m | 5.6m/s | 0°C | 0% | 0hPa | 0V | 00:00:00 | 00:00:00 | 00:00:00 | |
| 9A1FER-3 | 2026-09-04 11:59:56 | 45.95307 | 14.68883 | 130° | 46km/h | 8674m | 4.8m/s | 0°C | 0% | 0hPa | 0V | 00:00:00 | 00:00:00 | 00:00:00 | |
| 9A1FER-15 | 2026-09-04 11:59:55 | 45.95314 | 14.68871 | 129° | 46km/h | 8670m | 3.6m/s | 0°C | 0% | 0hPa | 0V | 00:00:00 | 00:00:00 | 00:00:00 | |
| 9A1FER-10 | 2026-09-04 11:59:45 | 45.95376 | 14.68737 | 129° | 44km/h | 8626m | 4.6m/s | 0°C | 0% | 0hPa | 0V | 00:00:00 | 00:00:00 | 00:00:00 | |
| 9A1FER-3 | 2026-09-04 11:59:41 | 45.95405 | 14.68681 | 123° | 44km/h | 8609m | 5.1m/s | 0°C | 0% | 0hPa | 0V | 00:00:00 | 00:00:00 | 00:00:00 | |
| 9A1FER-15 | 2026-09-04 11:59:40 | 45.95410 | 14.68669 | 118° | 44km/h | 8604m | 3.6m/s | 0°C | 0% | 0hPa | 0V | 00:00:00 | 00:00:00 | 00:00:00 | |
| 9A1FER-10 | 2026-09-04 11:59:30 | 45.95465 | 14.68535 | 115° | 46km/h | 8560m | 5.9m/s | 0°C | 0% | 0hPa | 0V | 00:00:00 | 00:00:00 | 00:00:00 | |
| 9A1FER-3 | 2026-09-04 11:59:26 | 45.95488 | 14.68474 | 115° | 44km/h | 8543m | 5.9m/s | 0°C | 0% | 0hPa | 0V | 00:00:00 | 00:00:00 | 00:00:00 | |
| 9A1FER-15 | 2026-09-04 11:59:24 | 45.95499 | 14.68445 | 122° | 46km/h | 8532m | 4.0m/s | 0°C | 0% | 0hPa | 0V | 00:00:00 | 00:00:00 | 00:00:00 | |
| 9A1FER-10 | 2026-09-04 11:59:15 | 45.95554 | 14.68315 | 123° | 44km/h | 8490m | 3.2m/s | 0°C | 0% | 0hPa | 0V | 00:00:00 | 00:00:00 | 00:00:00 | |
| 9A1FER-3 | 2026-09-04 11:59:11 | 45.95574 | 14.68263 | 118° | 47km/h | 8470m | 5.9m/s | 0°C | 0% | 0hPa | 0V | 00:00:00 | 00:00:00 | 00:00:00 | |
| 9A1FER-15 | 2026-09-04 11:59:08 | 45.95594 | 14.68218 | 126° | 49km/h | 8456m | 6.5m/s | 0°C | 0% | 0hPa | 0V | 00:00:00 | 00:00:00 | 00:00:00 | |
| 9A1FER-10 | 2026-09-04 11:59:00 | 45.95634 | 14.68095 | 119° | 51km/h | 8419m | 2.3m/s | 0°C | 0% | 0hPa | 0V | 00:00:00 | 00:00:00 | 00:00:00 | |
| 9A1FER-3 | 2026-09-04 11:58:56 | 45.95661 | 14.68034 | 125° | 51km/h | 8396m | 5.1m/s | 0°C | 0% | 0hPa | 0V | 00:00:00 | 00:00:00 | 00:00:00 | |
| 9A1FER-15 | 2026-09-04 11:58:53 | 45.95683 | 14.67987 | 123° | 51km/h | 8379m | 4.8m/s | 0°C | 0% | 0hPa | 0V | 00:00:00 | 00:00:00 | 00:00:00 | |
| 9A1FER-10 | 2026-09-04 11:58:45 | 45.95735 | 14.67864 | 124° | 51km/h | 8337m | 3.3m/s | 0°C | 0% | 0hPa | 0V | 00:00:00 | 00:00:00 | 00:00:00 | |
| 9A1FER-3 | 2026-09-04 11:58:41 | 45.95767 | 14.67801 | 129° | 47km/h | 8321m | 4.8m/s | 0°C | 0% | 0hPa | 0V | 00:00:00 | 00:00:00 | 00:00:00 | |
| 9A1FER-15 | 2026-09-04 11:58:38 | 45.95787 | 14.67752 | 116° | 49km/h | 8308m | 4.7m/s | 0°C | 0% | 0hPa | 0V | 00:00:00 | 00:00:00 | 00:00:00 | |
| 9A1FER-10 | 2026-09-04 11:58:30 | 45.95832 | 14.67636 | 119° | 51km/h | 8271m | 4.2m/s | 0°C | 0% | 0hPa | 0V | 00:00:00 | 00:00:00 | 00:00:00 | |
| 9A1FER-3 | 2026-09-04 11:58:25 | 45.95861 | 14.67553 | 125° | 53km/h | 8250m | 4.0m/s | 0°C | 0% | 0hPa | 0V | 00:00:00 | 00:00:00 | 00:00:00 | |
| 9A1FER-15 | 2026-09-04 11:58:23 | 45.95877 | 14.67520 | 124° | 53km/h | 8241m | 4.3m/s | 0°C | 0% | 0hPa | 0V | 00:00:00 | 00:00:00 | 00:00:00 | |
| 9A1FER-10 | 2026-09-04 11:58:15 | 45.95934 | 14.67398 | 119° | 53km/h | 8207m | 5.0m/s | 0°C | 0% | 0hPa | 0V | 00:00:00 | 00:00:00 | 00:00:00 | |
| 9A1FER-3 | 2026-09-04 11:58:10 | 45.95973 | 14.67313 | 133° | 55km/h | 8181m | 6.3m/s | 0°C | 0% | 0hPa | 0V | 00:00:00 | 00:00:00 | 00:00:00 | |
| 9A1FER-15 | 2026-09-04 11:58:08 | 45.95990 | 14.67285 | 127° | 53km/h | 8171m | 3.7m/s | 0°C | 0% | 0hPa | 0V | 00:00:00 | 00:00:00 | 00:00:00 | |
| 9A1FER-10 | 2026-09-04 11:58:00 | 45.96043 | 14.67153 | 117° | 57km/h | 8135m | 4.3m/s | 0°C | 0% | 0hPa | 0V | 00:00:00 | 00:00:00 | 00:00:00 | |
| 9A1FER-3 | 2026-09-04 11:57:55 | 45.96086 | 14.67070 | 131° | 57km/h | 8111m | 4.9m/s | 0°C | 0% | 0hPa | 0V | 00:00:00 | 00:00:00 | 00:00:00 | |
| 9A1FER-15 | 2026-09-04 11:57:53 | 45.96102 | 14.67044 | 131° | 58km/h | 8102m | 4.6m/s | 0°C | 0% | 0hPa | 0V | 00:00:00 | 00:00:00 | 00:00:00 | |
| 9A1FER-10 | 2026-09-04 11:57:43 | 45.96198 | 14.66856 | 133° | 60km/h | 8042m | 4.8m/s | 0°C | 0% | 0hPa | 0V | 00:00:00 | 00:00:00 | 00:00:00 | |
| 9A1FER-3 | 2026-09-04 11:57:40 | 45.96217 | 14.66824 | 131° | 62km/h | 8034m | 4.3m/s | 0°C | 0% | 0hPa | 0V | 00:00:00 | 00:00:00 | 00:00:00 | |
| 9A1FER-15 | 2026-09-04 11:57:36 | 45.96258 | 14.66754 | 131° | 60km/h | 8016m | 4.6m/s | 0°C | 0% | 0hPa | 0V | 00:00:00 | 00:00:00 | 00:00:00 | |
| 9A1FER-10 | 2026-09-04 11:57:27 | 45.96347 | 14.66602 | 132° | 62km/h | 7975m | 5.1m/s | 0°C | 0% | 0hPa | 0V | 00:00:00 | 00:00:00 | 00:00:00 | |
| 9A1FER-3 | 2026-09-04 11:57:25 | 45.96369 | 14.66568 | 133° | 58km/h | 7967m | 3.1m/s | 0°C | 0% | 0hPa | 0V | 00:00:00 | 00:00:00 | 00:00:00 | |
| 9A1FER-15 | 2026-09-04 11:57:21 | 45.96406 | 14.66517 | 125° | 58km/h | 7948m | 4.4m/s | 0°C | 0% | 0hPa | 0V | 00:00:00 | 00:00:00 | 00:00:00 | |
| 9A1FER-10 | 2026-09-04 11:57:12 | 45.96495 | 14.66362 | 130° | 57km/h | 7910m | 3.0m/s | 0°C | 0% | 0hPa | 0V | 00:00:00 | 00:00:00 | 00:00:00 | |
| OE3JTB-15 | 2026-09-04 11:57:11 | 45.96503 | 14.66347 | 131° | 58km/h | 7906m | 5.9m/s | 0°C | 0% | 0hPa | 0V | 00:00:00 | 00:00:00 | 00:00:00 | |
| 9A1FER-3 | 2026-09-04 11:57:10 | 45.96512 | 14.66332 | 131° | 58km/h | 7901m | 4.9m/s | 0°C | 0% | 0hPa | 0V | 00:00:00 | 00:00:00 | 00:00:00 | |
| 9A1FER-15 | 2026-09-04 11:57:06 | 45.96553 | 14.66266 | 139° | 58km/h | 7885m | 3.4m/s | 0°C | 0% | 0hPa | 0V | 00:00:00 | 00:00:00 | 00:00:00 | |
| 9A1FER-10 | 2026-09-04 11:56:56 | 45.96649 | 14.66105 | 136° | 57km/h | 7827m | 3.5m/s | 0°C | 0% | 0hPa | 0V | 00:00:00 | 00:00:00 | 00:00:00 | |
| 9A1FER-3 | 2026-09-04 11:56:55 | 45.96659 | 14.66091 | 135° | 58km/h | 7822m | 5.7m/s | 0°C | 0% | 0hPa | 0V | 00:00:00 | 00:00:00 | 00:00:00 | |
| 9A1FER-10 | 2026-09-04 11:56:41 | 45.96792 | 14.65872 | 132° | 57km/h | 7749m | 5.5m/s | 0°C | 0% | 0hPa | 0V | 00:00:00 | 00:00:00 | 00:00:00 | |
| 9A1FER-15 | 2026-09-04 11:56:33 | 45.96873 | 14.65751 | 134° | 57km/h | 7709m | 3.9m/s | 0°C | 0% | 0hPa | 0V | 00:00:00 | 00:00:00 | 00:00:00 | |
| 9A1FER-3 | 2026-09-04 11:56:32 | 45.96882 | 14.65737 | 136° | 58km/h | 7704m | 5.1m/s | 0°C | 0% | 0hPa | 0V | 00:00:00 | 00:00:00 | 00:00:00 | |
| 9A1FER-10 | 2026-09-04 11:56:25 | 45.96959 | 14.65628 | 137° | 57km/h | 7672m | 3.5m/s | 0°C | 0% | 0hPa | 0V | 00:00:00 | 00:00:00 | 00:00:00 | |
| 9A1FER-15 | 2026-09-04 11:56:17 | 45.97040 | 14.65511 | 137° | 58km/h | 7636m | 4.2m/s | 0°C | 0% | 0hPa | 0V | 00:00:00 | 00:00:00 | 00:00:00 | |
| 9A1FER-15 | 2026-09-04 11:56:02 | 45.97207 | 14.65311 | 138° | 57km/h | 7560m | 5.5m/s | 0°C | 0% | 0hPa | 0V | 00:00:00 | 00:00:00 | 00:00:00 | |
| 9A1FER-10 | 2026-09-04 11:55:57 | 45.97258 | 14.65234 | 135° | 57km/h | 7538m | 3.8m/s | 0°C | 0% | 0hPa | 0V | 00:00:00 | 00:00:00 | 00:00:00 | |
| 9A1FER-15 | 2026-09-04 11:55:47 | 45.97355 | 14.65093 | 129° | 58km/h | 7497m | 4.5m/s | 0°C | 0% | 0hPa | 0V | 00:00:00 | 00:00:00 | 00:00:00 | |
| 9A1FER-10 | 2026-09-04 11:55:42 | 45.97411 | 14.65027 | 145° | 55km/h | 7476m | 4.4m/s | 0°C | 0% | 0hPa | 0V | 00:00:00 | 00:00:00 | 00:00:00 | |
| 9A1FER-15 | 2026-09-04 11:55:32 | 45.97512 | 14.64878 | 138° | 57km/h | 7430m | 4.0m/s | 0°C | 0% | 0hPa | 0V | 00:00:00 | 00:00:00 | 00:00:00 | |
| OE3JTB-15 | 2026-09-04 11:55:12 | 45.97723 | 14.64586 | 138° | 57km/h | 7340m | 4.1m/s | 0°C | 0% | 0hPa | 0V | 00:00:00 | 00:00:00 | 00:00:00 | |
| 9A1FER-10 | 2026-09-04 11:55:06 | 45.97785 | 14.64507 | 137° | 57km/h | 7315m | 4.2m/s | 0°C | 0% | 0hPa | 0V | 00:00:00 | 00:00:00 | 00:00:00 | |
| 9A1FER-3 | 2026-09-04 11:54:58 | 45.97870 | 14.64395 | 136° | 57km/h | 7279m | 3.5m/s | 0°C | 0% | 0hPa | 0V | 00:00:00 | 00:00:00 | 00:00:00 | |
| 9A1FER-10 | 2026-09-04 11:54:51 | 45.97942 | 14.64297 | 139° | 64km/h | 7251m | 3.7m/s | 0°C | 0% | 0hPa | 0V | 00:00:00 | 00:00:00 | 00:00:00 | |
| 9A1FER-3 | 2026-09-04 11:54:43 | 45.98027 | 14.64164 | 128° | 60km/h | 7220m | 1.1m/s | 0°C | 0% | 0hPa | 0V | 00:00:00 | 00:00:00 | 00:00:00 | |
| OE3JTB-15 | 2026-09-04 11:54:41 | 45.98056 | 14.64113 | 134° | 62km/h | 7209m | 4.9m/s | 0°C | 0% | 0hPa | 0V | 00:00:00 | 00:00:00 | 00:00:00 | |
| 9A1FER-3 | 2026-09-04 11:54:28 | 45.98188 | 14.63932 | 141° | 60km/h | 7155m | 4.6m/s | 0°C | 0% | 0hPa | 0V | 00:00:00 | 00:00:00 | 00:00:00 | |
| OE3JTB-15 | 2026-09-04 11:54:11 | 45.98383 | 14.63667 | 138° | 66km/h | 7093m | 4.6m/s | 0°C | 0% | 0hPa | 0V | 00:00:00 | 00:00:00 | 00:00:00 | |
| OE3JTB-15 | 2026-09-04 11:53:41 | 45.98733 | 14.63153 | 134° | 68km/h | 6970m | 4.3m/s | 0°C | 0% | 0hPa | 0V | 00:00:00 | 00:00:00 | 00:00:00 |